Provisional Data: South Branch Tunkhannock Creek near La Plume, PA


Please select a monitoring station.
Please select start date.
Please select start date.

Toggle Unit: C/F Toggle Unit: C/F
Sample Time Temperature (C) Temperature (F) Specific Conductivity (mS/cm) pH   Turbidity (NTU+) DO (mg/L)
10/30/2022 12:00:00 AM 8.46 47.228 0.289 7.53 1.58 10.66
10/30/2022 12:15:00 AM 8.39 47.102 0.289 7.53 1.54 10.68
10/30/2022 12:30:00 AM 8.32 46.976 0.289 7.53 1.54 10.71
10/30/2022 12:45:00 AM 8.24 46.832 0.289 7.52 1.53 10.72
10/30/2022 1:00:00 AM 8.16 46.688 0.289 7.52 1.54 10.73
10/30/2022 1:15:00 AM 8.08 46.544 0.289 7.52 1.48 10.76
10/30/2022 1:30:00 AM 8.02 46.436 0.289 7.52 1.53 10.82
10/30/2022 1:45:00 AM 7.93 46.274 0.289 7.51 1.55 10.79
10/30/2022 2:00:00 AM 7.86 46.148 0.289 7.51 1.54 10.83
10/30/2022 2:15:00 AM 7.77 45.986 0.289 7.5 1.59 10.84
10/30/2022 2:30:00 AM 7.68 45.824 0.289 7.5 1.54 10.87
10/30/2022 2:45:00 AM 7.63 45.734 0.289 7.5 1.51 10.94
10/30/2022 3:00:00 AM 7.54 45.572 0.289 7.5 1.56 10.93
10/30/2022 3:15:00 AM 7.47 45.446 0.289 7.49 1.58 10.96
10/30/2022 3:30:00 AM 7.39 45.302 0.29 7.49 1.57 10.99
10/30/2022 3:45:00 AM 7.32 45.176 0.289 7.49 1.56 11.01
10/30/2022 4:00:00 AM 7.25 45.05 0.289 7.49 1.61 11.05
10/30/2022 4:15:00 AM 7.18 44.924 0.29 7.48 1.59 11.08
10/30/2022 4:30:00 AM 7.1 44.78 0.29 7.48 1.65 11.08
10/30/2022 4:45:00 AM 7.03 44.654 0.29 7.48 1.57 11.14
10/30/2022 5:00:00 AM 6.95 44.51 0.289 7.48 1.98 11.11
10/30/2022 5:15:00 AM 6.87 44.366 0.289 7.48 1.58 11.14
10/30/2022 5:30:00 AM 6.81 44.258 0.289 7.47 1.53 11.15
10/30/2022 5:45:00 AM 6.75 44.15 0.289 7.47 1.52 11.21
10/30/2022 6:00:00 AM 6.68 44.024 0.289 7.47 1.56 11.22
10/30/2022 6:15:00 AM 6.62 43.916 0.289 7.47 1.61 11.24
10/30/2022 6:30:00 AM 6.55 43.79 0.289 7.47 1.59 11.27
10/30/2022 6:45:00 AM 6.48 43.664 0.289 7.46 1.59 11.29
10/30/2022 7:00:00 AM 6.41 43.538 0.288 7.46 1.52 11.3
10/30/2022 7:15:00 AM 6.35 43.43 0.288 7.46 1.61 11.32
10/30/2022 7:30:00 AM 6.29 43.322 0.288 7.46 1.76 11.37
10/30/2022 7:45:00 AM 6.23 43.214 0.288 7.47 2.78 11.43
10/30/2022 8:00:00 AM 6.17 43.106 0.288 7.47 1.53 11.52
10/30/2022 8:15:00 AM 6.14 43.052 0.288 7.48 1.6 11.64
10/30/2022 8:30:00 AM 6.1 42.98 0.287 7.5 1.62 11.76
10/30/2022 8:45:00 AM 6.07 42.926 0.287 7.51 1.56 11.88
10/30/2022 9:00:00 AM 6.06 42.908 0.287 7.53 1.61 12.04
10/30/2022 9:15:00 AM 6.04 42.872 0.287 7.56 1.53 12.16
10/30/2022 9:30:00 AM 6.06 42.908 0.287 7.58 1.55 12.33
10/30/2022 9:45:00 AM 6.09 42.962 0.286 7.61 1.55 12.49
10/30/2022 10:00:00 AM 6.16 43.088 0.286 7.65 1.58 12.71
10/30/2022 10:15:00 AM 6.25 43.25 0.286 7.69 1.57 12.88
10/30/2022 10:30:00 AM 6.31 43.358 0.286 7.73 1.57 12.96
10/30/2022 10:45:00 AM 6.38 43.484 0.286 7.77 1.78 13.05
10/30/2022 11:00:00 AM 6.51 43.718 0.286 7.8 1.58 13.15
10/30/2022 11:15:00 AM 6.64 43.952 0.286 7.85 1.56 13.24
10/30/2022 11:30:00 AM 6.75 44.15 0.287 7.89 1.55 13.3
10/30/2022 11:45:00 AM 6.88 44.384 0.287 7.92 1.57 13.29
10/30/2022 12:00:00 PM 7.04 44.672 0.287 7.95 1.52 13.31
10/30/2022 12:15:00 PM 7.21 44.978 0.287 7.98 1.53 13.32
10/30/2022 12:30:00 PM 7.38 45.284 0.287 8.03 1.51 13.33
10/30/2022 12:45:00 PM 7.56 45.608 0.287 8.06 1.49 13.31
10/30/2022 1:00:00 PM 7.78 46.004 0.287 8.1 1.48 13.29
10/30/2022 1:15:00 PM 8.05 46.49 0.287 8.15 1.51 13.3
10/30/2022 1:30:00 PM 8.27 46.886 0.287 8.19 1.53 13.27
10/30/2022 1:45:00 PM 8.51 47.318 0.286 8.22 1.52 13.23
10/30/2022 2:00:00 PM 8.67 47.606 0.286 8.25 1.53 13.15
10/30/2022 2:15:00 PM 8.87 47.966 0.286 8.28 1.49 13.12
10/30/2022 2:30:00 PM 8.99 48.182 0.286 8.3 1.49 13.07
10/30/2022 2:45:00 PM 9.07 48.326 0.286 8.33 1.51 13
10/30/2022 3:00:00 PM 9.16 48.488 0.286 8.35 1.59 12.98
10/30/2022 3:15:00 PM 9.17 48.506 0.285 8.35 1.49 12.91
10/30/2022 3:30:00 PM 9.19 48.542 0.286 8.35 2.43 12.85
10/30/2022 3:45:00 PM 9.19 48.542 0.286 8.35 1.53 12.79
10/30/2022 4:00:00 PM 9.19 48.542 0.286 8.34 1.44 12.71
10/30/2022 4:15:00 PM 9.19 48.542 0.286 8.33 1.45 12.62
10/30/2022 4:30:00 PM 9.19 48.542 0.286 8.31 1.42 12.51
10/30/2022 4:45:00 PM 9.19 48.542 0.286 8.27 1.48 12.38
10/30/2022 5:00:00 PM 9.18 48.524 0.286 8.22 1.42 12.24
10/30/2022 5:15:00 PM 9.18 48.524 0.286 8.21 1.45 12.16
10/30/2022 5:30:00 PM 9.19 48.542 0.287 8.16 1.48 12.01
10/30/2022 5:45:00 PM 9.17 48.506 0.287 8.1 1.52 11.8
10/30/2022 6:00:00 PM 9.14 48.452 0.287 8.03 1.61 11.57
10/30/2022 6:15:00 PM 9.11 48.398 0.288 7.96 1.52 11.36
10/30/2022 6:30:00 PM 9.08 48.344 0.288 7.9 1.49 11.2
10/30/2022 6:45:00 PM 9.07 48.326 0.289 7.86 1.53 11.1
10/30/2022 7:00:00 PM 9.04 48.272 0.289 7.82 1.57 10.97
10/30/2022 7:15:00 PM 8.99 48.182 0.289 7.78 1.56 10.87
10/30/2022 7:30:00 PM 8.97 48.146 0.289 7.75 1.65 10.78
10/30/2022 7:45:00 PM 8.94 48.092 0.29 7.73 1.73 10.72
10/30/2022 8:00:00 PM 8.93 48.074 0.29 7.71 1.61 10.68
10/30/2022 8:15:00 PM 8.91 48.038 0.291 7.68 1.59 10.62
10/30/2022 8:30:00 PM 8.9 48.02 0.291 7.67 1.59 10.6
10/30/2022 8:45:00 PM 8.88 47.984 0.291 7.65 1.62 10.55
10/30/2022 9:00:00 PM 8.87 47.966 0.291 7.64 1.59 10.53
10/30/2022 9:15:00 PM 8.86 47.948 0.291 7.62 1.7 10.49
10/30/2022 9:30:00 PM 8.85 47.93 0.292 7.61 1.72 10.47
10/30/2022 9:45:00 PM 8.85 47.93 0.292 7.6 1.69 10.49
10/30/2022 10:00:00 PM 8.83 47.894 0.292 7.59 1.61 10.47
10/30/2022 10:15:00 PM 8.84 47.912 0.292 7.59 1.6 10.49
10/30/2022 10:30:00 PM 8.82 47.876 0.292 7.58 1.61 10.5
10/30/2022 10:45:00 PM 8.79 47.822 0.293 7.57 1.57 10.48
10/30/2022 11:00:00 PM 8.75 47.75 0.293 7.57 1.57 10.47
10/30/2022 11:15:00 PM 8.71 47.678 0.293 7.56 1.55 10.49
10/30/2022 11:30:00 PM 8.67 47.606 0.293 7.56 1.59 10.49
10/30/2022 11:45:00 PM 8.63 47.534 0.292 7.55 1.65 10.5
10/31/2022 12:00:00 AM 8.58 47.444 0.293 7.54 1.57 10.5
10/31/2022 12:15:00 AM 8.54 47.372 0.293 7.54 1.84 10.54
10/31/2022 12:30:00 AM 8.49 47.282 0.293 7.53 1.64 10.53
10/31/2022 12:45:00 AM 8.42 47.156 0.293 7.53 1.66 10.52
10/31/2022 1:00:00 AM 8.39 47.102 0.293 7.53 1.71 10.55
10/31/2022 1:15:00 AM 8.34 47.012 0.293 7.53 1.74 10.59
10/31/2022 1:30:00 AM 8.28 46.904 0.293 7.52 1.74 10.57
10/31/2022 1:45:00 AM 8.27 46.886 0.293 7.52 1.67 10.62
10/31/2022 2:00:00 AM 8.26 46.868 0.293 7.52 1.7 10.64
10/31/2022 2:15:00 AM 8.23 46.814 0.293 7.52 1.7 10.61
10/31/2022 2:30:00 AM 8.19 46.742 0.293 7.52 1.71 10.68
10/31/2022 2:45:00 AM 8.13 46.634 0.292 7.51 1.72 10.64
10/31/2022 3:00:00 AM 8.08 46.544 0.293 7.51 1.67 10.69
10/31/2022 3:15:00 AM 8.03 46.454 0.293 7.51 1.71 10.7
10/31/2022 3:30:00 AM 7.98 46.364 0.293 7.5 1.76 10.71
10/31/2022 3:45:00 AM 7.93 46.274 0.292 7.5 1.91 10.71
10/31/2022 4:00:00 AM 7.88 46.184 0.292 7.5 1.69 10.73
10/31/2022 4:15:00 AM 7.83 46.094 0.293 7.5 1.73 10.73
10/31/2022 4:30:00 AM 7.77 45.986 0.292 7.49 1.73 10.72
10/31/2022 4:45:00 AM 7.73 45.914 0.293 7.49 1.75 10.76
10/31/2022 5:00:00 AM 7.68 45.824 0.293 7.49 1.68 10.77
10/31/2022 5:15:00 AM 7.63 45.734 0.293 7.49 1.65 10.8
10/31/2022 5:30:00 AM 7.59 45.662 0.293 7.49 1.63 10.81
10/31/2022 5:45:00 AM 7.57 45.626 0.293 7.49 1.74 10.85
10/31/2022 6:00:00 AM 7.51 45.518 0.293 7.49 1.71 10.85
10/31/2022 6:15:00 AM 7.47 45.446 0.293 7.48 1.74 10.85
10/31/2022 6:30:00 AM 7.45 45.41 0.293 7.48 1.67 10.89
10/31/2022 6:45:00 AM 7.43 45.374 0.293 7.48 1.69 10.88
10/31/2022 7:00:00 AM 7.4 45.32 0.292 7.48 1.68 10.91
10/31/2022 7:15:00 AM 7.37 45.266 0.292 7.48 1.78 10.89
10/31/2022 7:30:00 AM 7.33 45.194 0.292 7.48 1.68 10.93
10/31/2022 7:45:00 AM 7.31 45.158 0.292 7.48 1.71 10.97
10/31/2022 8:00:00 AM 7.29 45.122 0.292 7.49 1.7 11.06
10/31/2022 8:15:00 AM 7.28 45.104 0.292 7.5 1.65 11.18
10/31/2022 8:30:00 AM 7.27 45.086 0.291 7.51 1.65 11.28
10/31/2022 8:45:00 AM 7.26 45.068 0.291 7.53 1.74 11.4
10/31/2022 9:00:00 AM 7.26 45.068 0.291 7.54 1.75 11.53
10/31/2022 9:15:00 AM 7.26 45.068 0.29 7.56 1.72 11.61
10/31/2022 9:30:00 AM 7.29 45.122 0.29 7.58 1.82 11.75
10/31/2022 9:45:00 AM 7.34 45.212 0.29 7.61 1.58 11.92
10/31/2022 10:00:00 AM 7.46 45.428 0.289 7.67 1.57 12.27
10/31/2022 10:15:00 AM 7.65 45.77 0.288 7.74 1.57 12.63
10/31/2022 10:30:00 AM 7.82 46.076 0.288 7.81 1.53 12.81
10/31/2022 10:45:00 AM 7.94 46.292 0.288 7.86 1.54 12.93
10/31/2022 11:00:00 AM 8.07 46.526 0.287 7.92 1.53 12.99
10/31/2022 11:15:00 AM 8.22 46.796 0.287 7.98 1.51 13.07
10/31/2022 11:30:00 AM 8.37 47.066 0.287 8.03 1.57 13.19
10/31/2022 11:45:00 AM 8.54 47.372 0.287 8.11 1.86 13.3
10/31/2022 12:00:00 PM 8.72 47.696 0.286 8.19 1.52 13.37
10/31/2022 12:15:00 PM 8.85 47.93 0.286 8.26 1.51 13.38
10/31/2022 12:30:00 PM 8.98 48.164 0.286 8.29 1.45 13.34
10/31/2022 12:45:00 PM 9.08 48.344 0.286 8.33 1.74 13.29
10/31/2022 1:00:00 PM 9.22 48.596 0.285 8.38 1.49 13.34
10/31/2022 1:15:00 PM 9.35 48.83 0.285 8.44 1.57 13.34
10/31/2022 1:30:00 PM 9.43 48.974 0.285 8.48 1.49 13.32
10/31/2022 1:45:00 PM 9.51 49.118 0.284 8.5 1.61 13.27
10/31/2022 2:00:00 PM 9.58 49.244 0.284 8.52 1.54 13.2
10/31/2022 2:15:00 PM 9.67 49.406 0.284 8.57 1.54 13.26
10/31/2022 2:30:00 PM 9.76 49.568 0.283 8.6 1.59 13.23
10/31/2022 2:45:00 PM 9.88 49.784 0.283 8.62 2.19 13.21
10/31/2022 3:00:00 PM 9.96 49.928 0.283 8.66 1.53 13.21
10/31/2022 3:15:00 PM 10.04 50.072 0.283 8.68 1.62 13.1
10/31/2022 3:30:00 PM 10.09 50.162 0.284 8.67 1.55 12.99
10/31/2022 3:45:00 PM 10.2 50.36 0.284 8.7 1.61 13.02
10/31/2022 4:00:00 PM 10.26 50.468 0.284 8.73 1.58 12.99
10/31/2022 4:15:00 PM 10.31 50.558 0.284 8.71 1.7 12.77
10/31/2022 4:30:00 PM 10.35 50.63 0.284 8.68 1.52 12.59
10/31/2022 4:45:00 PM 10.4 50.72 0.284 8.64 1.66 12.41
10/31/2022 5:00:00 PM 10.45 50.81 0.284 8.6 1.09 12.25
10/31/2022 5:15:00 PM 10.48 50.864 0.285 8.55 1.15 12.02
10/31/2022 5:30:00 PM 10.5 50.9 0.285 8.44 1.09 11.71
10/31/2022 5:45:00 PM 10.53 50.954 0.285 8.33 1.15 11.44
10/31/2022 6:00:00 PM 10.55 50.99 0.286 8.21 1.24 11.15
10/31/2022 6:15:00 PM 10.57 51.026 0.286 8.12 2.51 10.95
10/31/2022 6:30:00 PM 10.59 51.062 0.286 8.04 1.14 10.75
10/31/2022 6:45:00 PM 10.61 51.098 0.287 7.97 1.06 10.59
10/31/2022 7:00:00 PM 10.64 51.152 0.287 7.91 1.11 10.45
10/31/2022 7:15:00 PM 10.67 51.206 0.287 7.87 1.08 10.35
10/31/2022 7:30:00 PM 10.69 51.242 0.287 7.82 1.13 10.25
10/31/2022 7:45:00 PM 10.71 51.278 0.287 7.79 1.09 10.16
10/31/2022 8:00:00 PM 10.73 51.314 0.287 7.75 1.02 10.08
10/31/2022 8:15:00 PM 10.77 51.386 0.287 7.73 1.07 10.06
10/31/2022 8:30:00 PM 10.8 51.44 0.287 7.71 1.13 10
10/31/2022 8:45:00 PM 10.82 51.476 0.287 7.68 1.1 9.93
10/31/2022 9:00:00 PM 10.86 51.548 0.287 7.67 1.09 9.92
10/31/2022 9:15:00 PM 10.89 51.602 0.287 7.65 1.11 9.9
10/31/2022 9:30:00 PM 10.9 51.62 0.288 7.63 1.04 9.85
10/31/2022 9:45:00 PM 10.94 51.692 0.288 7.63 1.75 9.84
10/31/2022 10:00:00 PM 10.96 51.728 0.288 7.61 1.86 9.82
10/31/2022 10:15:00 PM 10.99 51.782 0.289 7.6 1.65 9.81
10/31/2022 10:30:00 PM 11.01 51.818 0.289 7.59 1.15 9.8
10/31/2022 10:45:00 PM 11.02 51.836 0.289 7.58 1.19 9.77
10/31/2022 11:00:00 PM 11.05 51.89 0.29 7.57 1.44 9.78
10/31/2022 11:15:00 PM 11.06 51.908 0.29 7.56 2.05 9.73
10/31/2022 11:30:00 PM 11.09 51.962 0.29 7.56 2.6 9.73
10/31/2022 11:45:00 PM 11.09 51.962 0.29 7.55 1.9 9.75
11/1/2022 12:00:00 AM 11.1 51.98 0.29 7.54 1.79 9.72
11/1/2022 12:15:00 AM 11.11 51.998 0.29 7.53 1.73 9.7
11/1/2022 12:30:00 AM 11.12 52.016 0.289 7.53 2.32 9.71
11/1/2022 12:45:00 AM 11.14 52.052 0.29 7.52 2.84 9.72
11/1/2022 1:00:00 AM 11.14 52.052 0.289 7.52 1.06 9.67
11/1/2022 1:15:00 AM 11.14 52.052 0.289 7.51 1.14 9.67
11/1/2022 1:30:00 AM 11.15 52.07 0.29 7.51 1.11 9.7
11/1/2022 1:45:00 AM 11.15 52.07 0.29 7.5 1.11 9.67
11/1/2022 2:00:00 AM 11.15 52.07 0.29 7.5 1.09 9.68
11/1/2022 2:15:00 AM 11.16 52.088 0.288 7.49 1.12 9.68
11/1/2022 2:30:00 AM 11.16 52.088 0.288 7.48 1.13 9.66
11/1/2022 2:45:00 AM 11.16 52.088 0.288 7.48 1.12 9.65
11/1/2022 3:00:00 AM 11.16 52.088 0.288 7.48 1.2 9.69
11/1/2022 3:15:00 AM 11.16 52.088 0.287 7.47 3.04 9.69
11/1/2022 3:30:00 AM 11.16 52.088 0.288 7.47 1.13 9.67
11/1/2022 3:45:00 AM 11.16 52.088 0.288 7.47 1.13 9.71
11/1/2022 4:00:00 AM 11.16 52.088 0.288 7.46 1.28 9.71
11/1/2022 4:15:00 AM 11.16 52.088 0.288 7.46 1.25 9.65
11/1/2022 4:30:00 AM 11.16 52.088 0.288 7.45 1.22 9.67
11/1/2022 4:45:00 AM 11.15 52.07 0.289 7.44 1.28 9.63
11/1/2022 5:00:00 AM 11.15 52.07 0.29 7.45 1.33 9.67
11/1/2022 5:15:00 AM 11.14 52.052 0.291 7.44 1.28 9.66
11/1/2022 5:30:00 AM 11.14 52.052 0.292 7.45 1.21 9.71
11/1/2022 5:45:00 AM 11.13 52.034 0.292 7.44 1.22 9.69
11/1/2022 6:00:00 AM 11.13 52.034 0.292 7.44 1.24 9.68
11/1/2022 6:15:00 AM 11.12 52.016 0.293 7.44 1.15 9.75
11/1/2022 6:30:00 AM 11.12 52.016 0.293 7.44 1.18 9.69
11/1/2022 6:45:00 AM 11.11 51.998 0.294 7.44 1.36 9.71
11/1/2022 7:00:00 AM 11.11 51.998 0.295 7.44 1.28 9.71
11/1/2022 7:15:00 AM 11.1 51.98 0.296 7.44 1.16 9.74
11/1/2022 7:30:00 AM 11.1 51.98 0.296 7.43 1.19 9.74
11/1/2022 7:45:00 AM 11.1 51.98 0.297 7.43 1.26 9.74
11/1/2022 8:00:00 AM 11.1 51.98 0.298 7.44 1.12 9.77
11/1/2022 8:15:00 AM 11.1 51.98 0.299 7.44 1.13 9.84
11/1/2022 8:30:00 AM 11.1 51.98 0.299 7.45 1.15 9.92
11/1/2022 8:45:00 AM 11.11 51.998 0.299 7.46 1.12 10.01
11/1/2022 9:00:00 AM 11.14 52.052 0.298 7.49 1.08 10.26
11/1/2022 9:15:00 AM 11.18 52.124 0.303 7.53 1.09 10.5
11/1/2022 9:30:00 AM 11.22 52.196 0.304 7.56 1.14 10.74
11/1/2022 9:45:00 AM 11.32 52.376 0.304 7.63 1.18 11.23
11/1/2022 10:00:00 AM 11.42 52.556 0.304 7.71 1.12 11.41
11/1/2022 10:15:00 AM 11.49 52.682 0.304 7.77 1.12 11.67
11/1/2022 10:30:00 AM 11.54 52.772 0.303 7.83 1.23 11.76
11/1/2022 10:45:00 AM 11.56 52.808 0.303 7.84 1.15 11.68
11/1/2022 11:00:00 AM 11.61 52.898 0.303 7.85 1.21 11.66
11/1/2022 11:15:00 AM 11.66 52.988 0.302 7.89 1.14 11.79
11/1/2022 11:30:00 AM 11.74 53.132 0.301 7.96 1.14 11.92
11/1/2022 11:45:00 AM 11.77 53.186 0.3 8 1.12 11.83
11/1/2022 12:00:00 PM 11.78 53.204 0.3 7.98 1.13 11.68
11/1/2022 12:15:00 PM 11.78 53.204 0.299 7.94 1.23 11.46
11/1/2022 12:30:00 PM 11.78 53.204 0.299 7.92 1.16 11.37
11/1/2022 12:45:00 PM 11.79 53.222 0.298 7.92 1.18 11.35
11/1/2022 1:00:00 PM 11.8 53.24 0.297 7.91 1.15 11.23
11/1/2022 1:15:00 PM 11.81 53.258 0.295 7.88 1.17 11.06
11/1/2022 1:30:00 PM 11.8 53.24 0.294 7.85 1.22 10.93
11/1/2022 1:45:00 PM 11.8 53.24 0.295 7.83 1.2 10.92
11/1/2022 2:00:00 PM 11.8 53.24 0.295 7.81 1.35 10.84
11/1/2022 2:15:00 PM 11.82 53.276 0.295 7.82 1.81 10.88
11/1/2022 2:30:00 PM 11.83 53.294 0.295 7.82 2.52 10.84
11/1/2022 2:45:00 PM 11.85 53.33 0.296 7.82 3.17 10.96
11/1/2022 3:00:00 PM 11.88 53.384 0.297 7.87 2.21 11.14
11/1/2022 3:15:00 PM 11.91 53.438 0.297 7.9 1.99 11.2
11/1/2022 3:30:00 PM 11.94 53.492 0.297 7.91 2.05 11.28
11/1/2022 3:45:00 PM 12.01 53.618 0.298 8.01 1.97 11.56
11/1/2022 4:00:00 PM 12.03 53.654 0.297 7.97 1.76 11.41
11/1/2022 4:15:00 PM 12.02 53.636 0.298 7.99 1.57 11.39
11/1/2022 4:30:00 PM 12.04 53.672 0.298 8 1.42 11.39
11/1/2022 4:45:00 PM 12.06 53.708 0.298 8 1.4 11.37
11/1/2022 5:00:00 PM 12.09 53.762 0.299 8.01 1.43 11.33
11/1/2022 5:15:00 PM 12.1 53.78 0.301 7.98 1.42 11.17
11/1/2022 5:30:00 PM 12.1 53.78 0.303 7.93 1.38 10.98
11/1/2022 5:45:00 PM 12.07 53.726 0.305 7.88 1.61 10.79
11/1/2022 6:00:00 PM 12.04 53.672 0.305 7.83 1.86 10.57
11/1/2022 6:15:00 PM 12.03 53.654 0.306 7.78 1.71 10.38
11/1/2022 6:30:00 PM 11.99 53.582 0.307 7.74 1.91 10.22
11/1/2022 6:45:00 PM 11.94 53.492 0.311 7.7 2.08 10.11
11/1/2022 7:00:00 PM 11.9 53.42 0.32 7.67 2.73 9.96
11/1/2022 7:15:00 PM 11.84 53.312 0.337 7.63 3.17 9.81
11/1/2022 7:30:00 PM 11.81 53.258 0.351 7.61 3.63 9.86
11/1/2022 7:45:00 PM 11.79 53.222 0.357 7.59 3.46 9.74
11/1/2022 8:00:00 PM 11.75 53.15 0.36 7.59 3.58 9.8
11/1/2022 8:15:00 PM 11.71 53.078 0.359 7.58 3.17 9.8
11/1/2022 8:30:00 PM 11.69 53.042 0.358 7.56 4.17 9.78
11/1/2022 8:45:00 PM 11.66 52.988 0.357 7.55 3.06 9.78
11/1/2022 9:00:00 PM 11.61 52.898 0.357 7.54 2.79 9.77
11/1/2022 9:15:00 PM 11.59 52.862 0.357 7.54 2.71 9.75
11/1/2022 9:30:00 PM 11.56 52.808 0.357 7.53 3.05 9.81
11/1/2022 9:45:00 PM 11.54 52.772 0.357 7.53 3.28 9.77
11/1/2022 10:00:00 PM 11.52 52.736 0.359 7.52 3.07 9.76
11/1/2022 10:15:00 PM 11.48 52.664 0.362 7.51 3.3 9.77
11/1/2022 10:30:00 PM 11.43 52.574 0.365 7.51 2.69 9.86
11/1/2022 10:45:00 PM 11.39 52.502 0.367 7.52 2.82 9.88
11/1/2022 11:00:00 PM 11.36 52.448 0.368 7.5 2.78 9.77
11/1/2022 11:15:00 PM 11.33 52.394 0.367 7.5 2.7 9.86
11/1/2022 11:30:00 PM 11.29 52.322 0.366 7.49 2.85 9.82
11/1/2022 11:45:00 PM 11.25 52.25 0.362 7.49 2.68 9.86
11/2/2022 12:00:00 AM 11.21 52.178 0.358 7.5 2.54 9.86
11/2/2022 12:15:00 AM 11.16 52.088 0.353 7.49 2.89 9.82
11/2/2022 12:30:00 AM 11.12 52.016 0.347 7.48 3.15 9.85
11/2/2022 12:45:00 AM 11.07 51.926 0.341 7.48 3.39 9.88
11/2/2022 1:00:00 AM 11.02 51.836 0.335 7.48 2.97 9.89
11/2/2022 1:15:00 AM 10.98 51.764 0.331 7.48 2.87 9.89
11/2/2022 1:30:00 AM 10.92 51.656 0.326 7.48 3.12 9.92
11/2/2022 1:45:00 AM 10.86 51.548 0.322 7.48 3.02 9.95
11/2/2022 2:00:00 AM 10.81 51.458 0.318 7.47 2.73 9.96
11/2/2022 2:15:00 AM 10.77 51.386 0.315 7.47 2.83 9.98
11/2/2022 2:30:00 AM 10.74 51.332 0.312 7.47 2.71 10
11/2/2022 2:45:00 AM 10.71 51.278 0.31 7.47 2.78 9.99
11/2/2022 3:00:00 AM 10.67 51.206 0.308 7.46 2.8 10.02
11/2/2022 3:15:00 AM 10.64 51.152 0.306 7.46 2.87 10.05
11/2/2022 3:30:00 AM 10.61 51.098 0.304 7.46 2.69 10.07
11/2/2022 3:45:00 AM 10.56 51.008 0.303 7.46 2.49 10.08
11/2/2022 4:00:00 AM 10.51 50.918 0.302 7.45 2.52 10.11
11/2/2022 4:15:00 AM 10.46 50.828 0.3 7.45 2.37 10.08
11/2/2022 4:30:00 AM 10.43 50.774 0.299 7.45 2.33 10.12
11/2/2022 4:45:00 AM 10.4 50.72 0.299 7.45 2.31 10.14
11/2/2022 5:00:00 AM 10.37 50.666 0.298 7.44 2.4 10.16
11/2/2022 5:15:00 AM 10.32 50.576 0.298 7.44 2.49 10.19
11/2/2022 5:30:00 AM 10.27 50.486 0.297 7.45 2.33 10.21
11/2/2022 5:45:00 AM 10.22 50.396 0.296 7.45 2.21 10.23
11/2/2022 6:00:00 AM 10.2 50.36 0.296 7.44 2.24 10.22
11/2/2022 6:15:00 AM 10.18 50.324 0.295 7.44 2.25 10.28
11/2/2022 6:30:00 AM 10.15 50.27 0.295 7.44 2.28 10.27
11/2/2022 6:45:00 AM 10.13 50.234 0.294 7.44 2.22 10.28
11/2/2022 7:00:00 AM 10.1 50.18 0.294 7.44 2.32 10.32
11/2/2022 7:15:00 AM 10.07 50.126 0.293 7.44 2.21 10.34
11/2/2022 7:30:00 AM 10.03 50.054 0.293 7.44 2.13 10.35
11/2/2022 7:45:00 AM 10.01 50.018 0.293 7.45 2.12 10.36
11/2/2022 8:00:00 AM 10 50 0.292 7.45 2.21 10.44
11/2/2022 8:15:00 AM 9.97 49.946 0.292 7.46 2.24 10.52
11/2/2022 8:30:00 AM 9.95 49.91 0.292 7.47 2.27 10.62
11/2/2022 8:45:00 AM 9.92 49.856 0.291 7.49 2.17 10.7
11/2/2022 9:00:00 AM 9.91 49.838 0.291 7.49 2.25 10.78
11/2/2022 9:15:00 AM 9.91 49.838 0.29 7.51 3.51 10.92
11/2/2022 9:30:00 AM 9.92 49.856 0.29 7.53 2.89 10.97
11/2/2022 9:45:00 AM 9.94 49.892 0.29 7.54 3.05 10.96
11/2/2022 10:00:00 AM 9.97 49.946 0.289 7.56 2.51 11.13
11/2/2022 10:15:00 AM 10.03 50.054 0.289 7.58 2.57 11.3
11/2/2022 10:30:00 AM 10.12 50.216 0.288 7.63 2.88 11.42
11/2/2022 10:45:00 AM 10.2 50.36 0.288 7.65 2.61 11.54
11/2/2022 11:00:00 AM 10.3 50.54 0.287 7.7 2.16 11.63
11/2/2022 11:15:00 AM 10.4 50.72 0.287 7.74 2.14 11.76
11/2/2022 11:30:00 AM 10.52 50.936 0.287 7.78 2.07 11.88
11/2/2022 11:45:00 AM 10.66 51.188 0.286 7.82 2.3 11.98
11/2/2022 12:00:00 PM 10.76 51.368 0.286 7.84 2.05 12.03
11/2/2022 12:15:00 PM 10.91 51.638 0.286 7.91 2.03 12.06
11/2/2022 12:30:00 PM 11.01 51.818 0.286 7.94 2.32 12.04
11/2/2022 12:45:00 PM 11.14 52.052 0.286 7.98 2.06 12.04
11/2/2022 1:00:00 PM 11.32 52.376 0.285 8.01 2.04 12.06
11/2/2022 1:15:00 PM 11.46 52.628 0.285 8.04 1.97 12.07
11/2/2022 1:30:00 PM 11.61 52.898 0.285 8.08 2.04 12.06
11/2/2022 1:45:00 PM 11.73 53.114 0.285 8.11 2.04 11.99
11/2/2022 2:00:00 PM 11.84 53.312 0.285 8.13 2.01 11.98
11/2/2022 2:15:00 PM 11.91 53.438 0.284 8.14 2.05 11.85
11/2/2022 2:30:00 PM 11.98 53.564 0.284 8.16 1.96 11.83
11/2/2022 2:45:00 PM 12.02 53.636 0.284 8.15 2.08 11.73
11/2/2022 3:00:00 PM 12.05 53.69 0.284 8.13 2.15 11.65
11/2/2022 3:15:00 PM 12.07 53.726 0.284 8.15 2.12 11.58
11/2/2022 3:30:00 PM 12.08 53.744 0.284 8.12 2.15 11.49
11/2/2022 3:45:00 PM 12.1 53.78 0.284 8.1 2.05 11.42
11/2/2022 4:00:00 PM 12.12 53.816 0.284 8.09 2.09 11.32
11/2/2022 4:15:00 PM 12.13 53.834 0.284 8.06 1.98 11.21
11/2/2022 4:30:00 PM 12.14 53.852 0.284 8.03 2.12 11.13
11/2/2022 4:45:00 PM 12.15 53.87 0.284 8 2.08 11.02
11/2/2022 5:00:00 PM 12.15 53.87 0.284 7.96 2.1 10.87
11/2/2022 5:15:00 PM 12.14 53.852 0.284 7.92 2.2 10.76
11/2/2022 5:30:00 PM 12.12 53.816 0.285 7.88 2.14 10.62
11/2/2022 5:45:00 PM 12.1 53.78 0.285 7.83 2.1 10.44
11/2/2022 6:00:00 PM 12.07 53.726 0.285 7.79 2.12 10.31
11/2/2022 6:15:00 PM 12.04 53.672 0.285 7.75 2.2 10.19
11/2/2022 6:30:00 PM 12.01 53.618 0.285 7.71 2.09 10.09
11/2/2022 6:45:00 PM 11.97 53.546 0.285 7.68 2.13 10.01
11/2/2022 7:00:00 PM 11.93 53.474 0.286 7.66 2.26 9.95
11/2/2022 7:15:00 PM 11.88 53.384 0.286 7.64 2.08 9.91
11/2/2022 7:30:00 PM 11.83 53.294 0.286 7.62 2.08 9.88
11/2/2022 7:45:00 PM 11.77 53.186 0.286 7.6 1.97 9.86
11/2/2022 8:00:00 PM 11.71 53.078 0.287 7.59 2.21 9.86
11/2/2022 8:15:00 PM 11.65 52.97 0.287 7.58 2.07 9.85
11/2/2022 8:30:00 PM 11.58 52.844 0.287 7.57 1.97 9.87
11/2/2022 8:45:00 PM 11.51 52.718 0.287 7.57 1.99 9.87
11/2/2022 9:00:00 PM 11.44 52.592 0.287 7.55 3.19 9.89
11/2/2022 9:15:00 PM 11.36 52.448 0.288 7.55 2.24 9.9
11/2/2022 9:30:00 PM 11.28 52.304 0.287 7.54 2.14 9.92
11/2/2022 9:45:00 PM 11.2 52.16 0.287 7.53 3.87 9.93
11/2/2022 10:00:00 PM 11.12 52.016 0.287 7.53 2.66 9.92
11/2/2022 10:15:00 PM 11.05 51.89 0.288 7.53 2.27 9.97
11/2/2022 10:30:00 PM 10.96 51.728 0.288 7.52 2.12 10
11/2/2022 10:45:00 PM 10.88 51.584 0.288 7.52 2.21 10.03
11/2/2022 11:00:00 PM 10.79 51.422 0.288 7.52 1.8 10.05
11/2/2022 11:15:00 PM 10.71 51.278 0.288 7.51 1.58 10.1
11/2/2022 11:30:00 PM 10.63 51.134 0.289 7.51 1.61 10.08
11/2/2022 11:45:00 PM 10.54 50.972 0.289 7.5 1.56 10.1
11/3/2022 12:00:00 AM 10.46 50.828 0.288 7.5 1.79 10.15
11/3/2022 12:15:00 AM 10.38 50.684 0.288 7.5 1.58 10.19
11/3/2022 12:30:00 AM 10.29 50.522 0.289 7.5 1.52 10.17
11/3/2022 12:45:00 AM 10.22 50.396 0.289 7.5 1.59 10.23
11/3/2022 1:00:00 AM 10.14 50.252 0.288 7.49 1.61 10.24
11/3/2022 1:15:00 AM 10.06 50.108 0.288 7.49 1.51 10.24
11/3/2022 1:30:00 AM 9.98 49.964 0.288 7.48 1.58 10.3
11/3/2022 1:45:00 AM 9.91 49.838 0.288 7.48 1.65 10.31
11/3/2022 2:00:00 AM 9.84 49.712 0.288 7.48 1.53 10.32
11/3/2022 2:15:00 AM 9.77 49.586 0.288 7.48 1.71 10.34
11/3/2022 2:30:00 AM 9.7 49.46 0.288 7.48 1.56 10.38
11/3/2022 2:45:00 AM 9.64 49.352 0.288 7.48 1.58 10.41
11/3/2022 3:00:00 AM 9.58 49.244 0.288 7.47 1.63 10.44
11/3/2022 3:15:00 AM 9.51 49.118 0.288 7.47 1.54 10.45
11/3/2022 3:30:00 AM 9.45 49.01 0.287 7.47 1.49 10.45
11/3/2022 3:45:00 AM 9.39 48.902 0.287 7.47 1.61 10.49
11/3/2022 4:00:00 AM 9.33 48.794 0.287 7.46 1.5 10.5
11/3/2022 4:15:00 AM 9.28 48.704 0.287 7.46 1.48 10.52
11/3/2022 4:30:00 AM 9.23 48.614 0.287 7.46 1.54 10.54
11/3/2022 4:45:00 AM 9.18 48.524 0.286 7.46 1.57 10.54
11/3/2022 5:00:00 AM 9.12 48.416 0.286 7.46 1.48 10.54
11/3/2022 5:15:00 AM 9.06 48.308 0.286 7.45 1.54 10.55
11/3/2022 5:30:00 AM 9 48.2 0.286 7.45 1.59 10.59
11/3/2022 5:45:00 AM 8.95 48.11 0.286 7.45 1.58 10.61
11/3/2022 6:00:00 AM 8.89 48.002 0.286 7.45 1.6 10.59
11/3/2022 6:15:00 AM 8.84 47.912 0.286 7.45 1.52 10.66
11/3/2022 6:30:00 AM 8.79 47.822 0.286 7.45 1.57 10.67
11/3/2022 6:45:00 AM 8.74 47.732 0.286 7.45 1.62 10.69
11/3/2022 7:00:00 AM 8.69 47.642 0.285 7.45 1.62 10.67
11/3/2022 7:15:00 AM 8.64 47.552 0.285 7.45 1.8 10.7
11/3/2022 7:30:00 AM 8.6 47.48 0.285 7.45 1.6 10.71
11/3/2022 7:45:00 AM 8.55 47.39 0.285 7.45 2.08 10.74
11/3/2022 8:00:00 AM 8.5 47.3 0.285 7.45 2.12 10.82
11/3/2022 8:15:00 AM 8.47 47.246 0.284 7.46 1.9 10.93
11/3/2022 8:30:00 AM 8.44 47.192 0.285 7.47 1.71 11.04
11/3/2022 8:45:00 AM 8.41 47.138 0.285 7.48 1.7 11.13
11/3/2022 9:00:00 AM 8.4 47.12 0.284 7.49 1.78 11.23
11/3/2022 9:15:00 AM 8.39 47.102 0.285 7.51 1.79 11.33
11/3/2022 9:30:00 AM 8.4 47.12 0.284 7.53 1.72 11.46
11/3/2022 9:45:00 AM 8.43 47.174 0.284 7.55 1.65 11.57
11/3/2022 10:00:00 AM 8.47 47.246 0.283 7.57 1.7 11.71
11/3/2022 10:15:00 AM 8.53 47.354 0.283 7.61 1.66 11.84
11/3/2022 10:30:00 AM 8.62 47.516 0.283 7.64 2.15 11.98
11/3/2022 10:45:00 AM 8.73 47.714 0.283 7.68 1.65 12.09
11/3/2022 11:00:00 AM 8.84 47.912 0.282 7.72 1.71 12.2
11/3/2022 11:15:00 AM 8.97 48.146 0.282 7.76 1.67 12.29
11/3/2022 11:30:00 AM 9.09 48.362 0.282 7.8 1.68 12.34
11/3/2022 11:45:00 AM 9.24 48.632 0.282 7.85 1.72 12.41
11/3/2022 12:00:00 PM 9.4 48.92 0.282 7.89 1.63 12.45
11/3/2022 12:15:00 PM 9.58 49.244 0.282 7.94 1.81 12.46
11/3/2022 12:30:00 PM 9.74 49.532 0.281 7.98 1.73 12.48
11/3/2022 12:45:00 PM 9.92 49.856 0.281 8.02 1.68 12.48
11/3/2022 1:00:00 PM 10.12 50.216 0.281 8.07 1.75 12.51
11/3/2022 1:15:00 PM 10.32 50.576 0.281 8.13 1.67 12.53
11/3/2022 1:30:00 PM 10.5 50.9 0.281 8.17 1.7 12.52
11/3/2022 1:45:00 PM 10.63 51.134 0.281 8.21 1.66 12.47
11/3/2022 2:00:00 PM 10.76 51.368 0.281 8.24 1.67 12.42
11/3/2022 2:15:00 PM 10.87 51.566 0.281 8.27 1.67 12.37
11/3/2022 2:30:00 PM 10.96 51.728 0.281 8.28 1.86 12.29
11/3/2022 2:45:00 PM 10.99 51.782 0.281 8.28 1.68 12.2
11/3/2022 3:00:00 PM 11.01 51.818 0.282 8.28 1.9 12.11
11/3/2022 3:15:00 PM 11.03 51.854 0.282 8.25 1.74 12.02
11/3/2022 3:30:00 PM 11.04 51.872 0.282 8.24 1.95 11.92
11/3/2022 3:45:00 PM 11.06 51.908 0.282 8.22 1.82 11.82
11/3/2022 4:00:00 PM 11.08 51.944 0.282 8.2 2.06 11.75
11/3/2022 4:15:00 PM 11.1 51.98 0.281 8.16 2.1 11.65
11/3/2022 4:30:00 PM 11.12 52.016 0.281 8.14 2.03 11.54
11/3/2022 4:45:00 PM 11.15 52.07 0.281 8.11 2 11.44
11/3/2022 5:00:00 PM 11.15 52.07 0.281 8.07 2.06 11.3
11/3/2022 5:15:00 PM 11.16 52.088 0.281 8.02 2.1 11.16
11/3/2022 5:30:00 PM 11.16 52.088 0.282 7.97 2.07 11.01
11/3/2022 5:45:00 PM 11.16 52.088 0.282 7.92 2.08 10.84
11/3/2022 6:00:00 PM 11.15 52.07 0.282 7.88 2.03 10.7
11/3/2022 6:15:00 PM 11.14 52.052 0.283 7.82 2.15 10.54
11/3/2022 6:30:00 PM 11.13 52.034 0.283 7.79 2.02 10.44
11/3/2022 6:45:00 PM 11.1 51.98 0.284 7.75 1.9 10.33
11/3/2022 7:00:00 PM 11.07 51.926 0.284 7.72 2.33 10.24
11/3/2022 7:15:00 PM 11.05 51.89 0.284 7.7 1.73 10.19
11/3/2022 7:30:00 PM 11.01 51.818 0.285 7.68 2.02 10.14
11/3/2022 7:45:00 PM 10.97 51.746 0.285 7.66 1.99 10.1
11/3/2022 8:00:00 PM 10.94 51.692 0.285 7.65 2.25 10.07
11/3/2022 8:15:00 PM 10.88 51.584 0.286 7.63 2.23 10.05
11/3/2022 8:30:00 PM 10.83 51.494 0.286 7.62 2.26 10.03
11/3/2022 8:45:00 PM 10.79 51.422 0.286 7.61 2.1 10.06
11/3/2022 9:00:00 PM 10.73 51.314 0.286 7.6 2.25 10.06
11/3/2022 9:15:00 PM 10.67 51.206 0.286 7.59 2.19 10.06
11/3/2022 9:30:00 PM 10.61 51.098 0.286 7.58 1.99 10.08
11/3/2022 9:45:00 PM 10.54 50.972 0.286 7.57 2.2 10.08
11/3/2022 10:00:00 PM 10.49 50.882 0.286 7.57 2.32 10.13
11/3/2022 10:15:00 PM 10.41 50.738 0.286 7.56 2.23 10.14
11/3/2022 10:30:00 PM 10.35 50.63 0.287 7.55 2.79 10.15
11/3/2022 10:45:00 PM 10.29 50.522 0.287 7.55 2.25 10.19
11/3/2022 11:00:00 PM 10.22 50.396 0.287 7.55 1.75 10.21
11/3/2022 11:15:00 PM 10.15 50.27 0.287 7.54 1.7 10.23
11/3/2022 11:30:00 PM 10.08 50.144 0.287 7.54 1.78 10.23
11/3/2022 11:45:00 PM 10.01 50.018 0.287 7.53 1.63 10.23
11/4/2022 12:00:00 AM 9.95 49.91 0.287 7.53 1.85 10.28
11/4/2022 12:15:00 AM 9.87 49.766 0.288 7.53 1.65 10.28
11/4/2022 12:30:00 AM 9.8 49.64 0.288 7.53 1.64 10.33
11/4/2022 12:45:00 AM 9.72 49.496 0.288 7.52 1.89 10.31
11/4/2022 1:00:00 AM 9.66 49.388 0.288 7.52 1.68 10.35
11/4/2022 1:15:00 AM 9.59 49.262 0.288 7.52 1.73 10.38
11/4/2022 1:30:00 AM 9.51 49.118 0.288 7.51 1.69 10.39
11/4/2022 1:45:00 AM 9.44 48.992 0.288 7.51 1.65 10.42
11/4/2022 2:00:00 AM 9.37 48.866 0.288 7.51 1.86 10.43
11/4/2022 2:15:00 AM 9.31 48.758 0.288 7.51 1.98 10.5
11/4/2022 2:30:00 AM 9.24 48.632 0.289 7.5 1.96 10.5
11/4/2022 2:45:00 AM 9.18 48.524 0.288 7.5 2.04 10.53
11/4/2022 3:00:00 AM 9.11 48.398 0.288 7.5 1.94 10.53
11/4/2022 3:15:00 AM 9.05 48.29 0.288 7.5 2.03 10.57
11/4/2022 3:30:00 AM 8.99 48.182 0.289 7.5 1.87 10.6
11/4/2022 3:45:00 AM 8.93 48.074 0.289 7.49 1.84 10.59
11/4/2022 4:00:00 AM 8.87 47.966 0.289 7.49 1.9 10.6
11/4/2022 4:15:00 AM 8.81 47.858 0.288 7.49 1.93 10.64
11/4/2022 4:30:00 AM 8.76 47.768 0.289 7.49 1.82 10.68
11/4/2022 4:45:00 AM 8.7 47.66 0.288 7.48 1.87 10.67
11/4/2022 5:00:00 AM 8.65 47.57 0.288 7.48 2.13 10.71
11/4/2022 5:15:00 AM 8.6 47.48 0.288 7.48 1.93 10.7
11/4/2022 5:30:00 AM 8.56 47.408 0.288 7.48 2.02 10.73
11/4/2022 5:45:00 AM 8.51 47.318 0.287 7.48 1.87 10.73
11/4/2022 6:00:00 AM 8.46 47.228 0.287 7.48 1.98 10.76
11/4/2022 6:15:00 AM 8.42 47.156 0.287 7.48 1.93 10.78
11/4/2022 6:30:00 AM 8.38 47.084 0.287 7.48 1.81 10.8
11/4/2022 6:45:00 AM 8.34 47.012 0.287 7.47 1.89 10.81
11/4/2022 7:00:00 AM 8.3 46.94 0.287 7.47 1.9 10.82
11/4/2022 7:15:00 AM 8.26 46.868 0.287 7.47 1.88 10.83
11/4/2022 7:30:00 AM 8.22 46.796 0.287 7.47 1.82 10.83
11/4/2022 7:45:00 AM 8.2 46.76 0.287 7.47 1.78 10.9
11/4/2022 8:00:00 AM 8.17 46.706 0.287 7.48 1.79 10.97
11/4/2022 8:15:00 AM 8.15 46.67 0.287 7.49 1.71 11.08
11/4/2022 8:30:00 AM 8.16 46.688 0.286 7.52 1.76 11.26
11/4/2022 8:45:00 AM 8.17 46.706 0.286 7.54 1.85 11.46
11/4/2022 9:00:00 AM 8.19 46.742 0.286 7.57 1.71 11.61
11/4/2022 9:15:00 AM 8.21 46.778 0.286 7.61 1.73 11.8
11/4/2022 9:30:00 AM 8.26 46.868 0.286 7.64 1.65 11.97
11/4/2022 9:45:00 AM 8.31 46.958 0.285 7.68 1.72 12.14
11/4/2022 10:00:00 AM 8.36 47.048 0.285 7.72 1.76 12.27
11/4/2022 10:15:00 AM 8.43 47.174 0.285 7.77 1.73 12.38
11/4/2022 10:30:00 AM 8.53 47.354 0.284 7.8 1.67 12.49
11/4/2022 10:45:00 AM 8.66 47.588 0.284 7.86 1.76 12.59
11/4/2022 11:00:00 AM 8.81 47.858 0.284 7.92 1.73 12.69
11/4/2022 11:15:00 AM 8.96 48.128 0.284 7.97 1.75 12.75
11/4/2022 11:30:00 AM 9.12 48.416 0.283 8.01 1.67 12.76
11/4/2022 11:45:00 AM 9.29 48.722 0.283 8.07 1.77 12.83
11/4/2022 12:00:00 PM 9.45 49.01 0.283 8.12 1.63 12.82
11/4/2022 12:15:00 PM 9.63 49.334 0.283 8.18 1.67 12.84
11/4/2022 12:30:00 PM 9.83 49.694 0.283 8.24 1.68 12.86
11/4/2022 12:45:00 PM 9.97 49.946 0.283 8.28 1.72 12.85
11/4/2022 1:00:00 PM 10.18 50.324 0.282 8.36 1.61 12.95
11/4/2022 1:15:00 PM 10.41 50.738 0.282 8.43 1.61 12.99
11/4/2022 1:30:00 PM 10.56 51.008 0.282 8.49 1.63 12.96
11/4/2022 1:45:00 PM 10.72 51.296 0.282 8.53 1.7 12.94
11/4/2022 2:00:00 PM 10.9 51.62 0.282 8.58 1.68 12.9
11/4/2022 2:15:00 PM 11.03 51.854 0.282 8.6 1.65 12.82
11/4/2022 2:30:00 PM 11.14 52.052 0.282 8.62 1.7 12.73
11/4/2022 2:45:00 PM 11.24 52.232 0.282 8.64 1.64 12.65
11/4/2022 3:00:00 PM 11.34 52.412 0.282 8.66 1.65 12.58
11/4/2022 3:15:00 PM 11.4 52.52 0.283 8.65 1.82 12.44
11/4/2022 3:30:00 PM 11.45 52.61 0.283 8.65 1.85 12.32
11/4/2022 3:45:00 PM 11.49 52.682 0.283 8.64 1.6 12.19
11/4/2022 4:00:00 PM 11.51 52.718 0.284 8.61 1.65 12.06
11/4/2022 4:15:00 PM 11.55 52.79 0.283 8.59 1.51 11.99
11/4/2022 4:30:00 PM 11.59 52.862 0.284 8.56 1.55 11.86
11/4/2022 4:45:00 PM 11.62 52.916 0.284 8.54 1.76 11.78
11/4/2022 5:00:00 PM 11.65 52.97 0.284 8.48 1.55 11.61
11/4/2022 5:15:00 PM 11.66 52.988 0.284 8.41 1.51 11.41
11/4/2022 5:30:00 PM 11.66 52.988 0.284 8.32 1.71 11.21
11/4/2022 5:45:00 PM 11.66 52.988 0.284 8.22 1.76 10.97
11/4/2022 6:00:00 PM 11.64 52.952 0.285 8.12 1.81 10.75
11/4/2022 6:15:00 PM 11.64 52.952 0.285 8.03 1.85 10.55
11/4/2022 6:30:00 PM 11.64 52.952 0.285 7.96 1.99 10.41
11/4/2022 6:45:00 PM 11.63 52.934 0.285 7.91 1.83 10.25
11/4/2022 7:00:00 PM 11.63 52.934 0.285 7.86 1.86 10.14
11/4/2022 7:15:00 PM 11.63 52.934 0.285 7.82 1.95 10.06
11/4/2022 7:30:00 PM 11.63 52.934 0.286 7.78 1.8 10
11/4/2022 7:45:00 PM 11.62 52.916 0.286 7.75 1.96 9.96
11/4/2022 8:00:00 PM 11.62 52.916 0.286 7.73 2.28 9.91
11/4/2022 8:15:00 PM 11.6 52.88 0.286 7.7 1.75 9.83
11/4/2022 8:30:00 PM 11.58 52.844 0.286 7.68 2.05 9.81
11/4/2022 8:45:00 PM 11.58 52.844 0.286 7.67 1.9 9.82
11/4/2022 9:00:00 PM 11.55 52.79 0.286 7.65 2.28 9.78
11/4/2022 9:15:00 PM 11.53 52.754 0.287 7.64 2.26 9.8
11/4/2022 9:30:00 PM 11.5 52.7 0.287 7.63 2.09 9.82
11/4/2022 9:45:00 PM 11.46 52.628 0.287 7.61 2.05 9.8
11/4/2022 10:00:00 PM 11.44 52.592 0.287 7.6 2.05 9.79
11/4/2022 10:15:00 PM 11.45 52.61 0.287 7.6 2.11 9.8
11/4/2022 10:30:00 PM 11.46 52.628 0.287 7.59 2.02 9.81
11/4/2022 10:45:00 PM 11.47 52.646 0.288 7.58 2.01 9.8
11/4/2022 11:00:00 PM 11.47 52.646 0.288 7.58 1.93 9.79
11/4/2022 11:15:00 PM 11.46 52.628 0.288 7.57 1.98 9.78
11/4/2022 11:30:00 PM 11.47 52.646 0.288 7.56 1.92 9.79
11/4/2022 11:45:00 PM 11.48 52.664 0.289 7.56 1.92 9.79
11/5/2022 12:00:00 AM 11.49 52.682 0.288 7.56 1.97 9.82
11/5/2022 12:15:00 AM 11.46 52.628 0.289 7.55 2.04 9.8
11/5/2022 12:30:00 AM 11.45 52.61 0.288 7.55 1.89 9.83
11/5/2022 12:45:00 AM 11.42 52.556 0.289 7.54 1.92 9.83
11/5/2022 1:00:00 AM 11.39 52.502 0.289 7.53 2.08 9.83
11/5/2022 1:15:00 AM 11.35 52.43 0.289 7.53 1.9 9.8
11/5/2022 1:30:00 AM 11.31 52.358 0.289 7.52 2.05 9.84
11/5/2022 1:45:00 AM 11.28 52.304 0.289 7.52 1.97 9.84
11/5/2022 2:00:00 AM 11.25 52.25 0.289 7.52 1.93 9.86
11/5/2022 2:15:00 AM 11.21 52.178 0.29 7.51 1.87 9.85
11/5/2022 2:30:00 AM 11.17 52.106 0.29 7.51 1.96 9.88
11/5/2022 2:45:00 AM 11.15 52.07 0.29 7.51 1.94 9.87
11/5/2022 3:00:00 AM 11.15 52.07 0.29 7.51 1.98 9.9
11/5/2022 3:15:00 AM 11.16 52.088 0.29 7.51 2.01 9.92
11/5/2022 3:30:00 AM 11.14 52.052 0.29 7.51 1.96 9.93
11/5/2022 3:45:00 AM 11.13 52.034 0.29 7.51 1.94 9.92
11/5/2022 4:00:00 AM 11.12 52.016 0.29 7.51 2.03 9.92
11/5/2022 4:15:00 AM 11.1 51.98 0.29 7.51 1.76 9.92
11/5/2022 4:30:00 AM 11.1 51.98 0.29 7.51 1.82 9.92
11/5/2022 4:45:00 AM 11.09 51.962 0.29 7.51 1.78 9.91
11/5/2022 5:00:00 AM 11.09 51.962 0.29 7.5 1.77 9.91
11/5/2022 5:15:00 AM 11.08 51.944 0.29 7.5 1.62 9.9
11/5/2022 5:30:00 AM 11.05 51.89 0.29 7.5 1.55 9.92
11/5/2022 5:45:00 AM 11.04 51.872 0.29 7.49 1.65 9.92
11/5/2022 6:00:00 AM 11.04 51.872 0.29 7.49 1.6 9.91
11/5/2022 6:15:00 AM 11.04 51.872 0.29 7.49 1.6 9.93
11/5/2022 6:30:00 AM 11.06 51.908 0.289 7.49 1.63 9.91
11/5/2022 6:45:00 AM 11.08 51.944 0.289 7.49 1.61 9.92
11/5/2022 7:00:00 AM 11.09 51.962 0.289 7.49 1.52 9.94
11/5/2022 7:15:00 AM 11.12 52.016 0.289 7.49 1.57 9.91
11/5/2022 7:30:00 AM 11.15 52.07 0.289 7.49 1.54 9.93
11/5/2022 7:45:00 AM 11.18 52.124 0.289 7.5 1.6 9.94
11/5/2022 8:00:00 AM 11.21 52.178 0.289 7.49 1.85 9.93
11/5/2022 8:15:00 AM 11.25 52.25 0.289 7.5 1.5 9.98
11/5/2022 8:30:00 AM 11.28 52.304 0.289 7.51 1.49 10
11/5/2022 8:45:00 AM 11.33 52.394 0.289 7.52 1.52 10.09
11/5/2022 9:00:00 AM 11.37 52.466 0.288 7.54 1.64 10.27
11/5/2022 9:15:00 AM 11.43 52.574 0.288 7.56 1.57 10.33
11/5/2022 9:30:00 AM 11.47 52.646 0.288 7.58 1.53 10.41
11/5/2022 9:45:00 AM 11.52 52.736 0.288 7.6 1.61 10.48
11/5/2022 10:00:00 AM 11.59 52.862 0.287 7.62 1.5 10.67
11/5/2022 10:15:00 AM 11.69 53.042 0.287 7.68 1.44 10.93
11/5/2022 10:30:00 AM 11.78 53.204 0.287 7.72 1.47 11.09
11/5/2022 10:45:00 AM 11.87 53.366 0.287 7.76 1.48 11.18
11/5/2022 11:00:00 AM 11.95 53.51 0.287 7.82 1.43 11.38
11/5/2022 11:15:00 AM 12.06 53.708 0.286 7.87 1.49 11.52
11/5/2022 11:30:00 AM 12.18 53.924 0.286 7.96 1.47 11.79
11/5/2022 11:45:00 AM 12.33 54.194 0.286 8.05 1.45 11.97
11/5/2022 12:00:00 PM 12.42 54.356 0.285 8.12 1.48 11.99
11/5/2022 12:15:00 PM 12.48 54.464 0.285 8.15 1.47 11.95
11/5/2022 12:30:00 PM 12.58 54.644 0.285 8.19 1.47 11.94
11/5/2022 12:45:00 PM 12.71 54.878 0.284 8.25 1.48 12.08
11/5/2022 1:00:00 PM 12.84 55.112 0.286 8.32 1.43 12.15
11/5/2022 1:15:00 PM 12.97 55.346 0.286 8.41 1.43 12.27
11/5/2022 1:30:00 PM 13.11 55.598 0.287 8.48 1.43 12.32
11/5/2022 1:45:00 PM 13.19 55.742 0.286 8.52 1.37 12.29
11/5/2022 2:00:00 PM 13.28 55.904 0.287 8.59 1.42 12.29
11/5/2022 2:15:00 PM 13.33 55.994 0.287 8.58 1.4 12.04
11/5/2022 2:30:00 PM 13.4 56.12 0.286 8.57 1.47 11.89
11/5/2022 2:45:00 PM 13.44 56.192 0.287 8.57 1.45 11.75
11/5/2022 3:00:00 PM 13.48 56.264 0.287 8.54 1.48 11.55
11/5/2022 3:15:00 PM 13.49 56.282 0.287 8.45 1.53 11.24
11/5/2022 3:30:00 PM 13.55 56.39 0.287 8.44 1.39 11.3
11/5/2022 3:45:00 PM 13.59 56.462 0.288 8.45 1.45 11.35
11/5/2022 4:00:00 PM 13.65 56.57 0.288 8.45 1.39 11.37
11/5/2022 4:15:00 PM 13.69 56.642 0.288 8.44 1.41 11.35
11/5/2022 4:30:00 PM 13.72 56.696 0.289 8.39 1.43 11.16
11/5/2022 4:45:00 PM 13.73 56.714 0.289 8.34 1.68 11
11/5/2022 5:00:00 PM 13.76 56.768 0.289 8.3 1.46 10.93
11/5/2022 5:15:00 PM 13.78 56.804 0.289 8.26 1.54 10.83
11/5/2022 5:30:00 PM 13.77 56.786 0.289 8.18 1.43 10.58
11/5/2022 5:45:00 PM 13.75 56.75 0.29 8.09 1.5 10.33
11/5/2022 6:00:00 PM 13.74 56.732 0.29 8.02 1.45 10.14
11/5/2022 6:15:00 PM 13.74 56.732 0.29 7.95 1.47 9.93
11/5/2022 6:30:00 PM 13.72 56.696 0.289 7.89 1.51 9.76
11/5/2022 6:45:00 PM 13.69 56.642 0.289 7.84 1.44 9.64
11/5/2022 7:00:00 PM 13.67 56.606 0.289 7.8 1.52 9.55
11/5/2022 7:15:00 PM 13.65 56.57 0.288 7.76 1.52 9.44
11/5/2022 7:30:00 PM 13.63 56.534 0.288 7.73 1.54 9.39
11/5/2022 7:45:00 PM 13.61 56.498 0.288 7.7 1.57 9.33
11/5/2022 8:00:00 PM 13.6 56.48 0.288 7.68 1.71 9.32
11/5/2022 8:15:00 PM 13.59 56.462 0.289 7.67 2.18 9.29
11/5/2022 8:30:00 PM 13.59 56.462 0.288 7.65 1.59 9.24
11/5/2022 8:45:00 PM 13.6 56.48 0.289 7.64 1.65 9.25
11/5/2022 9:00:00 PM 13.61 56.498 0.289 7.63 1.62 9.21
11/5/2022 9:15:00 PM 13.61 56.498 0.289 7.62 1.79 9.19
11/5/2022 9:30:00 PM 13.6 56.48 0.289 7.6 1.55 9.17
11/5/2022 9:45:00 PM 13.6 56.48 0.289 7.6 1.51 9.16
11/5/2022 10:00:00 PM 13.61 56.498 0.289 7.59 1.63 9.18
11/5/2022 10:15:00 PM 13.62 56.516 0.289 7.58 1.67 9.17
11/5/2022 10:30:00 PM 13.61 56.498 0.289 7.58 1.6 9.16
11/5/2022 10:45:00 PM 13.61 56.498 0.289 7.57 1.58 9.14
11/5/2022 11:00:00 PM 13.61 56.498 0.289 7.56 1.63 9.12
11/5/2022 11:15:00 PM 13.61 56.498 0.289 7.56 1.6 9.15
11/5/2022 11:30:00 PM 13.62 56.516 0.289 7.56 1.6 9.18
11/5/2022 11:45:00 PM 13.63 56.534 0.289 7.55 1.69 9.14
11/6/2022 12:00:00 AM 13.64 56.552 0.289 7.55 1.63 9.14
11/6/2022 12:15:00 AM 13.65 56.57 0.29 7.54 1.53 9.15
11/6/2022 12:30:00 AM 13.65 56.57 0.289 7.54 1.62 9.15
11/6/2022 12:45:00 AM 13.65 56.57 0.29 7.54 1.64 9.14
11/6/2022 1:00:00 AM 13.66 56.588 0.29 7.54 1.66 9.12
11/6/2022 1:15:00 AM 13.67 56.606 0.29 7.53 1.6 9.13
11/6/2022 1:30:00 AM 13.67 56.606 0.291 7.53 8.63 9.14
11/6/2022 1:45:00 AM 13.67 56.606 0.291 7.53 1.62 9.16
11/6/2022 2:00:00 AM 13.66 56.588 0.291 7.53 1.5 9.13
11/6/2022 2:15:00 AM 13.64 56.552 0.291 7.53 1.63 9.15
11/6/2022 2:30:00 AM 13.63 56.534 0.291 7.53 1.49 9.16
11/6/2022 2:45:00 AM 13.62 56.516 0.29 7.52 1.56 9.18
11/6/2022 3:00:00 AM 13.59 56.462 0.29 7.52 1.56 9.13
11/6/2022 3:15:00 AM 13.58 56.444 0.29 7.52 1.56 9.15
11/6/2022 3:30:00 AM 13.56 56.408 0.29 7.51 1.57 9.12
11/6/2022 3:45:00 AM 13.56 56.408 0.29 7.51 1.91 9.18
11/6/2022 4:00:00 AM 13.56 56.408 0.29 7.51 1.5 9.19
11/6/2022 4:15:00 AM 13.56 56.408 0.29 7.51 1.53 9.18
11/6/2022 4:30:00 AM 13.56 56.408 0.29 7.51 1.54 9.18
11/6/2022 4:45:00 AM 13.57 56.426 0.29 7.51 1.64 9.14
11/6/2022 5:00:00 AM 13.59 56.462 0.291 7.51 1.52 9.14
11/6/2022 5:15:00 AM 13.61 56.498 0.29 7.51 1.53 9.13
11/6/2022 5:30:00 AM 13.63 56.534 0.29 7.51 1.51 9.15
11/6/2022 5:45:00 AM 13.65 56.57 0.289 7.51 1.54 9.16
11/6/2022 6:00:00 AM 13.66 56.588 0.289 7.5 3.17 9.16
11/6/2022 6:15:00 AM 13.69 56.642 0.288 7.5 2.09 9.12
11/6/2022 6:30:00 AM 13.71 56.678 0.288 7.5 1.66 9.11
11/6/2022 6:45:00 AM 13.73 56.714 0.288 7.5 1.55 9.12
11/6/2022 7:00:00 AM 13.74 56.732 0.288 7.5 1.55 9.15
11/6/2022 7:15:00 AM 13.76 56.768 0.287 7.5 1.64 9.16
11/6/2022 7:30:00 AM 13.78 56.804 0.287 7.5 1.58 9.1
11/6/2022 7:45:00 AM 13.78 56.804 0.287 7.5 1.63 9.12
11/6/2022 8:00:00 AM 13.8 56.84 0.287 7.51 1.57 9.15
11/6/2022 8:15:00 AM 13.83 56.894 0.287 7.52 1.72 9.19
11/6/2022 8:30:00 AM 13.85 56.93 0.287 7.53 1.68 9.38
11/6/2022 8:45:00 AM 13.87 56.966 0.287 7.55 1.81 9.43
11/6/2022 9:00:00 AM 13.88 56.984 0.287 7.55 1.88 9.39
11/6/2022 9:15:00 AM 13.88 56.984 0.287 7.56 1.75 9.5
11/6/2022 9:30:00 AM 13.91 57.038 0.287 7.58 1.66 9.63
11/6/2022 9:45:00 AM 13.93 57.074 0.287 7.6 1.63 9.75
11/6/2022 10:00:00 AM 13.96 57.128 0.287 7.62 1.67 9.83
11/6/2022 10:15:00 AM 13.99 57.182 0.287 7.63 1.56 9.92
11/6/2022 10:30:00 AM 14.05 57.29 0.287 7.68 1.57 10.19
11/6/2022 10:45:00 AM 14.12 57.416 0.287 7.75 1.56 10.57
11/6/2022 11:00:00 AM 14.2 57.56 0.287 7.8 1.52 10.68
11/6/2022 11:15:00 AM 14.27 57.686 0.286 7.86 1.62 10.93
11/6/2022 11:30:00 AM 14.36 57.848 0.286 7.95 1.53 11.26
11/6/2022 11:45:00 AM 14.46 58.028 0.285 8.06 1.6 11.51
11/6/2022 12:00:00 PM 14.58 58.244 0.285 8.18 1.48 11.81
11/6/2022 12:15:00 PM 15.01 59.018 0.284 8.57 1.51 12.11
11/6/2022 12:30:00 PM 15.08 59.144 0.283 8.65 1.57 12.12
11/6/2022 12:45:00 PM 15.11 59.198 0.284 8.66 1.56 11.91
11/6/2022 1:00:00 PM 15.22 59.396 0.283 8.71 1.58 12.02
11/6/2022 1:15:00 PM 15.27 59.486 0.284 8.75 1.55 11.98
11/6/2022 1:30:00 PM 15.31 59.558 0.283 8.77 1.55 11.86
11/6/2022 1:45:00 PM 15.41 59.738 0.283 8.8 1.71 11.96
11/6/2022 2:00:00 PM 15.5 59.9 0.283 8.85 1.57 11.91
11/6/2022 2:15:00 PM 15.58 60.044 0.283 8.86 1.59 11.94
11/6/2022 2:30:00 PM 15.69 60.242 0.283 8.91 1.58 11.95
11/6/2022 2:45:00 PM 15.71 60.278 0.283 8.91 1.56 11.75
11/6/2022 3:00:00 PM 15.72 60.296 0.283 8.91 1.52 11.56
11/6/2022 3:15:00 PM 15.74 60.332 0.283 8.9 1.55 11.45
11/6/2022 3:30:00 PM 15.72 60.296 0.284 8.85 1.62 11.13
11/6/2022 3:45:00 PM 15.71 60.278 0.284 8.81 1.59 10.97
11/6/2022 4:00:00 PM 15.68 60.224 0.285 8.72 1.56 10.65
11/6/2022 4:15:00 PM 15.67 60.206 0.286 8.65 1.62 10.49
11/6/2022 4:30:00 PM 15.65 60.17 0.287 8.55 1.61 10.35
11/6/2022 4:45:00 PM 15.6 60.08 0.288 8.41 1.54 9.99
11/6/2022 5:00:00 PM 15.57 60.026 0.289 8.27 1.66 9.72
11/6/2022 5:15:00 PM 15.55 59.99 0.289 8.16 1.65 9.52
11/6/2022 5:30:00 PM 15.51 59.918 0.29 8.05 1.92 9.34
11/6/2022 5:45:00 PM 15.47 59.846 0.29 7.97 1.62 9.19
11/6/2022 6:00:00 PM 15.44 59.792 0.291 7.91 1.7 9.1
11/6/2022 6:15:00 PM 15.41 59.738 0.291 7.85 1.7 9.01
11/6/2022 6:30:00 PM 15.39 59.702 0.291 7.81 1.71 8.88
11/6/2022 6:45:00 PM 15.37 59.666 0.292 7.77 1.7 8.88
11/6/2022 7:00:00 PM 15.35 59.63 0.292 7.74 1.82 8.84
11/6/2022 7:15:00 PM 15.34 59.612 0.291 7.72 1.78 8.77
11/6/2022 7:30:00 PM 15.31 59.558 0.292 7.69 1.71 8.75
11/6/2022 7:45:00 PM 15.29 59.522 0.292 7.67 1.76 8.7
11/6/2022 8:00:00 PM 15.27 59.486 0.292 7.65 1.8 8.76
11/6/2022 8:15:00 PM 15.26 59.468 0.292 7.63 1.72 8.68
11/6/2022 8:30:00 PM 15.25 59.45 0.293 7.62 1.93 8.67
11/6/2022 8:45:00 PM 15.24 59.432 0.292 7.61 1.83 8.66
11/6/2022 9:00:00 PM 15.21 59.378 0.293 7.6 1.76 8.66
11/6/2022 9:15:00 PM 15.19 59.342 0.293 7.59 2.09 8.7
11/6/2022 9:30:00 PM 15.18 59.324 0.293 7.58 1.86 8.71
11/6/2022 9:45:00 PM 15.15 59.27 0.293 7.57 1.83 8.72
11/6/2022 10:00:00 PM 15.14 59.252 0.294 7.56 2.02 8.66
11/6/2022 10:15:00 PM 15.12 59.216 0.294 7.56 1.76 8.7
11/6/2022 10:30:00 PM 15.09 59.162 0.294 7.55 1.78 8.64
11/6/2022 10:45:00 PM 15.05 59.09 0.294 7.55 1.71 8.68
11/6/2022 11:00:00 PM 15.04 59.072 0.294 7.54 1.75 8.66
11/6/2022 11:15:00 PM 15.02 59.036 0.294 7.54 1.82 8.68
11/6/2022 11:30:00 PM 15 59 0.294 7.53 1.84 8.71
11/6/2022 11:45:00 PM 14.97 58.946 0.294 7.53 1.83 8.71
11/7/2022 12:00:00 AM 14.94 58.892 0.294 7.52 1.81 8.71
11/7/2022 12:15:00 AM 14.92 58.856 0.295 7.52 1.97 8.72
11/7/2022 12:30:00 AM 14.92 58.856 0.294 7.52 1.82 8.67
11/7/2022 12:45:00 AM 14.89 58.802 0.295 7.51 1.89 8.7
11/7/2022 1:00:00 AM 14.87 58.766 0.295 7.51 1.92 8.71
11/7/2022 1:15:00 AM 14.85 58.73 0.295 7.51 1.93 8.76
11/7/2022 1:30:00 AM 14.83 58.694 0.294 7.51 1.99 8.8
11/7/2022 1:45:00 AM 14.81 58.658 0.295 7.5 1.85 8.73
11/7/2022 2:00:00 AM 14.77 58.586 0.295 7.49 1.9 8.77
11/7/2022 2:15:00 AM 14.76 58.568 0.295 7.49 1.95 8.78
11/7/2022 2:30:00 AM 14.74 58.532 0.295 7.48 2.03 8.76
11/7/2022 2:45:00 AM 14.72 58.496 0.295 7.49 1.93 8.82
11/7/2022 3:00:00 AM 14.7 58.46 0.295 7.48 2.21 8.82
11/7/2022 3:15:00 AM 14.67 58.406 0.295 7.48 1.96 8.82
11/7/2022 3:30:00 AM 14.62 58.316 0.295 7.47 2.01 8.85
11/7/2022 3:45:00 AM 14.59 58.262 0.295 7.47 1.92 8.83
11/7/2022 4:00:00 AM 14.56 58.208 0.295 7.47 2 8.83
11/7/2022 4:15:00 AM 14.52 58.136 0.295 7.46 1.96 8.81
11/7/2022 4:30:00 AM 14.47 58.046 0.295 7.47 1.98 8.86
11/7/2022 4:45:00 AM 14.43 57.974 0.295 7.46 1.9 8.83
11/7/2022 5:00:00 AM 14.38 57.884 0.294 7.45 1.95 8.84
11/7/2022 5:15:00 AM 14.34 57.812 0.294 7.45 1.98 8.89
11/7/2022 5:30:00 AM 14.29 57.722 0.294 7.44 1.99 8.89
11/7/2022 5:45:00 AM 14.23 57.614 0.294 7.44 2.03 8.9
11/7/2022 6:00:00 AM 14.19 57.542 0.293 7.44 2.1 8.89
11/7/2022 6:15:00 AM 14.14 57.452 0.293 7.44 2.06 8.9
11/7/2022 6:30:00 AM 14.09 57.362 0.293 7.44 2.13 8.88
11/7/2022 6:45:00 AM 14.05 57.29 0.293 7.44 1.98 8.94
11/7/2022 7:00:00 AM 13.99 57.182 0.292 7.45 2.15 9.05
11/7/2022 7:15:00 AM 13.96 57.128 0.292 7.46 2.07 9.16
11/7/2022 7:30:00 AM 13.9 57.02 0.292 7.47 2.03 9.25
11/7/2022 7:45:00 AM 13.86 56.948 0.292 7.49 2.11 9.38
11/7/2022 8:00:00 AM 13.82 56.876 0.292 7.5 2.05 9.51
11/7/2022 8:15:00 AM 13.79 56.822 0.292 7.52 2.1 9.63
11/7/2022 8:30:00 AM 13.77 56.786 0.292 7.54 2.06 9.74
11/7/2022 8:45:00 AM 13.76 56.768 0.292 7.57 1.97 9.92
11/7/2022 9:00:00 AM 13.75 56.75 0.292 7.61 2.16 10.12
11/7/2022 9:15:00 AM 13.78 56.804 0.291 7.65 2.01 10.35
11/7/2022 9:30:00 AM 13.78 56.804 0.291 7.7 1.98 10.52
11/7/2022 9:45:00 AM 13.84 56.912 0.291 7.77 2.07 10.8
11/7/2022 10:00:00 AM 13.86 56.948 0.291 7.84 1.99 11.02
11/7/2022 10:15:00 AM 13.91 57.038 0.29 7.91 2.04 11.21
11/7/2022 10:30:00 AM 13.95 57.11 0.29 7.97 1.94 11.35
11/7/2022 10:45:00 AM 14 57.2 0.29 8.06 2.05 11.5
11/7/2022 11:00:00 AM 14.08 57.344 0.29 8.13 2 11.63
11/7/2022 11:15:00 AM 14.12 57.416 0.29 8.21 2.01 11.73
11/7/2022 11:30:00 AM 14.17 57.506 0.289 8.27 2.04 11.75
11/7/2022 11:45:00 AM 14.24 57.632 0.289 8.35 1.91 11.87
11/7/2022 12:00:00 PM 14.32 57.776 0.288 8.41 1.88 11.9
11/7/2022 12:15:00 PM 14.44 57.992 0.288 8.5 1.83 11.95
11/7/2022 12:30:00 PM 14.5 58.1 0.288 8.55 1.83 11.95
11/7/2022 12:45:00 PM 14.56 58.208 0.288 8.6 1.95 11.93
11/7/2022 1:00:00 PM 14.66 58.388 0.288 8.64 1.95 11.94
11/7/2022 1:15:00 PM 14.67 58.406 0.287 8.69 1.86 11.87
11/7/2022 1:30:00 PM 14.66 58.388 0.288 8.7 1.82 11.78
11/7/2022 1:45:00 PM 14.64 58.352 0.287 8.72 1.93 11.73
11/7/2022 2:00:00 PM 14.58 58.244 0.288 8.7 2.1 11.59
11/7/2022 2:15:00 PM 14.5 58.1 0.288 8.69 1.86 11.46
11/7/2022 2:30:00 PM 14.42 57.956 0.288 8.67 1.9 11.35
11/7/2022 2:45:00 PM 14.32 57.776 0.289 8.65 1.86 11.24
11/7/2022 3:00:00 PM 14.26 57.668 0.289 8.61 1.9 11.18
11/7/2022 3:15:00 PM 14.18 57.524 0.289 8.57 1.83 11.09
11/7/2022 3:30:00 PM 14.1 57.38 0.29 8.53 1.9 10.95
11/7/2022 3:45:00 PM 14.02 57.236 0.29 8.47 1.91 10.85
11/7/2022 4:00:00 PM 13.95 57.11 0.29 8.41 1.84 10.74
11/7/2022 4:15:00 PM 13.87 56.966 0.291 8.33 1.85 10.58
11/7/2022 4:30:00 PM 13.77 56.786 0.291 8.24 2.13 10.39
11/7/2022 4:45:00 PM 13.68 56.624 0.292 8.15 1.73 10.2
11/7/2022 5:00:00 PM 13.61 56.498 0.292 8.06 1.79 10.05
11/7/2022 5:15:00 PM 13.52 56.336 0.292 7.98 1.88 9.87
11/7/2022 5:30:00 PM 13.44 56.192 0.293 7.92 1.89 9.75
11/7/2022 5:45:00 PM 13.35 56.03 0.293 7.86 1.92 9.62
11/7/2022 6:00:00 PM 13.27 55.886 0.293 7.82 2.05 9.57
11/7/2022 6:15:00 PM 13.19 55.742 0.293 7.78 1.95 9.49
11/7/2022 6:30:00 PM 13.1 55.58 0.293 7.75 1.92 9.46
11/7/2022 6:45:00 PM 13.02 55.436 0.294 7.72 1.93 9.42
11/7/2022 7:00:00 PM 12.91 55.238 0.294 7.7 1.94 9.41
11/7/2022 7:15:00 PM 12.82 55.076 0.294 7.67 2.06 9.37
11/7/2022 7:30:00 PM 12.76 54.968 0.294 7.66 1.95 9.42
11/7/2022 7:45:00 PM 12.71 54.878 0.294 7.65 2.04 9.42
11/7/2022 8:00:00 PM 12.61 54.698 0.294 7.63 1.98 9.37
11/7/2022 8:15:00 PM 12.54 54.572 0.294 7.62 1.96 9.44
11/7/2022 8:30:00 PM 12.45 54.41 0.294 7.61 1.97 9.44
11/7/2022 8:45:00 PM 12.36 54.248 0.294 7.6 2.03 9.44
11/7/2022 9:00:00 PM 12.28 54.104 0.295 7.59 1.9 9.49
11/7/2022 9:15:00 PM 12.18 53.924 0.295 7.58 2.05 9.5
11/7/2022 9:30:00 PM 12.1 53.78 0.295 7.57 2.01 9.53
11/7/2022 9:45:00 PM 12.03 53.654 0.295 7.57 1.97 9.6
11/7/2022 10:00:00 PM 11.94 53.492 0.295 7.56 1.97 9.6
11/7/2022 10:15:00 PM 11.86 53.348 0.295 7.55 1.99 9.62
11/7/2022 10:30:00 PM 11.76 53.168 0.295 7.55 1.96 9.62
11/7/2022 10:45:00 PM 11.68 53.024 0.295 7.54 1.98 9.65
11/7/2022 11:00:00 PM 11.57 52.826 0.295 7.53 1.99 9.69
11/7/2022 11:15:00 PM 11.46 52.628 0.295 7.54 2.03 9.73
11/7/2022 11:30:00 PM 11.38 52.484 0.295 7.53 2.08 9.77
11/7/2022 11:45:00 PM 11.29 52.322 0.295 7.53 2.18 9.81
11/8/2022 12:00:00 AM 11.19 52.142 0.295 7.52 2.1 9.83
11/8/2022 12:15:00 AM 11.09 51.962 0.295 7.52 2.08 9.85
11/8/2022 12:30:00 AM 11 51.8 0.294 7.51 2.04 9.87
11/8/2022 12:45:00 AM 10.91 51.638 0.294 7.51 2.19 9.92
11/8/2022 1:00:00 AM 10.82 51.476 0.294 7.51 2.07 9.95
11/8/2022 1:15:00 AM 10.73 51.314 0.294 7.5 2.82 9.96
11/8/2022 1:30:00 AM 10.65 51.17 0.294 7.5 2.07 10
11/8/2022 1:45:00 AM 10.56 51.008 0.294 7.5 2.05 10.03
11/8/2022 2:00:00 AM 10.47 50.846 0.294 7.5 2.18 10.04
11/8/2022 2:15:00 AM 10.39 50.702 0.294 7.49 2.07 10.07
11/8/2022 2:30:00 AM 10.3 50.54 0.294 7.49 2.03 10.12
11/8/2022 2:45:00 AM 10.23 50.414 0.294 7.49 2.21 10.16
11/8/2022 3:00:00 AM 10.13 50.234 0.294 7.49 2.07 10.18
11/8/2022 3:15:00 AM 10.03 50.054 0.294 7.48 2.03 10.21
11/8/2022 3:30:00 AM 9.95 49.91 0.294 7.48 2.25 10.21
11/8/2022 3:45:00 AM 9.87 49.766 0.294 7.48 2.21 10.26
11/8/2022 4:00:00 AM 9.78 49.604 0.294 7.48 2.34 10.27
11/8/2022 4:15:00 AM 9.69 49.442 0.294 7.48 2.26 10.31
11/8/2022 4:30:00 AM 9.61 49.298 0.295 7.48 2.64 10.32
11/8/2022 4:45:00 AM 9.54 49.172 0.295 7.48 1.87 10.35
11/8/2022 5:00:00 AM 9.45 49.01 0.294 7.48 1.85 10.38
11/8/2022 5:15:00 AM 9.37 48.866 0.294 7.48 1.74 10.43
11/8/2022 5:30:00 AM 9.3 48.74 0.294 7.48 2.01 10.45
11/8/2022 5:45:00 AM 9.22 48.596 0.294 7.48 1.86 10.49
11/8/2022 6:00:00 AM 9.15 48.47 0.294 7.47 1.95 10.5
11/8/2022 6:15:00 AM 9.08 48.344 0.294 7.48 2.17 10.53
11/8/2022 6:30:00 AM 9.01 48.218 0.294 7.47 1.91 10.56
11/8/2022 6:45:00 AM 8.94 48.092 0.294 7.48 1.86 10.61
11/8/2022 7:00:00 AM 8.87 47.966 0.294 7.48 1.85 10.67
11/8/2022 7:15:00 AM 8.82 47.876 0.294 7.49 1.81 10.8
11/8/2022 7:30:00 AM 8.76 47.768 0.294 7.51 1.8 10.95
11/8/2022 7:45:00 AM 8.71 47.678 0.293 7.52 1.84 11.06
11/8/2022 8:00:00 AM 8.67 47.606 0.293 7.55 1.76 11.23
11/8/2022 8:15:00 AM 8.64 47.552 0.293 7.57 1.88 11.38
11/8/2022 8:30:00 AM 8.63 47.534 0.293 7.6 1.74 11.54
11/8/2022 8:45:00 AM 8.63 47.534 0.292 7.63 1.78 11.74
11/8/2022 9:00:00 AM 8.67 47.606 0.292 7.69 1.86 12.02
11/8/2022 9:15:00 AM 8.69 47.642 0.292 7.74 1.77 12.23
11/8/2022 9:30:00 AM 8.69 47.642 0.291 7.78 1.79 12.33
11/8/2022 9:45:00 AM 8.74 47.732 0.291 7.84 1.8 12.49
11/8/2022 10:00:00 AM 8.79 47.822 0.29 7.9 1.82 12.66
11/8/2022 10:15:00 AM 8.86 47.948 0.29 7.97 1.88 12.82
11/8/2022 10:30:00 AM 8.93 48.074 0.289 8.04 1.96 12.94
11/8/2022 10:45:00 AM 9 48.2 0.289 8.11 1.81 13.04
11/8/2022 11:00:00 AM 9.1 48.38 0.289 8.19 1.95 13.14
11/8/2022 11:15:00 AM 9.18 48.524 0.289 8.26 1.83 13.2
11/8/2022 11:30:00 AM 9.27 48.686 0.289 8.32 1.9 13.22
11/8/2022 11:45:00 AM 9.42 48.956 0.288 8.37 1.77 13.25
11/8/2022 12:00:00 PM 9.55 49.19 0.288 8.43 1.74 13.29
11/8/2022 12:15:00 PM 9.68 49.424 0.287 8.5 1.78 13.28
11/8/2022 12:30:00 PM 9.81 49.658 0.287 8.55 1.83 13.28
11/8/2022 12:45:00 PM 10.02 50.036 0.287 8.61 1.74 13.29
11/8/2022 1:00:00 PM 10.15 50.27 0.287 8.66 1.84 13.26
11/8/2022 1:15:00 PM 10.17 50.306 0.287 8.7 1.82 13.18
11/8/2022 1:30:00 PM 10.26 50.468 0.286 8.71 1.71 13.1
11/8/2022 1:45:00 PM 10.24 50.432 0.286 8.73 1.76 13.01
11/8/2022 2:00:00 PM 10.27 50.486 0.285 8.73 1.82 12.93
11/8/2022 2:15:00 PM 10.24 50.432 0.285 8.74 1.73 12.84
11/8/2022 2:30:00 PM 10.19 50.342 0.285 8.72 1.73 12.77
11/8/2022 2:45:00 PM 10.12 50.216 0.285 8.7 1.72 12.6
11/8/2022 3:00:00 PM 10.08 50.144 0.285 8.68 1.82 12.54
11/8/2022 3:15:00 PM 10 50 0.286 8.65 1.69 12.45
11/8/2022 3:30:00 PM 9.98 49.964 0.286 8.62 2 12.38
11/8/2022 3:45:00 PM 9.93 49.874 0.286 8.58 1.83 12.25
11/8/2022 4:00:00 PM 9.9 49.82 0.287 8.52 1.7 12.13
11/8/2022 4:15:00 PM 9.87 49.766 0.287 8.46 1.87 11.98
11/8/2022 4:30:00 PM 9.82 49.676 0.287 8.37 1.79 11.81
11/8/2022 4:45:00 PM 9.78 49.604 0.288 8.28 1.79 11.61
11/8/2022 5:00:00 PM 9.73 49.514 0.288 8.19 1.76 11.43
11/8/2022 5:15:00 PM 9.67 49.406 0.288 8.09 1.87 11.24
11/8/2022 5:30:00 PM 9.6 49.28 0.289 8.02 1.75 11.08
11/8/2022 5:45:00 PM 9.55 49.19 0.289 7.96 1.73 10.96
11/8/2022 6:00:00 PM 9.5 49.1 0.289 7.91 1.73 10.86
11/8/2022 6:15:00 PM 9.44 48.992 0.289 7.87 1.79 10.8
11/8/2022 6:30:00 PM 9.39 48.902 0.289 7.83 1.76 10.73
11/8/2022 6:45:00 PM 9.36 48.848 0.29 7.8 1.8 10.69
11/8/2022 7:00:00 PM 9.29 48.722 0.29 7.77 1.8 10.65
11/8/2022 7:15:00 PM 9.25 48.65 0.29 7.75 1.85 10.63
11/8/2022 7:30:00 PM 9.19 48.542 0.29 7.73 1.89 10.6
11/8/2022 7:45:00 PM 9.14 48.452 0.29 7.7 1.84 10.59
11/8/2022 8:00:00 PM 9.09 48.362 0.29 7.69 1.81 10.58
11/8/2022 8:15:00 PM 9.04 48.272 0.291 7.67 1.92 10.59
11/8/2022 8:30:00 PM 8.99 48.182 0.291 7.66 1.88 10.61
11/8/2022 8:45:00 PM 8.93 48.074 0.291 7.65 1.82 10.6
11/8/2022 9:00:00 PM 8.88 47.984 0.291 7.64 1.85 10.61
11/8/2022 9:15:00 PM 8.8 47.84 0.292 7.63 1.83 10.61
11/8/2022 9:30:00 PM 8.73 47.714 0.292 7.62 1.78 10.62
11/8/2022 9:45:00 PM 8.67 47.606 0.292 7.61 1.85 10.64
11/8/2022 10:00:00 PM 8.6 47.48 0.292 7.6 1.86 10.67
11/8/2022 10:15:00 PM 8.53 47.354 0.293 7.6 1.81 10.68
11/8/2022 10:30:00 PM 8.46 47.228 0.293 7.59 1.83 10.68
11/8/2022 10:45:00 PM 8.38 47.084 0.294 7.58 1.9 10.72
11/8/2022 11:00:00 PM 8.31 46.958 0.293 7.58 2.2 10.77
11/8/2022 11:15:00 PM 8.23 46.814 0.294 7.57 2.17 10.78
11/8/2022 11:30:00 PM 8.16 46.688 0.294 7.57 1.9 10.81
11/8/2022 11:45:00 PM 8.08 46.544 0.294 7.56 1.83 10.83
11/9/2022 12:00:00 AM 8.03 46.454 0.294 7.56 1.87 10.85
11/9/2022 12:15:00 AM 7.96 46.328 0.294 7.56 1.93 10.9
11/9/2022 12:30:00 AM 7.87 46.166 0.293 7.55 1.82 10.9
11/9/2022 12:45:00 AM 7.8 46.04 0.294 7.55 1.9 10.92
11/9/2022 1:00:00 AM 7.73 45.914 0.294 7.54 2.07 10.91
11/9/2022 1:15:00 AM 7.67 45.806 0.294 7.54 1.9 10.97
11/9/2022 1:30:00 AM 7.6 45.68 0.293 7.54 1.97 11.01
11/9/2022 1:45:00 AM 7.52 45.536 0.294 7.53 1.96 11.01
11/9/2022 2:00:00 AM 7.46 45.428 0.293 7.53 2.01 11.03
11/9/2022 2:15:00 AM 7.39 45.302 0.294 7.53 2.29 11.06
11/9/2022 2:30:00 AM 7.34 45.212 0.294 7.53 2.14 11.12
11/9/2022 2:45:00 AM 7.26 45.068 0.294 7.53 1.97 11.12
11/9/2022 3:00:00 AM 7.19 44.942 0.294 7.52 1.9 11.13
11/9/2022 3:15:00 AM 7.12 44.816 0.294 7.52 1.9 11.17
11/9/2022 3:30:00 AM 7.07 44.726 0.294 7.52 1.95 11.2
11/9/2022 3:45:00 AM 6.99 44.582 0.294 7.51 1.86 11.19
11/9/2022 4:00:00 AM 6.93 44.474 0.294 7.51 1.93 11.23
11/9/2022 4:15:00 AM 6.86 44.348 0.294 7.51 1.95 11.26
11/9/2022 4:30:00 AM 6.8 44.24 0.294 7.51 1.87 11.28
11/9/2022 4:45:00 AM 6.74 44.132 0.294 7.51 2.05 11.31
11/9/2022 5:00:00 AM 6.69 44.042 0.294 7.51 2.05 11.32
11/9/2022 5:15:00 AM 6.61 43.898 0.293 7.51 1.92 11.33
11/9/2022 5:30:00 AM 6.56 43.808 0.294 7.51 1.97 11.35
11/9/2022 5:45:00 AM 6.5 43.7 0.294 7.51 1.93 11.4
11/9/2022 6:00:00 AM 6.43 43.574 0.294 7.5 2.07 11.39
11/9/2022 6:15:00 AM 6.38 43.484 0.293 7.51 2.01 11.42
11/9/2022 6:30:00 AM 6.33 43.394 0.294 7.5 2.54 11.45
11/9/2022 6:45:00 AM 6.28 43.304 0.293 7.51 1.98 11.5
11/9/2022 7:00:00 AM 6.23 43.214 0.293 7.51 2.01 11.57
11/9/2022 7:15:00 AM 6.18 43.124 0.294 7.52 1.98 11.68
11/9/2022 7:30:00 AM 6.14 43.052 0.294 7.53 2.04 11.78
11/9/2022 7:45:00 AM 6.1 42.98 0.293 7.55 1.9 11.93
11/9/2022 8:00:00 AM 6.08 42.944 0.293 7.57 1.97 12.08
11/9/2022 8:15:00 AM 6.05 42.89 0.293 7.59 1.89 12.21
11/9/2022 8:30:00 AM 6.05 42.89 0.293 7.62 1.94 12.37
11/9/2022 8:45:00 AM 6.04 42.872 0.292 7.64 1.97 12.5
11/9/2022 9:00:00 AM 6.06 42.908 0.292 7.68 2.06 12.68
11/9/2022 9:15:00 AM 6.09 42.962 0.291 7.72 1.95 12.85
11/9/2022 9:30:00 AM 6.15 43.07 0.291 7.77 1.98 13.03
11/9/2022 9:45:00 AM 6.23 43.214 0.291 7.83 1.98 13.23
11/9/2022 10:00:00 AM 6.34 43.412 0.29 7.9 2 13.42
11/9/2022 10:15:00 AM 6.43 43.574 0.29 7.96 2.1 13.56
11/9/2022 10:30:00 AM 6.55 43.79 0.29 8.03 2.09 13.67
11/9/2022 10:45:00 AM 6.71 44.078 0.29 8.11 2 13.81
11/9/2022 11:00:00 AM 6.81 44.258 0.293 8.18 1.99 13.88
11/9/2022 11:15:00 AM 6.94 44.492 0.296 8.24 2.12 13.93
11/9/2022 11:30:00 AM 7.08 44.744 0.296 8.31 1.91 13.97
11/9/2022 11:45:00 AM 7.22 44.996 0.289 8.38 1.91 14
11/9/2022 12:00:00 PM 7.38 45.284 0.288 8.45 1.94 14.03
11/9/2022 12:15:00 PM 7.55 45.59 0.288 8.5 1.88 14.02
11/9/2022 12:30:00 PM 7.74 45.932 0.287 8.56 1.94 14.01
11/9/2022 12:45:00 PM 7.89 46.202 0.287 8.61 1.95 13.96
11/9/2022 1:00:00 PM 8.09 46.562 0.287 8.66 1.98 13.91
11/9/2022 1:15:00 PM 8.21 46.778 0.286 8.7 2.19 13.86
11/9/2022 1:30:00 PM 8.31 46.958 0.295 8.72 2.07 13.77
11/9/2022 1:45:00 PM 8.38 47.084 0.295 8.75 2.16 13.71
11/9/2022 2:00:00 PM 8.43 47.174 0.295 8.76 1.95 13.63
11/9/2022 2:15:00 PM 8.45 47.21 0.294 8.77 2.06 13.54
11/9/2022 2:30:00 PM 8.45 47.21 0.288 8.76 2.02 13.42
11/9/2022 2:45:00 PM 8.46 47.228 0.286 8.76 2.05 13.38
11/9/2022 3:00:00 PM 8.46 47.228 0.286 8.77 1.97 13.34
11/9/2022 3:15:00 PM 8.48 47.264 0.286 8.78 2.23 13.37
11/9/2022 3:30:00 PM 8.45 47.21 0.286 8.77 2.11 13.23
11/9/2022 3:45:00 PM 8.41 47.138 0.287 8.72 1.97 13.01
11/9/2022 4:00:00 PM 8.38 47.084 0.287 8.66 1.94 12.8
11/9/2022 4:15:00 PM 8.36 47.048 0.288 8.58 1.94 12.62
11/9/2022 4:30:00 PM 8.34 47.012 0.288 8.5 1.97 12.41
11/9/2022 4:45:00 PM 8.31 46.958 0.289 8.4 2.01 12.21
11/9/2022 5:00:00 PM 8.28 46.904 0.289 8.29 2.04 11.98
11/9/2022 5:15:00 PM 8.26 46.868 0.289 8.19 2.01 11.78
11/9/2022 5:30:00 PM 8.22 46.796 0.29 8.1 1.99 11.59
11/9/2022 5:45:00 PM 8.19 46.742 0.29 8.03 2.1 11.43
11/9/2022 6:00:00 PM 8.17 46.706 0.29 7.97 2 11.33
11/9/2022 6:15:00 PM 8.13 46.634 0.291 7.92 2.08 11.22
11/9/2022 6:30:00 PM 8.11 46.598 0.291 7.88 2.03 11.15
11/9/2022 6:45:00 PM 8.07 46.526 0.291 7.85 2.14 11.1
11/9/2022 7:00:00 PM 8.04 46.472 0.291 7.82 2.23 11.04
11/9/2022 7:15:00 PM 8 46.4 0.291 7.79 2.12 11
11/9/2022 7:30:00 PM 7.97 46.346 0.291 7.77 1.99 10.97
11/9/2022 7:45:00 PM 7.94 46.292 0.292 7.75 2.17 10.94
11/9/2022 8:00:00 PM 7.93 46.274 0.292 7.73 2.07 10.91
11/9/2022 8:15:00 PM 7.9 46.22 0.292 7.72 2.03 10.92
11/9/2022 8:30:00 PM 7.88 46.184 0.292 7.7 2.07 10.91
11/9/2022 8:45:00 PM 7.88 46.184 0.292 7.69 1.95 10.9
11/9/2022 9:00:00 PM 7.84 46.112 0.292 7.67 2.15 10.89
11/9/2022 9:15:00 PM 7.81 46.058 0.292 7.66 2.23 10.89
11/9/2022 9:30:00 PM 7.8 46.04 0.292 7.65 1.99 10.88
11/9/2022 9:45:00 PM 7.76 45.968 0.292 7.65 2.08 10.88
11/9/2022 10:00:00 PM 7.72 45.896 0.292 7.63 2.05 10.89
11/9/2022 10:15:00 PM 7.69 45.842 0.292 7.63 2.01 10.91
11/9/2022 10:30:00 PM 7.65 45.77 0.292 7.62 2.07 10.92
11/9/2022 10:45:00 PM 7.62 45.716 0.293 7.62 2.23 10.96
11/9/2022 11:00:00 PM 7.58 45.644 0.293 7.61 2.09 10.94
11/9/2022 11:15:00 PM 7.54 45.572 0.293 7.6 2.11 10.96
11/9/2022 11:30:00 PM 7.51 45.518 0.293 7.6 2.01 10.97
11/9/2022 11:45:00 PM 7.47 45.446 0.293 7.59 2.13 10.98
11/10/2022 12:00:00 AM 7.42 45.356 0.293 7.59 2.01 11
11/10/2022 12:15:00 AM 7.37 45.266 0.293 7.59 2 11.02
11/10/2022 12:30:00 AM 7.33 45.194 0.293 7.58 2.16 11.01
11/10/2022 12:45:00 AM 7.27 45.086 0.293 7.57 2.07 11.01
11/10/2022 1:00:00 AM 7.24 45.032 0.293 7.57 2.07 11.04
11/10/2022 1:15:00 AM 7.22 44.996 0.293 7.57 2.03 11.07
11/10/2022 1:30:00 AM 7.14 44.852 0.293 7.56 2.15 11.06
11/10/2022 1:45:00 AM 7.1 44.78 0.293 7.56 2.08 11.08
11/10/2022 2:00:00 AM 7.07 44.726 0.293 7.56 2.08 11.11
11/10/2022 2:15:00 AM 7 44.6 0.293 7.56 2.25 11.11
11/10/2022 2:30:00 AM 6.96 44.528 0.293 7.55 2.17 11.12
11/10/2022 2:45:00 AM 6.91 44.438 0.293 7.55 2.2 11.12
11/10/2022 3:00:00 AM 6.86 44.348 0.294 7.54 2.24 11.13
11/10/2022 3:15:00 AM 6.83 44.294 0.294 7.54 2.19 11.15
11/10/2022 3:30:00 AM 6.78 44.204 0.294 7.54 2.04 11.18
11/10/2022 3:45:00 AM 6.74 44.132 0.294 7.54 2.04 11.2
11/10/2022 4:00:00 AM 6.7 44.06 0.294 7.53 2.15 11.21
11/10/2022 4:15:00 AM 6.65 43.97 0.294 7.53 2.1 11.23
11/10/2022 4:30:00 AM 6.63 43.934 0.295 7.53 2.11 11.26
11/10/2022 4:45:00 AM 6.6 43.88 0.295 7.53 2.06 11.27
11/10/2022 5:00:00 AM 6.56 43.808 0.295 7.53 2.18 11.27
11/10/2022 5:15:00 AM 6.52 43.736 0.295 7.53 2.37 11.29
11/10/2022 5:30:00 AM 6.5 43.7 0.295 7.52 2.41 11.3
11/10/2022 5:45:00 AM 6.48 43.664 0.295 7.52 2.2 11.32
11/10/2022 6:00:00 AM 6.44 43.592 0.295 7.52 2.11 11.33
11/10/2022 6:15:00 AM 6.41 43.538 0.295 7.52 2.21 11.35
11/10/2022 6:30:00 AM 6.4 43.52 0.295 7.52 2.27 11.36
11/10/2022 6:45:00 AM 6.36 43.448 0.295 7.52 2.2 11.37
11/10/2022 7:00:00 AM 6.34 43.412 0.295 7.53 2.18 11.43
11/10/2022 7:15:00 AM 6.33 43.394 0.295 7.54 2.17 11.54
11/10/2022 7:30:00 AM 6.33 43.394 0.294 7.56 2.22 11.67
11/10/2022 7:45:00 AM 6.31 43.358 0.294 7.57 2.2 11.79
11/10/2022 8:00:00 AM 6.32 43.376 0.295 7.59 2.07 11.93
11/10/2022 8:15:00 AM 6.32 43.376 0.294 7.61 2.13 12.07
11/10/2022 8:30:00 AM 6.35 43.43 0.294 7.64 2.08 12.21
11/10/2022 8:45:00 AM 6.39 43.502 0.293 7.67 2.08 12.41
11/10/2022 9:00:00 AM 6.45 43.61 0.293 7.72 2.1 12.57
11/10/2022 9:15:00 AM 6.53 43.754 0.293 7.76 2.01 12.76
11/10/2022 9:30:00 AM 6.63 43.934 0.292 7.82 2.06 12.95
11/10/2022 9:45:00 AM 6.75 44.15 0.292 7.88 2.05 13.14
11/10/2022 10:00:00 AM 6.88 44.384 0.292 7.96 2 13.32
11/10/2022 10:15:00 AM 7.01 44.618 0.291 8.03 2.13 13.47
11/10/2022 10:30:00 AM 7.16 44.888 0.291 8.11 1.93 13.59
11/10/2022 10:45:00 AM 7.32 45.176 0.291 8.2 1.98 13.74
11/10/2022 11:00:00 AM 7.48 45.464 0.29 8.28 2.05 13.82
11/10/2022 11:15:00 AM 7.65 45.77 0.29 8.37 1.98 13.89
11/10/2022 11:30:00 AM 7.81 46.058 0.29 8.44 1.9 13.92
11/10/2022 11:45:00 AM 8 46.4 0.29 8.5 1.88 13.94
11/10/2022 12:00:00 PM 8.18 46.724 0.29 8.58 1.9 13.95
11/10/2022 12:15:00 PM 8.41 47.138 0.29 8.64 2 13.97
11/10/2022 12:30:00 PM 8.6 47.48 0.289 8.69 1.98 13.92
11/10/2022 12:45:00 PM 8.83 47.894 0.288 8.74 1.79 13.87
11/10/2022 1:00:00 PM 9.03 48.254 0.288 8.78 1.92 13.82
11/10/2022 1:15:00 PM 9.23 48.614 0.288 8.81 1.91 13.74
11/10/2022 1:30:00 PM 9.37 48.866 0.288 8.85 1.85 13.65
11/10/2022 1:45:00 PM 9.47 49.046 0.288 8.87 1.92 13.55
11/10/2022 2:00:00 PM 9.56 49.208 0.288 8.88 2.01 13.43
11/10/2022 2:15:00 PM 9.61 49.298 0.288 8.88 1.91 13.31
11/10/2022 2:30:00 PM 9.65 49.37 0.288 8.87 1.91 13.2
11/10/2022 2:45:00 PM 9.68 49.424 0.288 8.87 1.94 13.07
11/10/2022 3:00:00 PM 9.7 49.46 0.289 8.85 1.87 12.95
11/10/2022 3:15:00 PM 9.72 49.496 0.289 8.84 1.89 12.84
11/10/2022 3:30:00 PM 9.72 49.496 0.289 8.82 1.87 12.71
11/10/2022 3:45:00 PM 9.73 49.514 0.289 8.78 1.81 12.57
11/10/2022 4:00:00 PM 9.71 49.478 0.289 8.73 2.02 12.4
11/10/2022 4:15:00 PM 9.71 49.478 0.29 8.68 1.8 12.22
11/10/2022 4:30:00 PM 9.69 49.442 0.29 8.59 1.76 11.98
11/10/2022 4:45:00 PM 9.68 49.424 0.291 8.48 1.84 11.74
11/10/2022 5:00:00 PM 9.66 49.388 0.292 8.36 1.86 11.5
11/10/2022 5:15:00 PM 9.64 49.352 0.292 8.24 1.91 11.28
11/10/2022 5:30:00 PM 9.61 49.298 0.293 8.14 1.9 11.07
11/10/2022 5:45:00 PM 9.58 49.244 0.293 8.06 1.89 10.92
11/10/2022 6:00:00 PM 9.56 49.208 0.293 7.99 1.91 10.81
11/10/2022 6:15:00 PM 9.52 49.136 0.293 7.93 1.88 10.69
11/10/2022 6:30:00 PM 9.5 49.1 0.294 7.89 1.91 10.63
11/10/2022 6:45:00 PM 9.48 49.064 0.294 7.85 2.22 10.56
11/10/2022 7:00:00 PM 9.46 49.028 0.294 7.81 2.78 10.51
11/10/2022 7:15:00 PM 9.43 48.974 0.294 7.78 1.9 10.46
11/10/2022 7:30:00 PM 9.43 48.974 0.294 7.76 1.99 10.44
11/10/2022 7:45:00 PM 9.41 48.938 0.294 7.74 1.92 10.41
11/10/2022 8:00:00 PM 9.41 48.938 0.294 7.72 1.99 10.39
11/10/2022 8:15:00 PM 9.42 48.956 0.294 7.7 1.93 10.38
11/10/2022 8:30:00 PM 9.39 48.902 0.294 7.68 1.93 10.34
11/10/2022 8:45:00 PM 9.4 48.92 0.295 7.67 1.9 10.33
11/10/2022 9:00:00 PM 9.38 48.884 0.295 7.66 1.88 10.32
11/10/2022 9:15:00 PM 9.37 48.866 0.295 7.64 1.89 10.31
11/10/2022 9:30:00 PM 9.37 48.866 0.295 7.63 1.89 10.32
11/10/2022 9:45:00 PM 9.38 48.884 0.295 7.62 1.91 10.34
11/10/2022 10:00:00 PM 9.34 48.812 0.295 7.61 1.92 10.29
11/10/2022 10:15:00 PM 9.33 48.794 0.295 7.61 1.9 10.29
11/10/2022 10:30:00 PM 9.33 48.794 0.296 7.6 4.91 10.3
11/10/2022 10:45:00 PM 9.31 48.758 0.296 7.59 2 10.31
11/10/2022 11:00:00 PM 9.29 48.722 0.296 7.59 2.15 10.32
11/10/2022 11:15:00 PM 9.26 48.668 0.296 7.58 2.08 10.29
11/10/2022 11:30:00 PM 9.25 48.65 0.296 7.58 2.05 10.32
11/10/2022 11:45:00 PM 9.24 48.632 0.297 7.57 2.08 10.34
11/11/2022 12:00:00 AM 9.2 48.56 0.297 7.57 2.01 10.34
11/11/2022 12:15:00 AM 9.19 48.542 0.297 7.56 2.09 10.35
11/11/2022 12:30:00 AM 9.15 48.47 0.297 7.56 2.09 10.35
11/11/2022 12:45:00 AM 9.13 48.434 0.297 7.55 2.23 10.36
11/11/2022 1:00:00 AM 9.1 48.38 0.297 7.55 2.26 10.36
11/11/2022 1:15:00 AM 9.07 48.326 0.297 7.54 2.21 10.36
11/11/2022 1:30:00 AM 9.04 48.272 0.297 7.54 2.07 10.37
11/11/2022 1:45:00 AM 9.01 48.218 0.297 7.54 2.08 10.37
11/11/2022 2:00:00 AM 8.97 48.146 0.297 7.53 2.2 10.39
11/11/2022 2:15:00 AM 8.95 48.11 0.298 7.53 2.04 10.42
11/11/2022 2:30:00 AM 8.94 48.092 0.298 7.53 2.15 10.41
11/11/2022 2:45:00 AM 8.91 48.038 0.298 7.53 2.16 10.42
11/11/2022 3:00:00 AM 8.87 47.966 0.298 7.53 2.05 10.43
11/11/2022 3:15:00 AM 8.85 47.93 0.298 7.52 2.07 10.45
11/11/2022 3:30:00 AM 8.81 47.858 0.297 7.52 2.01 10.46
11/11/2022 3:45:00 AM 8.78 47.804 0.298 7.52 2.08 10.47
11/11/2022 4:00:00 AM 8.77 47.786 0.297 7.52 2.06 10.48
11/11/2022 4:15:00 AM 8.75 47.75 0.297 7.51 2.06 10.46
11/11/2022 4:30:00 AM 8.72 47.696 0.297 7.51 2.01 10.49
11/11/2022 4:45:00 AM 8.7 47.66 0.297 7.51 2.12 10.51
11/11/2022 5:00:00 AM 8.68 47.624 0.297 7.51 2.09 10.49
11/11/2022 5:15:00 AM 8.65 47.57 0.297 7.51 2.07 10.5
11/11/2022 5:30:00 AM 8.64 47.552 0.297 7.51 2.11 10.55
11/11/2022 5:45:00 AM 8.62 47.516 0.297 7.51 2.17 10.53
11/11/2022 6:00:00 AM 8.62 47.516 0.297 7.51 2.26 10.53
11/11/2022 6:15:00 AM 8.63 47.534 0.297 7.5 2.32 10.54
11/11/2022 6:30:00 AM 8.63 47.534 0.297 7.5 2.34 10.54
11/11/2022 6:45:00 AM 8.64 47.552 0.296 7.5 2.21 10.56
11/11/2022 7:00:00 AM 8.65 47.57 0.296 7.5 2.25 10.58
11/11/2022 7:15:00 AM 8.65 47.57 0.295 7.51 2.19 10.67
11/11/2022 7:30:00 AM 8.66 47.588 0.296 7.53 2.13 10.79
11/11/2022 7:45:00 AM 8.69 47.642 0.295 7.55 2.17 10.95
11/11/2022 8:00:00 AM 8.72 47.696 0.295 7.57 2.11 11.13
11/11/2022 8:15:00 AM 8.79 47.822 0.295 7.62 2.12 11.51
11/11/2022 8:30:00 AM 8.84 47.912 0.294 7.66 2.1 11.68
11/11/2022 8:45:00 AM 8.9 48.02 0.294 7.72 2.08 11.94
11/11/2022 9:00:00 AM 8.96 48.128 0.293 7.77 2.11 12.09
11/11/2022 9:15:00 AM 9 48.2 0.293 7.78 2.11 12.11
11/11/2022 9:30:00 AM 9.06 48.308 0.292 7.81 2.15 12.17
11/11/2022 9:45:00 AM 9.11 48.398 0.292 7.84 2.13 12.19
11/11/2022 10:00:00 AM 9.16 48.488 0.292 7.86 2.05 12.25
11/11/2022 10:15:00 AM 9.23 48.614 0.291 7.92 2.07 12.42
11/11/2022 10:30:00 AM 9.28 48.704 0.291 7.93 2.06 12.36
11/11/2022 10:45:00 AM 9.35 48.83 0.29 7.98 2.08 12.51
11/11/2022 11:00:00 AM 9.41 48.938 0.29 8.02 2.1 12.5
11/11/2022 11:15:00 AM 9.47 49.046 0.29 8.06 2.08 12.55
11/11/2022 11:30:00 AM 9.54 49.172 0.29 8.13 2.09 12.75
11/11/2022 11:45:00 AM 9.6 49.28 0.289 8.18 2.15 12.75
11/11/2022 12:00:00 PM 9.69 49.442 0.289 8.24 2.1 12.95
11/11/2022 12:15:00 PM 9.74 49.532 0.288 8.28 2.17 12.84
11/11/2022 12:30:00 PM 9.8 49.64 0.288 8.3 2.09 12.8
11/11/2022 12:45:00 PM 9.87 49.766 0.287 8.33 2.06 12.85
11/11/2022 1:00:00 PM 9.98 49.964 0.286 8.43 2.1 13.08
11/11/2022 1:15:00 PM 10.05 50.09 0.286 8.48 2.14 13.04
11/11/2022 1:30:00 PM 10.13 50.234 0.286 8.51 2.14 13.05
11/11/2022 1:45:00 PM 10.2 50.36 0.285 8.54 2.2 12.86
11/11/2022 2:00:00 PM 10.31 50.558 0.282 8.46 614.55 12.38
11/11/2022 2:15:00 PM 10.37 50.666 0.281 8.38 1.98 12.12
11/11/2022 2:30:00 PM 10.46 50.828 0.279 8.31 1.95 11.86
11/11/2022 2:45:00 PM 10.51 50.918 0.28 8.25 2.05 11.72
11/11/2022 3:00:00 PM 10.59 51.062 0.279 8.19 2.44 11.54
11/11/2022 3:15:00 PM 10.69 51.242 0.276 8.13 5.08 11.36
11/11/2022 3:30:00 PM 10.96 51.728 0.265 8.03 6.67 10.98
11/11/2022 3:45:00 PM 10.98 51.764 0.266 7.97 5.8 10.86
11/11/2022 4:00:00 PM 11.04 51.872 0.265 7.9 9.46 10.7
11/11/2022 4:15:00 PM 11.25 52.25 0.255 7.84 25.49 10.46
11/11/2022 4:30:00 PM 11.36 52.448 0.253 7.79 29.52 10.24
11/11/2022 4:45:00 PM 11.38 52.484 0.259 7.75 20.62 10.17
11/11/2022 5:00:00 PM 11.33 52.394 0.269 7.71 14.32 10.07
11/11/2022 5:15:00 PM 11.29 52.322 0.279 7.68 10.28 10.01
11/11/2022 5:30:00 PM 11.3 52.34 0.284 7.65 8.29 9.91
11/11/2022 5:45:00 PM 11.3 52.34 0.289 7.64 6.65 9.92
11/11/2022 6:00:00 PM 11.32 52.376 0.291 7.62 7.34 9.85
11/11/2022 6:15:00 PM 11.35 52.43 0.289 7.6 6.23 9.78
11/11/2022 6:30:00 PM 11.4 52.52 0.285 7.59 7.46 9.74
11/11/2022 6:45:00 PM 11.44 52.592 0.282 7.58 7.63 9.7
11/11/2022 7:00:00 PM 11.47 52.646 0.282 7.56 6.59 9.61
11/11/2022 7:15:00 PM 11.5 52.7 0.283 7.55 6.62 9.65
11/11/2022 7:30:00 PM 11.5 52.7 0.283 7.53 6.44 9.61
11/11/2022 7:45:00 PM 11.5 52.7 0.283 7.52 6.93 9.55
11/11/2022 8:00:00 PM 11.5 52.7 0.285 7.51 8.53 9.62
11/11/2022 8:15:00 PM 11.48 52.664 0.295 7.5 10.99 9.58
11/11/2022 8:30:00 PM 11.47 52.646 0.302 7.5 11.98 9.62
11/11/2022 8:45:00 PM 11.46 52.628 0.304 7.5 13.54 9.61
11/11/2022 9:00:00 PM 11.48 52.664 0.302 7.51 10.4 9.62
11/11/2022 9:15:00 PM 11.51 52.718 0.3 7.51 9.2 9.65
11/11/2022 9:30:00 PM 11.54 52.772 0.302 7.51 8.78 9.67
11/11/2022 9:45:00 PM 11.57 52.826 0.306 7.51 9.07 9.68
11/11/2022 10:00:00 PM 11.58 52.844 0.311 7.51 10.36 9.6
11/11/2022 10:15:00 PM 11.58 52.844 0.318 7.51 8.49 9.65
11/11/2022 10:30:00 PM 11.57 52.826 0.327 7.51 7.14 9.69
11/11/2022 10:45:00 PM 11.56 52.808 0.336 7.51 7.14 9.72
11/11/2022 11:00:00 PM 11.56 52.808 0.344 7.51 6.68 9.74
11/11/2022 11:15:00 PM 11.58 52.844 0.35 7.52 7.87 9.72
11/11/2022 11:30:00 PM 11.62 52.916 0.353 7.52 6.86 9.69
11/11/2022 11:45:00 PM 11.68 53.024 0.346 7.52 6.92 9.7
11/12/2022 12:00:00 AM 11.75 53.15 0.341 7.51 7.42 9.67
11/12/2022 12:15:00 AM 11.84 53.312 0.33 7.51 8.27 9.66
11/12/2022 12:30:00 AM 11.91 53.438 0.321 7.51 6.95 9.59
11/12/2022 12:45:00 AM 11.99 53.582 0.315 7.51 7.04 9.54
11/12/2022 1:00:00 AM 12.09 53.762 0.309 7.51 8.25 9.59
11/12/2022 1:15:00 AM 12.15 53.87 0.304 7.51 7.19 9.58
11/12/2022 1:30:00 AM 12.2 53.96 0.3 7.51 7.52 9.57
11/12/2022 1:45:00 AM 12.24 54.032 0.297 7.51 6.99 9.55
11/12/2022 2:00:00 AM 12.27 54.086 0.294 7.51 7.59 9.54
11/12/2022 2:15:00 AM 12.31 54.158 0.29 7.51 7.86 9.53
11/12/2022 2:30:00 AM 12.34 54.212 0.287 7.51 7.92 9.53
11/12/2022 2:45:00 AM 12.36 54.248 0.285 7.51 9.44 9.51
11/12/2022 3:00:00 AM 12.45 54.41 0.282 7.51 8.91 9.53
11/12/2022 3:15:00 AM 12.64 54.752 0.27 7.52 10.16 9.62
11/12/2022 3:30:00 AM 12.7 54.86 0.263 7.52 80.42 9.6
11/12/2022 3:45:00 AM 12.94 55.292 0.237 7.51 53.17 9.58
11/12/2022 4:00:00 AM 13.01 55.418 0.225 7.49 62.15 9.59
11/12/2022 4:15:00 AM 12.96 55.328 0.23 7.46 53.39 9.56
11/12/2022 4:30:00 AM 12.94 55.292 0.238 7.42 88.41 9.55
11/12/2022 4:45:00 AM 12.98 55.364 0.232 7.38 100.8 9.55
11/12/2022 5:00:00 AM 13.03 55.454 0.212 7.33 118.72 9.59
11/12/2022 5:15:00 AM 13.11 55.598 0.197 7.28 134.63 9.58
11/12/2022 5:30:00 AM 13.2 55.76 0.187 7.26 123.4 9.61
11/12/2022 5:45:00 AM 13.19 55.742 0.187 7.24 117.15 9.63
11/12/2022 6:00:00 AM 13.16 55.688 0.182 7.25 115.54 9.67
11/12/2022 6:15:00 AM 13.1 55.58 0.185 7.24 130.29 9.69
11/12/2022 6:30:00 AM 12.96 55.328 0.209 7.27 130.81 9.75
11/12/2022 6:45:00 AM 12.87 55.166 0.223 7.3 120.14 9.79
11/12/2022 7:00:00 AM 12.85 55.13 0.217 7.32 131.69 9.82
11/12/2022 7:15:00 AM 12.9 55.22 0.21 7.32 113.44 9.83
11/12/2022 7:30:00 AM 12.93 55.274 0.205 7.31 100.62 9.84
11/12/2022 7:45:00 AM 12.91 55.238 0.203 7.33 87.6 9.86
11/12/2022 8:00:00 AM 12.85 55.13 0.204 7.33 78.81 9.9
11/12/2022 8:15:00 AM 12.78 55.004 0.206 7.34 70.04 9.93
11/12/2022 8:30:00 AM 12.69 54.842 0.208 7.36 63.84 9.95
11/12/2022 8:45:00 AM 12.61 54.698 0.21 7.37 57.96 9.98
11/12/2022 9:00:00 AM 12.52 54.536 0.211 7.37 56.48 10.02
11/12/2022 9:15:00 AM 12.43 54.374 0.213 7.38 49.54 10.06
11/12/2022 9:30:00 AM 12.35 54.23 0.215 7.38 40.72 10.1
11/12/2022 9:45:00 AM 12.27 54.086 0.216 7.39 45.82 10.14
11/12/2022 10:00:00 AM 12.2 53.96 0.216 7.4 41.2 10.17
11/12/2022 10:15:00 AM 12.15 53.87 0.217 7.41 39.53 10.19
11/12/2022 10:30:00 AM 12.1 53.78 0.217 7.41 35.93 10.21
11/12/2022 10:45:00 AM 12.05 53.69 0.218 7.41 34.52 10.24
11/12/2022 11:00:00 AM 12.01 53.618 0.219 7.43 31.23 10.26
11/12/2022 11:15:00 AM 11.97 53.546 0.219 7.44 30.53 10.28
11/12/2022 11:30:00 AM 11.95 53.51 0.22 7.44 29.3 10.31
11/12/2022 11:45:00 AM 11.93 53.474 0.221 7.44 25.76 10.33
11/12/2022 12:00:00 PM 11.93 53.474 0.222 7.46 24.37 10.35
11/12/2022 12:15:00 PM 11.94 53.492 0.222 7.47 22.66 10.37
11/12/2022 12:30:00 PM 11.99 53.582 0.223 7.48 20.95 10.39
11/12/2022 12:45:00 PM 11.99 53.582 0.224 7.48 20.55 10.4
11/12/2022 1:00:00 PM 11.95 53.51 0.224 7.48 19.08 10.4
11/12/2022 1:15:00 PM 11.92 53.456 0.225 7.5 18.25 10.41
11/12/2022 1:30:00 PM 11.94 53.492 0.226 7.51 17.3 10.42
11/12/2022 1:45:00 PM 11.96 53.528 0.226 7.51 15.21 10.43
11/12/2022 2:00:00 PM 11.97 53.546 0.227 7.52 15.3 10.44
11/12/2022 2:15:00 PM 11.98 53.564 0.227 7.52 14.21 10.43
11/12/2022 2:30:00 PM 11.98 53.564 0.227 7.52 15.05 10.43
11/12/2022 2:45:00 PM 11.96 53.528 0.228 7.53 14.55 10.43
11/12/2022 3:00:00 PM 11.95 53.51 0.228 7.52 14.29 10.43
11/12/2022 3:15:00 PM 11.93 53.474 0.228 7.52 14.26 10.43
11/12/2022 3:30:00 PM 11.92 53.456 0.229 7.51 13.68 10.42
11/12/2022 3:45:00 PM 11.92 53.456 0.229 7.51 13 10.43
11/12/2022 4:00:00 PM 11.9 53.42 0.229 7.5 12.7 10.41
11/12/2022 4:15:00 PM 11.88 53.384 0.23 7.49 12.49 10.39
11/12/2022 4:30:00 PM 11.86 53.348 0.23 7.49 12.24 10.37
11/12/2022 4:45:00 PM 11.85 53.33 0.23 7.47 12.88 10.36
11/12/2022 5:00:00 PM 11.84 53.312 0.23 7.47 12.35 10.34
11/12/2022 5:15:00 PM 11.83 53.294 0.231 7.45 12.08 10.33
11/12/2022 5:30:00 PM 11.82 53.276 0.231 7.45 11.52 10.32
11/12/2022 5:45:00 PM 11.82 53.276 0.231 7.45 12.02 10.32
11/12/2022 6:00:00 PM 11.82 53.276 0.231 7.43 12.22 10.31
11/12/2022 6:15:00 PM 11.82 53.276 0.231 7.43 11.65 10.31
11/12/2022 6:30:00 PM 11.82 53.276 0.231 7.43 11 10.3
11/12/2022 6:45:00 PM 11.82 53.276 0.232 7.43 11.2 10.3
11/12/2022 7:00:00 PM 11.81 53.258 0.232 7.43 10.68 10.3
11/12/2022 7:15:00 PM 11.81 53.258 0.232 7.44 9.67 10.31
11/12/2022 7:30:00 PM 11.82 53.276 0.232 7.44 9.34 10.29
11/12/2022 7:45:00 PM 11.83 53.294 0.232 7.45 9.34 10.29
11/12/2022 8:00:00 PM 11.84 53.312 0.232 7.46 8.66 10.29
11/12/2022 8:15:00 PM 11.86 53.348 0.232 7.45 9.08 10.29
11/12/2022 8:30:00 PM 11.88 53.384 0.232 7.45 9.2 10.27
11/12/2022 8:45:00 PM 11.89 53.402 0.232 7.46 8.26 10.27
11/12/2022 9:00:00 PM 11.9 53.42 0.232 7.46 8.34 10.27
11/12/2022 9:15:00 PM 11.91 53.438 0.232 7.46 8.55 10.27
11/12/2022 9:30:00 PM 11.9 53.42 0.232 7.47 8.57 10.27
11/12/2022 9:45:00 PM 11.9 53.42 0.232 7.46 7.65 10.28
11/12/2022 10:00:00 PM 11.89 53.402 0.232 7.47 7.88 10.28
11/12/2022 10:15:00 PM 11.88 53.384 0.232 7.47 7.72 10.28
11/12/2022 10:30:00 PM 11.87 53.366 0.232 7.48 7.88 10.28
11/12/2022 10:45:00 PM 11.85 53.33 0.232 7.48 7.98 10.27
11/12/2022 11:00:00 PM 11.84 53.312 0.232 7.48 8.17 10.29
11/12/2022 11:15:00 PM 11.84 53.312 0.232 7.48 8.31 10.3
11/12/2022 11:30:00 PM 11.82 53.276 0.232 7.48 7.98 10.3
11/12/2022 11:45:00 PM 11.81 53.258 0.211 7.48 8.35 10.3
11/13/2022 12:00:00 AM 11.79 53.222 0.221 7.48 8.42 10.31
11/13/2022 12:15:00 AM 11.77 53.186 0.213 7.48 8.43 10.3
11/13/2022 12:30:00 AM 11.75 53.15 0.208 7.48 8.76 10.31
11/13/2022 12:45:00 AM 11.73 53.114 0.231 7.47 8.64 10.31
11/13/2022 1:00:00 AM 11.7 53.06 0.231 7.47 8.88 10.32
11/13/2022 1:15:00 AM 11.68 53.024 0.211 7.48 8.38 10.32
11/13/2022 1:30:00 AM 11.65 52.97 0.223 7.49 8.42 10.33
11/13/2022 1:45:00 AM 11.62 52.916 0.232 7.48 8.6 10.33
11/13/2022 2:00:00 AM 11.59 52.862 0.232 7.48 8.57 10.34
11/13/2022 2:15:00 AM 11.56 52.808 0.232 7.47 8.12 10.35
11/13/2022 2:30:00 AM 11.53 52.754 0.232 7.48 8.56 10.36
11/13/2022 2:45:00 AM 11.5 52.7 0.232 7.48 8.5 10.37
11/13/2022 3:00:00 AM 11.46 52.628 0.232 7.48 8.48 10.37
11/13/2022 3:15:00 AM 11.43 52.574 0.232 7.48 8.67 10.38
11/13/2022 3:30:00 AM 11.39 52.502 0.232 7.48 8.44 10.39
11/13/2022 3:45:00 AM 11.35 52.43 0.232 7.47 8.83 10.4
11/13/2022 4:00:00 AM 11.32 52.376 0.232 7.48 8.71 10.4
11/13/2022 4:15:00 AM 11.28 52.304 0.232 7.48 8.98 10.41
11/13/2022 4:30:00 AM 11.24 52.232 0.232 7.49 9.08 10.43
11/13/2022 4:45:00 AM 11.2 52.16 0.232 7.48 8.48 10.44
11/13/2022 5:00:00 AM 11.17 52.106 0.233 7.48 8.59 10.45
11/13/2022 5:15:00 AM 11.13 52.034 0.233 7.49 8.61 10.46
11/13/2022 5:30:00 AM 11.09 51.962 0.233 7.49 8.54 10.47
11/13/2022 5:45:00 AM 11.07 51.926 0.232 7.49 8.48 10.47
11/13/2022 6:00:00 AM 11.04 51.872 0.233 7.48 9.11 10.48
11/13/2022 6:15:00 AM 11 51.8 0.233 7.48 10.96 10.49
11/13/2022 6:30:00 AM 10.96 51.728 0.233 7.48 7.52 10.5
11/13/2022 6:45:00 AM 10.91 51.638 0.233 7.48 9.16 10.51
11/13/2022 7:00:00 AM 10.86 51.548 0.233 7.48 9.26 10.52
11/13/2022 7:15:00 AM 10.82 51.476 0.233 7.48 8.47 10.54
11/13/2022 7:30:00 AM 10.79 51.422 0.234 7.49 8.51 10.58
11/13/2022 7:45:00 AM 10.79 51.422 0.234 7.5 9.23 10.61
11/13/2022 8:00:00 AM 10.78 51.404 0.234 7.5 9.28 10.65
11/13/2022 8:15:00 AM 10.78 51.404 0.234 7.51 8.88 10.68
11/13/2022 8:30:00 AM 10.78 51.404 0.234 7.51 8.81 10.71
11/13/2022 8:45:00 AM 10.79 51.422 0.234 7.52 8.6 10.75
11/13/2022 9:00:00 AM 10.79 51.422 0.234 7.53 8.83 10.79
11/13/2022 9:15:00 AM 10.79 51.422 0.234 7.54 8.82 10.81
11/13/2022 9:30:00 AM 10.8 51.44 0.234 7.55 8.49 10.84
11/13/2022 9:45:00 AM 10.82 51.476 0.234 7.56 8.75 10.86
11/13/2022 10:00:00 AM 10.83 51.494 0.234 7.56 8.83 10.87
11/13/2022 10:15:00 AM 10.84 51.512 0.234 7.57 8.65 10.87
11/13/2022 10:30:00 AM 10.86 51.548 0.234 7.58 9.15 10.87
11/13/2022 10:45:00 AM 10.88 51.584 0.234 7.59 8.23 10.87
11/13/2022 11:00:00 AM 10.87 51.566 0.234 7.58 8.5 10.85
11/13/2022 11:30:00 AM 10.91 51.638 0.234 7.6 8.37 10.87
11/13/2022 11:45:00 AM 10.96 51.728 0.234 7.6 8.67 10.89
11/13/2022 12:00:00 PM 11.04 51.872 0.234 7.6 8.16 10.91
11/13/2022 12:15:00 PM 11.09 51.962 0.234 7.61 8.14 10.92
11/13/2022 12:30:00 PM 11.07 51.926 0.234 7.62 8.89 10.9
11/13/2022 12:45:00 PM 11 51.8 0.234 7.61 8.46 10.89
11/13/2022 1:00:00 PM 10.97 51.746 0.234 7.61 9.77 10.88
11/13/2022 1:15:00 PM 10.93 51.674 0.234 7.61 8.63 10.84
11/13/2022 1:30:00 PM 10.92 51.656 0.234 7.61 9 10.84
11/13/2022 1:45:00 PM 10.93 51.674 0.234 7.61 8.22 10.85
11/13/2022 2:00:00 PM 10.92 51.656 0.234 7.62 8.4 10.86
11/13/2022 2:15:00 PM 10.9 51.62 0.234 7.62 8.66 10.86
11/13/2022 2:30:00 PM 10.89 51.602 0.234 7.63 8.63 10.86
11/13/2022 2:45:00 PM 10.87 51.566 0.234 7.62 8.31 10.87
11/13/2022 3:00:00 PM 10.86 51.548 0.234 7.62 7.92 10.87
11/13/2022 3:15:00 PM 10.83 51.494 0.235 7.62 8.51 10.88
11/13/2022 3:30:00 PM 10.8 51.44 0.235 7.62 8.99 10.87
11/13/2022 3:45:00 PM 10.75 51.35 0.235 7.62 9.33 10.85
11/13/2022 4:00:00 PM 10.71 51.278 0.235 7.61 8.63 10.82
11/13/2022 4:15:00 PM 10.64 51.152 0.235 7.59 8.97 10.79
11/13/2022 4:30:00 PM 10.59 51.062 0.236 7.59 9.24 10.77
11/13/2022 4:45:00 PM 10.54 50.972 0.236 7.58 8.94 10.75
11/13/2022 5:00:00 PM 10.47 50.846 0.236 7.57 9.92 10.73
11/13/2022 5:15:00 PM 10.41 50.738 0.236 7.57 8.4 10.72
11/13/2022 5:30:00 PM 10.36 50.648 0.237 7.55 8.31 10.71
11/13/2022 5:45:00 PM 10.3 50.54 0.237 7.54 9.44 10.71
11/13/2022 6:00:00 PM 10.26 50.468 0.238 7.54 9.38 10.71
11/13/2022 6:15:00 PM 10.21 50.378 0.238 7.54 8.51 10.72
11/13/2022 6:30:00 PM 10.16 50.288 0.238 7.53 8.88 10.73
11/13/2022 6:45:00 PM 10.12 50.216 0.238 7.53 8.72 10.75
11/13/2022 7:00:00 PM 10.09 50.162 0.238 7.53 9.44 10.75
11/13/2022 7:15:00 PM 10.05 50.09 0.238 7.53 8.81 10.76
11/13/2022 7:30:00 PM 10.03 50.054 0.238 7.52 9.59 10.77
11/13/2022 7:45:00 PM 10 50 0.238 7.53 9.24 10.78
11/13/2022 8:00:00 PM 9.96 49.928 0.238 7.52 8.59 10.78
11/13/2022 8:15:00 PM 9.92 49.856 0.238 7.52 9.93 10.79
11/13/2022 8:30:00 PM 9.88 49.784 0.238 7.52 9.08 10.8
11/13/2022 8:45:00 PM 9.85 49.73 0.238 7.53 9.42 10.81
11/13/2022 9:00:00 PM 9.82 49.676 0.238 7.52 9.88 10.82
11/13/2022 9:15:00 PM 9.78 49.604 0.238 7.53 9.8 10.83
11/13/2022 9:30:00 PM 9.75 49.55 0.238 7.53 9.76 10.84
11/13/2022 9:45:00 PM 9.71 49.478 0.239 7.53 8.63 10.85
11/13/2022 10:00:00 PM 9.68 49.424 0.239 7.53 9.43 10.86
11/13/2022 10:15:00 PM 9.66 49.388 0.238 7.53 9.91 10.87
11/13/2022 10:30:00 PM 9.65 49.37 0.238 7.53 9.7 10.88
11/13/2022 10:45:00 PM 9.61 49.298 0.238 7.52 9.51 10.89
11/13/2022 11:00:00 PM 9.58 49.244 0.238 7.52 9.73 10.89
11/13/2022 11:15:00 PM 9.54 49.172 0.238 7.52 10.77 10.9
11/13/2022 11:30:00 PM 9.5 49.1 0.238 7.52 10.32 10.91
11/13/2022 11:45:00 PM 9.47 49.046 0.238 7.52 10.53 10.92
11/14/2022 12:00:00 AM 9.43 48.974 0.238 7.52 9.76 10.94
11/14/2022 12:15:00 AM 9.41 48.938 0.238 7.52 8.89 10.93
11/14/2022 12:30:00 AM 9.38 48.884 0.238 7.52 10.24 10.94
11/14/2022 12:45:00 AM 9.38 48.884 0.238 7.51 9.22 10.95
11/14/2022 1:00:00 AM 9.37 48.866 0.238 7.52 9.75 10.95
11/14/2022 1:15:00 AM 9.36 48.848 0.238 7.52 9.43 10.96
11/14/2022 1:30:00 AM 9.36 48.848 0.237 7.52 9.95 10.95
11/14/2022 1:45:00 AM 9.34 48.812 0.237 7.52 9.86 10.98
11/14/2022 2:00:00 AM 9.32 48.776 0.237 7.52 11.06 10.98
11/14/2022 2:15:00 AM 9.29 48.722 0.237 7.52 9.92 10.98
11/14/2022 2:30:00 AM 9.23 48.614 0.237 7.52 10 11
11/14/2022 2:45:00 AM 9.19 48.542 0.237 7.52 9.78 11
11/14/2022 3:00:00 AM 9.16 48.488 0.237 7.52 10.65 11.02
11/14/2022 3:15:00 AM 9.12 48.416 0.237 7.52 9.56 11.03
11/14/2022 3:30:00 AM 9.09 48.362 0.237 7.52 9.91 11.04
11/14/2022 3:45:00 AM 9.05 48.29 0.236 7.52 10.87 11.06
11/14/2022 4:00:00 AM 9.01 48.218 0.236 7.52 10.2 11.06
11/14/2022 4:15:00 AM 8.98 48.164 0.236 7.52 10.41 11.07
11/14/2022 4:30:00 AM 8.94 48.092 0.236 7.52 9.9 11.08
11/14/2022 4:45:00 AM 8.9 48.02 0.236 7.52 9.72 11.1
11/14/2022 5:00:00 AM 8.87 47.966 0.236 7.52 9.71 11.11
11/14/2022 5:15:00 AM 8.83 47.894 0.236 7.52 9.74 11.12
11/14/2022 5:30:00 AM 8.79 47.822 0.236 7.52 10.01 11.13
11/14/2022 5:45:00 AM 8.76 47.768 0.236 7.52 9.56 11.15
11/14/2022 6:00:00 AM 8.71 47.678 0.236 7.51 11.03 11.17
11/14/2022 6:15:00 AM 8.68 47.624 0.236 7.52 10.48 11.18
11/14/2022 6:30:00 AM 8.66 47.588 0.237 7.52 10.75 11.18
11/14/2022 6:45:00 AM 8.64 47.552 0.237 7.52 10.53 11.2
11/14/2022 7:00:00 AM 8.63 47.534 0.236 7.52 9.77 11.21
11/14/2022 7:15:00 AM 8.63 47.534 0.237 7.52 11.04 11.23
11/14/2022 7:30:00 AM 8.62 47.516 0.237 7.53 11.13 11.26
11/14/2022 7:45:00 AM 8.62 47.516 0.237 7.53 10.19 11.29
11/14/2022 8:00:00 AM 8.63 47.534 0.237 7.54 9.9 11.34
11/14/2022 8:15:00 AM 8.64 47.552 0.238 7.55 11.29 11.38
11/14/2022 8:30:00 AM 8.67 47.606 0.238 7.56 11.05 11.43
11/14/2022 8:45:00 AM 8.69 47.642 0.238 7.57 8.82 11.47
11/14/2022 9:00:00 AM 8.71 47.678 0.238 7.58 12.97 11.51
11/14/2022 9:15:00 AM 8.7 47.66 0.238 7.59 11.35 11.51
11/14/2022 9:30:00 AM 8.7 47.66 0.238 7.6 9.59 11.53
11/14/2022 9:45:00 AM 8.72 47.696 0.238 7.6 10.07 11.55
11/14/2022 10:00:00 AM 8.78 47.804 0.238 7.62 10.96 11.6
11/14/2022 10:15:00 AM 8.83 47.894 0.238 7.64 11.66 11.63
11/14/2022 10:30:00 AM 8.88 47.984 0.238 7.65 11.17 11.66
11/14/2022 10:45:00 AM 8.9 48.02 0.238 7.66 10.68 11.66
11/14/2022 11:00:00 AM 8.93 48.074 0.239 7.67 11.13 11.67
11/14/2022 11:15:00 AM 8.97 48.146 0.239 7.68 10.6 11.69
11/14/2022 11:30:00 AM 9.02 48.236 0.239 7.69 10.26 11.69
11/14/2022 11:45:00 AM 9.12 48.416 0.239 7.7 11.23 11.7
11/14/2022 12:00:00 PM 9.17 48.506 0.239 7.71 11.41 11.71
11/14/2022 12:15:00 PM 9.24 48.632 0.239 7.72 9.68 11.69
11/14/2022 12:30:00 PM 9.3 48.74 0.239 7.72 11.14 11.68
11/14/2022 12:45:00 PM 9.29 48.722 0.239 7.73 9.97 11.64
11/14/2022 1:00:00 PM 9.31 48.758 0.239 7.73 11.06 11.64
11/14/2022 1:15:00 PM 9.4 48.92 0.239 7.74 10.8 11.65
11/14/2022 1:30:00 PM 9.51 49.118 0.239 7.75 10.63 11.65
11/14/2022 1:45:00 PM 9.58 49.244 0.239 7.75 13.35 11.62
11/14/2022 2:00:00 PM 9.59 49.262 0.239 7.75 11.83 11.58
11/14/2022 2:15:00 PM 9.55 49.19 0.24 7.75 11.28 11.56
11/14/2022 2:30:00 PM 9.48 49.064 0.24 7.74 9.11 11.54
11/14/2022 2:45:00 PM 9.45 49.01 0.24 7.74 12.63 11.52
11/14/2022 3:00:00 PM 9.43 48.974 0.24 7.73 11.55 11.51
11/14/2022 3:15:00 PM 9.41 48.938 0.241 7.73 10.66 11.5
11/14/2022 3:30:00 PM 9.4 48.92 0.241 7.73 12.07 11.48
11/14/2022 3:45:00 PM 9.39 48.902 0.242 7.72 10.87 11.45
11/14/2022 4:00:00 PM 9.36 48.848 0.242 7.72 9.34 11.42
11/14/2022 4:15:00 PM 9.32 48.776 0.242 7.7 9.85 11.36
11/14/2022 4:30:00 PM 9.28 48.704 0.242 7.69 12.71 11.31
11/14/2022 4:45:00 PM 9.21 48.578 0.242 7.67 10.8 11.26
11/14/2022 5:00:00 PM 9.15 48.47 0.243 7.66 10.55 11.24
11/14/2022 5:15:00 PM 9.08 48.344 0.243 7.64 11.35 11.21
11/14/2022 5:30:00 PM 9.01 48.218 0.243 7.63 10.12 11.19
11/14/2022 5:45:00 PM 8.96 48.128 0.243 7.63 10.56 11.19
11/14/2022 6:00:00 PM 8.9 48.02 0.244 7.61 11.94 11.2
11/14/2022 6:15:00 PM 8.84 47.912 0.244 7.61 12.6 11.19
11/14/2022 6:30:00 PM 8.79 47.822 0.244 7.6 9.87 11.21
11/14/2022 6:45:00 PM 8.73 47.714 0.244 7.59 10.57 11.2
11/14/2022 7:00:00 PM 8.68 47.624 0.244 7.58 11.04 11.22
11/14/2022 7:15:00 PM 8.62 47.516 0.244 7.58 12.43 11.23
11/14/2022 7:30:00 PM 8.57 47.426 0.244 7.58 9.17 11.24
11/14/2022 7:45:00 PM 8.51 47.318 0.245 7.57 11.08 11.24
11/14/2022 8:00:00 PM 8.46 47.228 0.245 7.57 13.34 11.27
11/14/2022 8:15:00 PM 8.42 47.156 0.245 7.56 9.95 11.27
11/14/2022 8:30:00 PM 8.38 47.084 0.245 7.56 10.03 11.29
11/14/2022 8:45:00 PM 8.33 46.994 0.244 7.56 11.95 11.31
11/14/2022 9:00:00 PM 8.29 46.922 0.244 7.56 12.81 11.32
11/14/2022 9:15:00 PM 8.24 46.832 0.244 7.55 11.47 11.32
11/14/2022 9:30:00 PM 8.2 46.76 0.244 7.55 12.96 11.34
11/14/2022 9:45:00 PM 8.16 46.688 0.244 7.55 13.05 11.35
11/14/2022 10:00:00 PM 8.12 46.616 0.244 7.55 11.27 11.35
11/14/2022 10:15:00 PM 8.08 46.544 0.244 7.54 12.4 11.37
11/14/2022 10:30:00 PM 8.04 46.472 0.244 7.54 11.21 11.39
11/14/2022 10:45:00 PM 8 46.4 0.244 7.54 11.57 11.39
11/14/2022 11:00:00 PM 7.96 46.328 0.244 7.54 13.08 11.4
11/14/2022 11:15:00 PM 7.93 46.274 0.244 7.54 12.7 11.4
11/14/2022 11:30:00 PM 7.88 46.184 0.244 7.54 11.13 11.42
11/14/2022 11:45:00 PM 7.85 46.13 0.244 7.54 11.09 11.43
11/15/2022 12:00:00 AM 7.81 46.058 0.244 7.53 11.64 11.43
11/15/2022 12:15:00 AM 7.78 46.004 0.244 7.53 13.29 11.45
11/15/2022 12:30:00 AM 7.74 45.932 0.244 7.53 15.05 11.46
11/15/2022 12:45:00 AM 7.71 45.878 0.244 7.53 12.65 11.48
11/15/2022 1:00:00 AM 7.67 45.806 0.244 7.53 13.08 11.47
11/15/2022 1:15:00 AM 7.64 45.752 0.244 7.53 15.36 11.49
11/15/2022 1:30:00 AM 7.61 45.698 0.244 7.53 11.71 11.5
11/15/2022 1:45:00 AM 7.57 45.626 0.244 7.52 10.95 11.51
11/15/2022 2:00:00 AM 7.54 45.572 0.244 7.52 11.39 11.52
11/15/2022 2:15:00 AM 7.51 45.518 0.244 7.52 12.53 11.54
11/15/2022 2:30:00 AM 7.49 45.482 0.243 7.52 11.56 11.53
11/15/2022 2:45:00 AM 7.46 45.428 0.244 7.52 12.41 11.54
11/15/2022 3:00:00 AM 7.44 45.392 0.244 7.52 12.16 11.55
11/15/2022 3:15:00 AM 7.41 45.338 0.243 7.52 16.1 11.55
11/15/2022 3:30:00 AM 7.39 45.302 0.243 7.52 14.03 11.58
11/15/2022 3:45:00 AM 7.36 45.248 0.243 7.52 13.19 11.58
11/15/2022 4:00:00 AM 7.33 45.194 0.244 7.52 11.61 11.59
11/15/2022 4:15:00 AM 7.3 45.14 0.244 7.52 14.37 11.6
11/15/2022 4:30:00 AM 7.28 45.104 0.244 7.52 10.47 11.61
11/15/2022 4:45:00 AM 7.25 45.05 0.244 7.52 10.32 11.61
11/15/2022 5:00:00 AM 7.23 45.014 0.244 7.52 15.21 11.62
11/15/2022 5:15:00 AM 7.2 44.96 0.244 7.52 10.18 11.65
11/15/2022 5:30:00 AM 7.17 44.906 0.244 7.52 10.84 11.65
11/15/2022 5:45:00 AM 7.13 44.834 0.244 7.52 11.41 11.66
11/15/2022 6:00:00 AM 7.11 44.798 0.244 7.52 13.51 11.66
11/15/2022 6:15:00 AM 7.1 44.78 0.244 7.51 11.16 11.67
11/15/2022 6:30:00 AM 7.09 44.762 0.245 7.52 11.44 11.67
11/15/2022 6:45:00 AM 7.07 44.726 0.245 7.51 11.87 11.68
11/15/2022 7:00:00 AM 7.05 44.69 0.245 7.51 12.8 11.69
11/15/2022 7:15:00 AM 7.03 44.654 0.245 7.52 13.44 11.72
11/15/2022 7:30:00 AM 7.01 44.618 0.245 7.52 12.76 11.75
11/15/2022 7:45:00 AM 7 44.6 0.245 7.53 13.7 11.78
11/15/2022 8:00:00 AM 7 44.6 0.245 7.53 12.31 11.85
11/15/2022 8:15:00 AM 7.02 44.636 0.246 7.54 11.6 11.9
11/15/2022 8:30:00 AM 7.04 44.672 0.246 7.55 13.81 11.96
11/15/2022 8:45:00 AM 7.09 44.762 0.246 7.57 10.93 12
11/15/2022 9:00:00 AM 7.15 44.87 0.246 7.58 14.78 12.06
11/15/2022 9:15:00 AM 7.21 44.978 0.246 7.59 12.74 12.1
11/15/2022 9:30:00 AM 7.27 45.086 0.246 7.6 10.68 12.12
11/15/2022 9:45:00 AM 7.32 45.176 0.246 7.62 12.53 12.15
11/15/2022 10:00:00 AM 7.39 45.302 0.246 7.63 12.18 12.16
11/15/2022 10:15:00 AM 7.44 45.392 0.246 7.64 11.15 12.17
11/15/2022 10:30:00 AM 7.52 45.536 0.246 7.65 10.96 12.17
11/15/2022 10:45:00 AM 7.6 45.68 0.246 7.66 10.56 12.18
11/15/2022 11:00:00 AM 7.71 45.878 0.247 7.68 11.93 12.18
11/15/2022 11:15:00 AM 7.79 46.022 0.247 7.69 13.72 12.19
11/15/2022 11:30:00 AM 7.87 46.166 0.247 7.7 14.21 12.17
11/15/2022 11:45:00 AM 7.93 46.274 0.247 7.71 12.8 12.15
11/15/2022 12:00:00 PM 7.98 46.364 0.247 7.72 13.27 12.12
11/15/2022 12:15:00 PM 8.02 46.436 0.247 7.72 15.42 12.08
11/15/2022 12:30:00 PM 8.05 46.49 0.247 7.72 11.76 12.03
11/15/2022 12:45:00 PM 8.07 46.526 0.247 7.72 12.84 11.97
11/15/2022 1:00:00 PM 8.1 46.58 0.247 7.71 16.62 11.91
11/15/2022 1:15:00 PM 8.13 46.634 0.248 7.71 13.46 11.86
11/15/2022 1:30:00 PM 8.16 46.688 0.248 7.7 11.92 11.82
11/15/2022 1:45:00 PM 8.19 46.742 0.248 7.7 14.54 11.78
11/15/2022 2:00:00 PM 8.21 46.778 0.248 7.7 10.5 11.75
11/15/2022 2:15:00 PM 8.22 46.796 0.248 7.69 11.67 11.7
11/15/2022 2:30:00 PM 8.23 46.814 0.248 7.68 12.27 11.68
11/15/2022 2:45:00 PM 8.24 46.832 0.248 7.68 12.62 11.68
11/15/2022 3:00:00 PM 8.24 46.832 0.248 7.68 13.01 11.66
11/15/2022 3:15:00 PM 8.23 46.814 0.248 7.67 10.04 11.64
11/15/2022 3:30:00 PM 8.22 46.796 0.248 7.67 11.71 11.6
11/15/2022 3:45:00 PM 8.2 46.76 0.248 7.66 15.58 11.57
11/15/2022 4:00:00 PM 8.18 46.724 0.248 7.65 11.3 11.53
11/15/2022 4:15:00 PM 8.15 46.67 0.248 7.64 11.54 11.5
11/15/2022 4:30:00 PM 8.1 46.58 0.248 7.63 10.96 11.48
11/15/2022 4:45:00 PM 8.02 46.436 0.248 7.62 11.05 11.45
11/15/2022 5:00:00 PM 7.91 46.238 0.248 7.61 11.49 11.44
11/15/2022 5:15:00 PM 7.67 45.806 0.247 7.61 11.4 11.41
11/15/2022 5:30:00 PM 7.61 45.698 0.247 7.6 12.13 11.43
11/15/2022 5:45:00 PM 7.48 45.464 0.247 7.59 11.51 11.44
11/15/2022 6:00:00 PM 7.31 45.158 0.247 7.59 13.95 11.48
11/15/2022 6:15:00 PM 7.21 44.978 0.247 7.58 11.83 11.49
11/15/2022 6:30:00 PM 7.14 44.852 0.246 7.57 12.35 11.51
11/15/2022 6:45:00 PM 7.05 44.69 0.246 7.57 14.24 11.56
11/15/2022 7:00:00 PM 7.01 44.618 0.246 7.56 14.11 11.57
11/15/2022 7:15:00 PM 6.88 44.384 0.246 7.56 10.86 11.6
11/15/2022 7:30:00 PM 6.74 44.132 0.246 7.56 11.59 11.61
11/15/2022 7:45:00 PM 6.56 43.808 0.245 7.55 16.01 11.63
11/15/2022 8:00:00 PM 6.53 43.754 0.245 7.55 14.61 11.65
11/15/2022 8:15:00 PM 6.51 43.718 0.245 7.54 12.6 11.69
11/15/2022 8:30:00 PM 6.56 43.808 0.245 7.54 11.45 11.71
11/15/2022 8:45:00 PM 6.58 43.844 0.245 7.54 13.73 11.73
11/15/2022 9:00:00 PM 6.59 43.862 0.244 7.53 11.96 11.75
11/15/2022 9:15:00 PM 6.61 43.898 0.244 7.53 12.65 11.76
11/15/2022 9:30:00 PM 6.64 43.952 0.245 7.53 12.69 11.75
11/15/2022 9:45:00 PM 6.69 44.042 0.246 7.53 14.6 11.74
11/15/2022 10:00:00 PM 6.73 44.114 0.247 7.53 12.55 11.74
11/15/2022 10:15:00 PM 6.76 44.168 0.248 7.53 13.23 11.72
11/15/2022 10:30:00 PM 6.79 44.222 0.253 7.52 13.09 11.7
11/15/2022 10:45:00 PM 6.82 44.276 0.259 7.52 14.61 11.69
11/15/2022 11:00:00 PM 6.86 44.348 0.261 7.52 13.23 11.68
11/15/2022 11:15:00 PM 6.91 44.438 0.26 7.52 12.84 11.67
11/15/2022 11:30:00 PM 6.95 44.51 0.26 7.52 16.42 11.65
11/15/2022 11:45:00 PM 6.99 44.582 0.264 7.52 15.91 11.63
11/16/2022 12:00:00 AM 7.02 44.636 0.266 7.52 14.53 11.61
11/16/2022 12:15:00 AM 7.05 44.69 0.266 7.52 14.74 11.59
11/16/2022 12:30:00 AM 7.08 44.744 0.267 7.52 14.42 11.59
11/16/2022 12:45:00 AM 7.11 44.798 0.269 7.52 15.46 11.58
11/16/2022 1:00:00 AM 7.14 44.852 0.272 7.52 15.78 11.58
11/16/2022 1:15:00 AM 7.15 44.87 0.276 7.52 14.83 11.56
11/16/2022 1:30:00 AM 7.16 44.888 0.28 7.52 14.48 11.57
11/16/2022 1:45:00 AM 7.16 44.888 0.285 7.52 14.28 11.56
11/16/2022 2:00:00 AM 7.16 44.888 0.289 7.52 13.5 11.55
11/16/2022 2:15:00 AM 7.16 44.888 0.293 7.52 15.27 11.54
11/16/2022 2:30:00 AM 7.16 44.888 0.296 7.51 14.53 11.54
11/16/2022 2:45:00 AM 7.16 44.888 0.298 7.52 14.27 11.54
11/16/2022 3:00:00 AM 7.15 44.87 0.298 7.52 17.51 11.54
11/16/2022 3:15:00 AM 7.14 44.852 0.296 7.52 15.83 11.55
11/16/2022 3:30:00 AM 7.13 44.834 0.293 7.52 19.92 11.55
11/16/2022 3:45:00 AM 7.11 44.798 0.288 7.51 14.41 11.55
11/16/2022 4:00:00 AM 7.1 44.78 0.285 7.52 11.25 11.57
11/16/2022 4:15:00 AM 7.1 44.78 0.284 7.52 13.43 11.57
11/16/2022 4:30:00 AM 7.1 44.78 0.286 7.52 13.56 11.56
11/16/2022 4:45:00 AM 7.09 44.762 0.287 7.52 16.34 11.58
11/16/2022 5:00:00 AM 7.08 44.744 0.286 7.52 15.41 11.58
11/16/2022 5:15:00 AM 7.07 44.726 0.285 7.52 16.4 11.58
11/16/2022 5:30:00 AM 7.07 44.726 0.283 7.52 13.45 11.59
11/16/2022 5:45:00 AM 7.07 44.726 0.282 7.51 15.04 11.58
11/16/2022 6:00:00 AM 7.07 44.726 0.281 7.51 15.37 11.59
11/16/2022 6:15:00 AM 7.08 44.744 0.28 7.51 17.05 11.58
11/16/2022 6:30:00 AM 7.09 44.762 0.28 7.51 14.54 11.58
11/16/2022 6:45:00 AM 7.1 44.78 0.282 7.51 16.01 11.58
11/16/2022 7:00:00 AM 7.11 44.798 0.285 7.51 12.97 11.58
11/16/2022 7:15:00 AM 7.12 44.816 0.291 7.51 15.61 11.59
11/16/2022 7:30:00 AM 7.13 44.834 0.3 7.51 13.78 11.6
11/16/2022 7:45:00 AM 7.15 44.87 0.308 7.51 12.44 11.62
11/16/2022 8:00:00 AM 7.18 44.924 0.316 7.52 18.48 11.65
11/16/2022 8:15:00 AM 7.21 44.978 0.321 7.52 17.4 11.68
11/16/2022 8:30:00 AM 7.23 45.014 0.325 7.53 14.05 11.7
11/16/2022 8:45:00 AM 7.27 45.086 0.328 7.53 13.98 11.73
11/16/2022 9:00:00 AM 7.32 45.176 0.33 7.54 12.56 11.78
11/16/2022 9:15:00 AM 7.36 45.248 0.33 7.56 15.44 11.79
11/16/2022 9:30:00 AM 7.41 45.338 0.329 7.57 14.92 11.82
11/16/2022 9:45:00 AM 7.45 45.41 0.327 7.58 15.03 11.83
11/16/2022 10:00:00 AM 7.49 45.482 0.324 7.58 14.93 11.83
11/16/2022 10:15:00 AM 7.55 45.59 0.32 7.59 13.81 11.84
11/16/2022 10:30:00 AM 7.6 45.68 0.315 7.6 14.24 11.85
11/16/2022 10:45:00 AM 7.66 45.788 0.311 7.61 14.19 11.85
11/16/2022 11:00:00 AM 7.72 45.896 0.307 7.61 15.34 11.87
11/16/2022 11:15:00 AM 7.79 46.022 0.303 7.62 13.92 11.87
11/16/2022 11:30:00 AM 7.87 46.166 0.299 7.63 14.91 11.89
11/16/2022 11:45:00 AM 7.91 46.238 0.296 7.64 15.34 11.85
11/16/2022 12:00:00 PM 7.95 46.31 0.292 7.64 14.46 11.82
11/16/2022 12:15:00 PM 8 46.4 0.289 7.64 15.12 11.81
11/16/2022 12:30:00 PM 8.04 46.472 0.287 7.64 13.87 11.8
11/16/2022 12:45:00 PM 8.11 46.598 0.284 7.65 12.65 11.81
11/16/2022 1:00:00 PM 8.18 46.724 0.282 7.66 13 11.81
11/16/2022 1:15:00 PM 8.2 46.76 0.279 7.66 11.94 11.78
11/16/2022 1:30:00 PM 8.21 46.778 0.277 7.65 10.9 11.72
11/16/2022 1:45:00 PM 8.2 46.76 0.275 7.65 12.34 11.69
11/16/2022 2:00:00 PM 8.19 46.742 0.273 7.63 12.23 11.63
11/16/2022 2:15:00 PM 8.19 46.742 0.271 7.63 11.19 11.61
11/16/2022 2:30:00 PM 8.18 46.724 0.27 7.62 11.36 11.56
11/16/2022 2:45:00 PM 8.16 46.688 0.268 7.61 12.6 11.53
11/16/2022 3:00:00 PM 8.15 46.67 0.267 7.61 11.05 11.52
11/16/2022 3:15:00 PM 8.13 46.634 0.265 7.6 13.58 11.51
11/16/2022 3:30:00 PM 8.11 46.598 0.265 7.59 10.97 11.48
11/16/2022 3:45:00 PM 8.1 46.58 0.263 7.58 12 11.46
11/16/2022 4:00:00 PM 8.07 46.526 0.263 7.57 12.42 11.45
11/16/2022 4:15:00 PM 8.05 46.49 0.262 7.56 12.26 11.43
11/16/2022 4:30:00 PM 8.04 46.472 0.261 7.55 11.33 11.41
11/16/2022 4:45:00 PM 8.02 46.436 0.261 7.55 11.93 11.4
11/16/2022 5:00:00 PM 7.99 46.382 0.261 7.54 12.44 11.4
11/16/2022 5:15:00 PM 7.98 46.364 0.26 7.54 13.37 11.39
11/16/2022 5:30:00 PM 7.96 46.328 0.26 7.53 12.92 11.38
11/16/2022 5:45:00 PM 7.92 46.256 0.259 7.53 11.69 11.39
11/16/2022 6:00:00 PM 7.89 46.202 0.259 7.53 12.83 11.39
11/16/2022 6:15:00 PM 7.85 46.13 0.258 7.53 13.07 11.39
11/16/2022 6:30:00 PM 7.82 46.076 0.257 7.52 11.74 11.39
11/16/2022 6:45:00 PM 7.78 46.004 0.257 7.52 12.66 11.4
11/16/2022 7:00:00 PM 7.75 45.95 0.257 7.51 12.03 11.41
11/16/2022 7:15:00 PM 7.72 45.896 0.256 7.51 12.51 11.41
11/16/2022 7:30:00 PM 7.69 45.842 0.255 7.51 12.82 11.43
11/16/2022 7:45:00 PM 7.65 45.77 0.255 7.5 12.54 11.44
11/16/2022 8:00:00 PM 7.63 45.734 0.255 7.5 13.06 11.45
11/16/2022 8:15:00 PM 7.62 45.716 0.254 7.51 13.08 11.45
11/16/2022 8:30:00 PM 7.61 45.698 0.254 7.5 13.25 11.45
11/16/2022 8:45:00 PM 7.59 45.662 0.253 7.5 12.15 11.46
11/16/2022 9:00:00 PM 7.57 45.626 0.252 7.5 12.91 11.47
11/16/2022 9:15:00 PM 7.54 45.572 0.252 7.49 12.57 11.47
11/16/2022 9:30:00 PM 7.51 45.518 0.251 7.49 12.53 11.47
11/16/2022 9:45:00 PM 7.48 45.464 0.251 7.49 12.05 11.49
11/16/2022 10:00:00 PM 7.47 45.446 0.25 7.49 12.76 11.5
11/16/2022 10:15:00 PM 7.46 45.428 0.25 7.49 12.22 11.49
11/16/2022 10:30:00 PM 7.45 45.41 0.249 7.49 12.47 11.5
11/16/2022 10:45:00 PM 7.43 45.374 0.249 7.49 12.38 11.5
11/16/2022 11:00:00 PM 7.41 45.338 0.248 7.49 12.8 11.51
11/16/2022 11:15:00 PM 7.39 45.302 0.248 7.49 13.97 11.51
11/16/2022 11:30:00 PM 7.39 45.302 0.247 7.48 12.1 11.52
11/16/2022 11:45:00 PM 7.39 45.302 0.247 7.48 12.73 11.51
11/17/2022 12:00:00 AM 7.39 45.302 0.247 7.49 11.95 11.52
11/17/2022 12:15:00 AM 7.38 45.284 0.246 7.48 12.23 11.51
11/17/2022 12:30:00 AM 7.38 45.284 0.246 7.48 11.9 11.51
11/17/2022 12:45:00 AM 7.37 45.266 0.246 7.49 11.73 11.52
11/17/2022 1:00:00 AM 7.37 45.266 0.245 7.48 11.22 11.52
11/17/2022 1:15:00 AM 7.37 45.266 0.245 7.49 11.06 11.51
11/17/2022 1:30:00 AM 7.38 45.284 0.245 7.49 11.69 11.51
11/17/2022 1:45:00 AM 7.38 45.284 0.245 7.49 12.05 11.51
11/17/2022 2:00:00 AM 7.38 45.284 0.245 7.49 11.29 11.52
11/17/2022 2:15:00 AM 7.38 45.284 0.245 7.49 11.49 11.51
11/17/2022 2:30:00 AM 7.37 45.266 0.245 7.49 11.47 11.51
11/17/2022 2:45:00 AM 7.37 45.266 0.245 7.49 11.27 11.51
11/17/2022 3:00:00 AM 7.37 45.266 0.245 7.49 11.46 11.52
11/17/2022 3:15:00 AM 7.37 45.266 0.245 7.5 11.75 11.51
11/17/2022 3:30:00 AM 7.37 45.266 0.245 7.5 11.3 11.51
11/17/2022 3:45:00 AM 7.37 45.266 0.245 7.5 11.86 11.51
11/17/2022 4:00:00 AM 7.37 45.266 0.245 7.5 11.81 11.5
11/17/2022 4:15:00 AM 7.37 45.266 0.245 7.5 11.37 11.51
11/17/2022 4:30:00 AM 7.36 45.248 0.245 7.5 11.3 11.51
11/17/2022 4:45:00 AM 7.36 45.248 0.245 7.5 11.44 11.51
11/17/2022 5:00:00 AM 7.35 45.23 0.245 7.5 12.37 11.51
11/17/2022 5:15:00 AM 7.34 45.212 0.245 7.5 12.57 11.51
11/17/2022 5:30:00 AM 7.33 45.194 0.244 7.5 11.85 11.51
11/17/2022 5:45:00 AM 7.32 45.176 0.244 7.5 11.94 11.52
11/17/2022 6:00:00 AM 7.31 45.158 0.244 7.5 12.36 11.52
11/17/2022 6:15:00 AM 7.3 45.14 0.244 7.5 11.62 11.52
11/17/2022 6:30:00 AM 7.29 45.122 0.244 7.51 11.47 11.53
11/17/2022 6:45:00 AM 7.28 45.104 0.244 7.5 11.3 11.53
11/17/2022 7:00:00 AM 7.27 45.086 0.244 7.51 11.57 11.54
11/17/2022 7:15:00 AM 7.25 45.05 0.244 7.51 11.48 11.55
11/17/2022 7:30:00 AM 7.24 45.032 0.244 7.51 11.63 11.56
11/17/2022 7:45:00 AM 7.24 45.032 0.244 7.51 11.9 11.59
11/17/2022 8:00:00 AM 7.25 45.05 0.244 7.51 12.31 11.63
11/17/2022 8:15:00 AM 7.26 45.068 0.244 7.52 12.64 11.65
11/17/2022 8:30:00 AM 7.25 45.05 0.244 7.53 11.88 11.7
11/17/2022 8:45:00 AM 7.27 45.086 0.244 7.54 12.27 11.75
11/17/2022 9:00:00 AM 7.26 45.068 0.244 7.54 12.26 11.77
11/17/2022 9:15:00 AM 7.29 45.122 0.244 7.55 12.05 11.82
11/17/2022 9:30:00 AM 7.31 45.158 0.244 7.56 12.3 11.85
11/17/2022 9:45:00 AM 7.33 45.194 0.244 7.57 12.32 11.87
11/17/2022 10:00:00 AM 7.35 45.23 0.244 7.58 11.91 11.89
11/17/2022 10:15:00 AM 7.37 45.266 0.244 7.58 12.22 11.91
11/17/2022 10:30:00 AM 7.38 45.284 0.244 7.59 12.03 11.93
11/17/2022 10:45:00 AM 7.4 45.32 0.244 7.6 11.93 11.94
11/17/2022 11:00:00 AM 7.42 45.356 0.244 7.61 12.51 11.95
11/17/2022 11:15:00 AM 7.44 45.392 0.244 7.62 12.48 11.96
11/17/2022 11:30:00 AM 7.44 45.392 0.244 7.62 12.47 11.96
11/17/2022 11:45:00 AM 7.46 45.428 0.244 7.63 13.6 11.95
11/17/2022 12:00:00 PM 7.5 45.5 0.244 7.63 12.43 11.97
11/17/2022 12:15:00 PM 7.53 45.554 0.244 7.64 11.9 11.99
11/17/2022 12:30:00 PM 7.57 45.626 0.244 7.65 12.2 12
11/17/2022 12:45:00 PM 7.59 45.662 0.244 7.66 12.2 11.99
11/17/2022 1:00:00 PM 7.6 45.68 0.244 7.66 12.32 11.99
11/17/2022 1:15:00 PM 7.63 45.734 0.244 7.67 13.19 11.98
11/17/2022 1:30:00 PM 7.63 45.734 0.244 7.67 12.06 11.97
11/17/2022 1:45:00 PM 7.64 45.752 0.244 7.68 12.36 11.99
11/17/2022 2:00:00 PM 7.65 45.77 0.244 7.67 12.15 11.99
11/17/2022 2:15:00 PM 7.63 45.734 0.244 7.67 12.23 11.94
11/17/2022 2:30:00 PM 7.59 45.662 0.244 7.66 12.23 11.86
11/17/2022 2:45:00 PM 7.55 45.59 0.245 7.65 12.2 11.84
11/17/2022 3:00:00 PM 7.53 45.554 0.245 7.65 12.38 11.82
11/17/2022 3:15:00 PM 7.5 45.5 0.245 7.64 12.47 11.82
11/17/2022 3:30:00 PM 7.47 45.446 0.245 7.63 12.99 11.79
11/17/2022 3:45:00 PM 7.43 45.374 0.245 7.63 12.57 11.78
11/17/2022 4:00:00 PM 7.38 45.284 0.245 7.62 12.77 11.77
11/17/2022 4:15:00 PM 7.33 45.194 0.245 7.61 12.88 11.74
11/17/2022 4:30:00 PM 7.29 45.122 0.245 7.6 12.73 11.72
11/17/2022 4:45:00 PM 7.24 45.032 0.245 7.59 12.19 11.69
11/17/2022 5:00:00 PM 7.19 44.942 0.245 7.58 12.85 11.67
11/17/2022 5:15:00 PM 7.14 44.852 0.245 7.57 12.57 11.66
11/17/2022 5:30:00 PM 7.1 44.78 0.245 7.56 12.48 11.65
11/17/2022 5:45:00 PM 7.05 44.69 0.246 7.55 13.21 11.66
11/17/2022 6:00:00 PM 6.99 44.582 0.247 7.55 13.51 11.67
11/17/2022 6:15:00 PM 6.94 44.492 0.247 7.54 13.21 11.68
11/17/2022 6:30:00 PM 6.9 44.42 0.249 7.54 13.25 11.7
11/17/2022 6:45:00 PM 6.84 44.312 0.249 7.52 12.92 11.71
11/17/2022 7:00:00 PM 6.79 44.222 0.25 7.52 13.38 11.72
11/17/2022 7:15:00 PM 6.74 44.132 0.25 7.52 13.35 11.73
11/17/2022 7:30:00 PM 6.7 44.06 0.251 7.51 13.04 11.74
11/17/2022 7:45:00 PM 6.68 44.024 0.25 7.51 12.71 11.75
11/17/2022 8:00:00 PM 6.65 43.97 0.251 7.5 13.2 11.76
11/17/2022 8:15:00 PM 6.61 43.898 0.25 7.5 14.55 11.76
11/17/2022 8:30:00 PM 6.57 43.826 0.249 7.5 16.02 11.77
11/17/2022 8:45:00 PM 6.54 43.772 0.249 7.5 13.86 11.78
11/17/2022 9:00:00 PM 6.5 43.7 0.249 7.5 13.51 11.78
11/17/2022 9:15:00 PM 6.46 43.628 0.248 7.49 13.66 11.8
11/17/2022 9:30:00 PM 6.44 43.592 0.249 7.49 13.69 11.8
11/17/2022 9:45:00 PM 6.4 43.52 0.249 7.49 14.46 11.81
11/17/2022 10:00:00 PM 6.38 43.484 0.248 7.49 13.51 11.82
11/17/2022 10:15:00 PM 6.36 43.448 0.248 7.49 13.33 11.83
11/17/2022 10:30:00 PM 6.34 43.412 0.248 7.49 16.25 11.84
11/17/2022 10:45:00 PM 6.32 43.376 0.248 7.49 13.85 11.84
11/17/2022 11:00:00 PM 6.32 43.376 0.248 7.49 13.79 11.84
11/17/2022 11:15:00 PM 6.31 43.358 0.247 7.49 13.62 11.85
11/17/2022 11:30:00 PM 6.3 43.34 0.247 7.48 13.5 11.85
11/17/2022 11:45:00 PM 6.29 43.322 0.247 7.48 13.88 11.84
11/18/2022 12:00:00 AM 6.28 43.304 0.247 7.48 13.86 11.85
11/18/2022 12:15:00 AM 6.28 43.304 0.247 7.49 13.69 11.85
11/18/2022 12:30:00 AM 6.27 43.286 0.247 7.48 13.95 11.87
11/18/2022 12:45:00 AM 6.26 43.268 0.247 7.49 14.01 11.87
11/18/2022 1:00:00 AM 6.24 43.232 0.247 7.48 14.55 11.85
11/18/2022 1:15:00 AM 6.22 43.196 0.247 7.49 14.43 11.87
11/18/2022 1:30:00 AM 6.2 43.16 0.247 7.48 14.47 11.86
11/18/2022 1:45:00 AM 6.18 43.124 0.247 7.49 14.09 11.87
11/18/2022 2:00:00 AM 6.18 43.124 0.247 7.49 13.93 11.87
11/18/2022 2:15:00 AM 6.17 43.106 0.247 7.49 14.25 11.87
11/18/2022 2:30:00 AM 6.17 43.106 0.247 7.49 14.03 11.88
11/18/2022 2:45:00 AM 6.17 43.106 0.247 7.49 14.21 11.88
11/18/2022 3:00:00 AM 6.16 43.088 0.247 7.49 13.71 11.89
11/18/2022 3:15:00 AM 6.15 43.07 0.247 7.49 13.03 11.89
11/18/2022 3:30:00 AM 6.14 43.052 0.247 7.49 13.47 11.9
11/18/2022 3:45:00 AM 6.14 43.052 0.247 7.49 14.07 11.89
11/18/2022 4:00:00 AM 6.13 43.034 0.247 7.49 14.3 11.89
11/18/2022 4:15:00 AM 6.12 43.016 0.247 7.5 13.79 11.9
11/18/2022 4:30:00 AM 6.12 43.016 0.248 7.49 14.23 11.89
11/18/2022 4:45:00 AM 6.11 42.998 0.248 7.5 13.68 11.91
11/18/2022 5:00:00 AM 6.09 42.962 0.248 7.5 14.33 11.92
11/18/2022 5:15:00 AM 6.06 42.908 0.248 7.5 13.98 11.91
11/18/2022 5:30:00 AM 6.04 42.872 0.249 7.5 14.76 11.92
11/18/2022 5:45:00 AM 6.02 42.836 0.249 7.5 13.77 11.92
11/18/2022 6:00:00 AM 6 42.8 0.25 7.5 14.12 11.92
11/18/2022 6:15:00 AM 5.98 42.764 0.25 7.5 13.58 11.92
11/18/2022 6:30:00 AM 5.96 42.728 0.25 7.5 13.46 11.93
11/18/2022 6:45:00 AM 5.93 42.674 0.25 7.5 13.94 11.94
11/18/2022 7:00:00 AM 5.91 42.638 0.25 7.5 14.44 11.96
11/18/2022 7:15:00 AM 5.89 42.602 0.25 7.5 14.05 11.97
11/18/2022 7:30:00 AM 5.87 42.566 0.25 7.5 13.54 12
11/18/2022 7:45:00 AM 5.85 42.53 0.25 7.51 13.79 12.04
11/18/2022 8:00:00 AM 5.84 42.512 0.25 7.51 13.94 12.07
11/18/2022 8:15:00 AM 5.83 42.494 0.25 7.52 13.74 12.11
11/18/2022 8:30:00 AM 5.82 42.476 0.25 7.52 14.67 12.15
11/18/2022 8:45:00 AM 5.82 42.476 0.25 7.53 14.18 12.19
11/18/2022 9:00:00 AM 5.82 42.476 0.25 7.54 13.97 12.23
11/18/2022 9:15:00 AM 5.83 42.494 0.25 7.55 13.48 12.26
11/18/2022 9:30:00 AM 5.9 42.62 0.25 7.56 13.38 12.34
11/18/2022 9:45:00 AM 5.94 42.692 0.25 7.57 14.17 12.37
11/18/2022 10:00:00 AM 5.94 42.692 0.25 7.58 14.19 12.4
11/18/2022 10:15:00 AM 5.98 42.764 0.25 7.59 13.96 12.42
11/18/2022 10:30:00 AM 6.02 42.836 0.25 7.6 14.06 12.46
11/18/2022 10:45:00 AM 6.08 42.944 0.25 7.62 14.44 12.49
11/18/2022 11:00:00 AM 6.11 42.998 0.25 7.63 14.07 12.48
11/18/2022 11:15:00 AM 6.16 43.088 0.25 7.64 13.79 12.49
11/18/2022 11:30:00 AM 6.24 43.232 0.25 7.65 14.06 12.49
11/18/2022 11:45:00 AM 6.32 43.376 0.25 7.65 14.57 12.49
11/18/2022 12:00:00 PM 6.36 43.448 0.25 7.66 14.1 12.48
11/18/2022 12:15:00 PM 6.45 43.61 0.25 7.67 14.01 12.46
11/18/2022 12:30:00 PM 6.52 43.736 0.25 7.67 14.62 12.43
11/18/2022 12:45:00 PM 6.6 43.88 0.25 7.68 13.87 12.45
11/18/2022 1:00:00 PM 6.63 43.934 0.249 7.69 13.93 12.44
11/18/2022 1:15:00 PM 6.64 43.952 0.249 7.7 14.7 12.43
11/18/2022 1:30:00 PM 6.63 43.934 0.25 7.7 14.36 12.4
11/18/2022 1:45:00 PM 6.62 43.916 0.25 7.7 13.74 12.37
11/18/2022 2:00:00 PM 6.65 43.97 0.25 7.7 13.9 12.36
11/18/2022 2:15:00 PM 6.67 44.006 0.25 7.7 13.91 12.35
11/18/2022 2:30:00 PM 6.69 44.042 0.25 7.71 13.85 12.34
11/18/2022 2:45:00 PM 6.7 44.06 0.25 7.71 13.95 12.33
11/18/2022 3:00:00 PM 6.72 44.096 0.25 7.71 14.19 12.31
11/18/2022 3:15:00 PM 6.69 44.042 0.25 7.71 14.66 12.26
11/18/2022 3:30:00 PM 6.67 44.006 0.25 7.7 14.36 12.23
11/18/2022 3:45:00 PM 6.65 43.97 0.25 7.7 13.94 12.22
11/18/2022 4:00:00 PM 6.61 43.898 0.25 7.68 13.83 12.18
11/18/2022 4:15:00 PM 6.57 43.826 0.25 7.67 13.8 12.13
11/18/2022 4:30:00 PM 6.53 43.754 0.25 7.66 13.87 12.07
11/18/2022 4:45:00 PM 6.48 43.664 0.251 7.64 13.77 12.01
11/18/2022 5:00:00 PM 6.43 43.574 0.251 7.62 13.46 11.95
11/18/2022 5:15:00 PM 6.39 43.502 0.251 7.61 14.55 11.93
11/18/2022 5:30:00 PM 6.33 43.394 0.251 7.6 14.99 11.92
11/18/2022 5:45:00 PM 6.27 43.286 0.251 7.59 14.76 11.9
11/18/2022 6:00:00 PM 6.23 43.214 0.25 7.58 14.59 11.9
11/18/2022 6:15:00 PM 6.2 43.16 0.25 7.58 14.5 11.91
11/18/2022 6:30:00 PM 6.18 43.124 0.25 7.57 14.43 11.92
11/18/2022 6:45:00 PM 6.13 43.034 0.25 7.56 14.06 11.92
11/18/2022 7:00:00 PM 6.1 42.98 0.25 7.56 14.61 11.92
11/18/2022 7:15:00 PM 6.04 42.872 0.25 7.55 14.49 11.93
11/18/2022 7:30:00 PM 6 42.8 0.25 7.54 16.82 11.94
11/18/2022 7:45:00 PM 5.95 42.71 0.25 7.54 14.64 11.95
11/18/2022 8:00:00 PM 5.91 42.638 0.25 7.53 14.73 11.96
11/18/2022 8:15:00 PM 5.85 42.53 0.25 7.53 14.52 11.98
11/18/2022 8:30:00 PM 5.81 42.458 0.25 7.53 14.68 11.99
11/18/2022 8:45:00 PM 5.76 42.368 0.249 7.52 15.04 12.02
11/18/2022 9:00:00 PM 5.72 42.296 0.249 7.52 14.71 12.02
11/18/2022 9:15:00 PM 5.69 42.242 0.249 7.52 15.06 12.04
11/18/2022 9:30:00 PM 5.66 42.188 0.249 7.52 15.01 12.04
11/18/2022 9:45:00 PM 5.63 42.134 0.249 7.51 14.96 12.06
11/18/2022 10:00:00 PM 5.59 42.062 0.249 7.51 14.39 12.07
11/18/2022 10:15:00 PM 5.56 42.008 0.249 7.51 14.56 12.09
11/18/2022 10:30:00 PM 5.52 41.936 0.248 7.51 14.47 12.1
11/18/2022 10:45:00 PM 5.49 41.882 0.248 7.5 14.65 12.11
11/18/2022 11:00:00 PM 5.45 41.81 0.248 7.5 15.35 12.12
11/18/2022 11:15:00 PM 5.42 41.756 0.248 7.5 15.13 12.13
11/18/2022 11:30:00 PM 5.38 41.684 0.248 7.5 15.23 12.13
11/18/2022 11:45:00 PM 5.34 41.612 0.248 7.5 14.69 12.14
11/19/2022 12:00:00 AM 5.3 41.54 0.248 7.49 14.8 12.15
11/19/2022 12:15:00 AM 5.26 41.468 0.248 7.49 14.85 12.18
11/19/2022 12:30:00 AM 5.22 41.396 0.248 7.49 14.77 12.19
11/19/2022 12:45:00 AM 5.18 41.324 0.248 7.49 15.1 12.2
11/19/2022 1:00:00 AM 5.15 41.27 0.248 7.49 14.78 12.22
11/19/2022 1:15:00 AM 5.11 41.198 0.248 7.49 14.81 12.22
11/19/2022 1:30:00 AM 5.08 41.144 0.248 7.49 14.69 12.24
11/19/2022 1:45:00 AM 5.04 41.072 0.248 7.49 14.72 12.24
11/19/2022 2:00:00 AM 5.01 41.018 0.248 7.49 15.02 12.27
11/19/2022 2:15:00 AM 4.98 40.964 0.248 7.49 15.01 12.27
11/19/2022 2:30:00 AM 4.95 40.91 0.248 7.48 15.3 12.29
11/19/2022 2:45:00 AM 4.91 40.838 0.248 7.48 15.31 12.3
11/19/2022 3:00:00 AM 4.87 40.766 0.248 7.48 15.22 12.32
11/19/2022 3:15:00 AM 4.83 40.694 0.248 7.48 15.11 12.33
11/19/2022 3:30:00 AM 4.8 40.64 0.248 7.48 15.32 12.34
11/19/2022 3:45:00 AM 4.76 40.568 0.248 7.48 15.19 12.35
11/19/2022 4:00:00 AM 4.72 40.496 0.248 7.48 15.49 12.36
11/19/2022 4:15:00 AM 4.68 40.424 0.248 7.48 15.11 12.38
11/19/2022 4:30:00 AM 4.64 40.352 0.248 7.48 15.58 12.39
11/19/2022 4:45:00 AM 4.6 40.28 0.248 7.48 15.96 12.39
11/19/2022 5:00:00 AM 4.57 40.226 0.248 7.48 16.15 12.41
11/19/2022 5:15:00 AM 4.54 40.172 0.248 7.48 15.88 12.42
11/19/2022 5:30:00 AM 4.5 40.1 0.249 7.48 15.54 12.43
11/19/2022 5:45:00 AM 4.46 40.028 0.249 7.48 15.79 12.44
11/19/2022 6:00:00 AM 4.42 39.956 0.248 7.47 15.63 12.46
11/19/2022 6:15:00 AM 4.39 39.902 0.249 7.48 15.64 12.47
11/19/2022 6:30:00 AM 4.36 39.848 0.248 7.48 15.62 12.48
11/19/2022 6:45:00 AM 4.32 39.776 0.248 7.48 15.29 12.5
11/19/2022 7:00:00 AM 4.28 39.704 0.248 7.48 15.89 12.51
11/19/2022 7:15:00 AM 4.25 39.65 0.249 7.48 15.65 12.54
11/19/2022 7:30:00 AM 4.22 39.596 0.248 7.48 15.76 12.58
11/19/2022 7:45:00 AM 4.2 39.56 0.248 7.48 15.27 12.59
11/19/2022 8:00:00 AM 4.18 39.524 0.248 7.49 15.23 12.64
11/19/2022 8:15:00 AM 4.17 39.506 0.248 7.49 15.53 12.68
11/19/2022 8:30:00 AM 4.17 39.506 0.248 7.5 16.13 12.73
11/19/2022 8:45:00 AM 4.19 39.542 0.248 7.51 16.09 12.77
11/19/2022 9:00:00 AM 4.22 39.596 0.248 7.52 16.12 12.81
11/19/2022 9:15:00 AM 4.25 39.65 0.248 7.52 15.53 12.84
11/19/2022 9:30:00 AM 4.28 39.704 0.248 7.53 15.5 12.87
11/19/2022 9:45:00 AM 4.32 39.776 0.248 7.54 15.4 12.91
11/19/2022 10:00:00 AM 4.37 39.866 0.248 7.55 15.01 12.92
11/19/2022 10:15:00 AM 4.44 39.992 0.248 7.56 14.86 12.95
11/19/2022 10:30:00 AM 4.52 40.136 0.248 7.58 14.79 12.99
11/19/2022 10:45:00 AM 4.57 40.226 0.249 7.59 15.11 13.01
11/19/2022 11:00:00 AM 4.64 40.352 0.249 7.6 15.45 13.01
11/19/2022 11:15:00 AM 4.68 40.424 0.248 7.61 14.96 13
11/19/2022 11:30:00 AM 4.7 40.46 0.249 7.62 15.16 12.99
11/19/2022 11:45:00 AM 4.72 40.496 0.249 7.63 14.87 12.98
11/19/2022 12:00:00 PM 4.74 40.532 0.249 7.63 14.8 12.96
11/19/2022 12:15:00 PM 4.82 40.676 0.249 7.64 14.75 12.97
11/19/2022 12:30:00 PM 4.89 40.802 0.249 7.65 14.9 12.95
11/19/2022 12:45:00 PM 5 41 0.249 7.65 15.17 12.94
11/19/2022 1:00:00 PM 5.08 41.144 0.249 7.66 15.07 12.93
11/19/2022 1:15:00 PM 5.18 41.324 0.249 7.67 15.64 12.92
11/19/2022 1:30:00 PM 5.18 41.324 0.249 7.68 15.55 12.85
11/19/2022 1:45:00 PM 5.22 41.396 0.249 7.68 15.11 12.85
11/19/2022 2:00:00 PM 5.26 41.468 0.248 7.68 14.98 12.82
11/19/2022 2:15:00 PM 5.32 41.576 0.248 7.69 15.11 12.8
11/19/2022 2:30:00 PM 5.35 41.63 0.249 7.69 15.19 12.75
11/19/2022 2:45:00 PM 5.37 41.666 0.249 7.68 15.76 12.7
11/19/2022 3:00:00 PM 5.39 41.702 0.251 7.68 15.41 12.65
11/19/2022 3:15:00 PM 5.39 41.702 0.249 7.68 15.38 12.61
11/19/2022 3:30:00 PM 5.39 41.702 0.249 7.67 15.03 12.57
11/19/2022 3:45:00 PM 5.37 41.666 0.249 7.67 15.16 12.53
11/19/2022 4:00:00 PM 5.34 41.612 0.249 7.66 15.17 12.49
11/19/2022 4:15:00 PM 5.32 41.576 0.249 7.65 15.12 12.45
11/19/2022 4:30:00 PM 5.29 41.522 0.249 7.64 15.2 12.4
11/19/2022 4:45:00 PM 5.24 41.432 0.249 7.63 15.3 12.37
11/19/2022 5:00:00 PM 5.19 41.342 0.249 7.62 15.23 12.32
11/19/2022 5:15:00 PM 5.15 41.27 0.249 7.61 15.49 12.3
11/19/2022 5:30:00 PM 5.1 41.18 0.249 7.6 15.32 12.28
11/19/2022 5:45:00 PM 5.06 41.108 0.249 7.59 15.28 12.28
11/19/2022 6:00:00 PM 5.02 41.036 0.25 7.58 15.52 12.27
11/19/2022 6:15:00 PM 4.97 40.946 0.249 7.57 15.58 12.27
11/19/2022 6:30:00 PM 4.93 40.874 0.25 7.57 15.58 12.28
11/19/2022 6:45:00 PM 4.88 40.784 0.25 7.56 15.61 12.29
11/19/2022 7:00:00 PM 4.83 40.694 0.25 7.55 15.84 12.31
11/19/2022 7:15:00 PM 4.78 40.604 0.25 7.55 15.54 12.31
11/19/2022 7:30:00 PM 4.73 40.514 0.25 7.55 15.6 12.32
11/19/2022 7:45:00 PM 4.69 40.442 0.25 7.54 16.08 12.35
11/19/2022 8:00:00 PM 4.64 40.352 0.25 7.54 15.77 12.35
11/19/2022 8:15:00 PM 4.59 40.262 0.25 7.53 16.02 12.35
11/19/2022 8:30:00 PM 4.55 40.19 0.25 7.53 15.87 12.37
11/19/2022 8:45:00 PM 4.5 40.1 0.25 7.52 16.18 12.39
11/19/2022 9:00:00 PM 4.46 40.028 0.25 7.52 16.13 12.4
11/19/2022 9:15:00 PM 4.41 39.938 0.25 7.52 16.11 12.41
11/19/2022 9:30:00 PM 4.37 39.866 0.25 7.51 16.13 12.42
11/19/2022 9:45:00 PM 4.33 39.794 0.25 7.51 16.1 12.43
11/19/2022 10:00:00 PM 4.29 39.722 0.25 7.51 16.18 12.44
11/19/2022 10:15:00 PM 4.26 39.668 0.25 7.51 16.16 12.45
11/19/2022 10:30:00 PM 4.23 39.614 0.25 7.51 16.15 12.47
11/19/2022 10:45:00 PM 4.21 39.578 0.25 7.51 16.03 12.47
11/19/2022 11:00:00 PM 4.2 39.56 0.25 7.5 16.96 12.48
11/19/2022 11:15:00 PM 4.19 39.542 0.25 7.5 16.93 12.48
11/19/2022 11:30:00 PM 4.19 39.542 0.25 7.5 16.8 12.49
11/19/2022 11:45:00 PM 4.18 39.524 0.25 7.5 16.6 12.49
11/20/2022 12:00:00 AM 4.17 39.506 0.25 7.5 16.65 12.49
11/20/2022 12:15:00 AM 4.16 39.488 0.25 7.5 17.12 12.5
11/20/2022 12:30:00 AM 4.16 39.488 0.25 7.5 16.3 12.49
11/20/2022 12:45:00 AM 4.16 39.488 0.25 7.5 16.12 12.49
11/20/2022 1:00:00 AM 4.15 39.47 0.25 7.5 16.61 12.5
11/20/2022 1:15:00 AM 4.14 39.452 0.25 7.5 16.39 12.49
11/20/2022 1:30:00 AM 4.14 39.452 0.25 7.49 16.83 12.49
11/20/2022 1:45:00 AM 4.15 39.47 0.25 7.5 17.23 12.5
11/20/2022 2:00:00 AM 4.15 39.47 0.25 7.5 16.79 12.49
11/20/2022 2:15:00 AM 4.15 39.47 0.25 7.5 16.39 12.49
11/20/2022 2:30:00 AM 4.14 39.452 0.25 7.5 16.63 12.5
11/20/2022 2:45:00 AM 4.11 39.398 0.25 7.5 16.61 12.5
11/20/2022 3:00:00 AM 4.1 39.38 0.25 7.5 16.45 12.49
11/20/2022 3:15:00 AM 4.09 39.362 0.25 7.5 16.33 12.49
11/20/2022 3:30:00 AM 4.08 39.344 0.25 7.5 16.48 12.5
11/20/2022 3:45:00 AM 4.06 39.308 0.25 7.5 16.49 12.5
11/20/2022 4:00:00 AM 4.06 39.308 0.25 7.5 16.48 12.51
11/20/2022 4:15:00 AM 4.05 39.29 0.25 7.5 16.61 12.52
11/20/2022 4:30:00 AM 4.04 39.272 0.25 7.5 16.62 12.51
11/20/2022 4:45:00 AM 4.03 39.254 0.25 7.5 16.58 12.52
11/20/2022 5:00:00 AM 4.05 39.29 0.25 7.5 16.61 12.52
11/20/2022 5:15:00 AM 4.04 39.272 0.25 7.5 16.61 12.52
11/20/2022 5:30:00 AM 4.04 39.272 0.25 7.5 16.55 12.53
11/20/2022 5:45:00 AM 4.02 39.236 0.25 7.5 16.7 12.54
11/20/2022 6:00:00 AM 4.01 39.218 0.25 7.5 16.9 12.54
11/20/2022 6:15:00 AM 3.97 39.146 0.25 7.5 16.62 12.54
11/20/2022 6:30:00 AM 3.94 39.092 0.25 7.5 16.67 12.55
11/20/2022 6:45:00 AM 3.92 39.056 0.25 7.5 16.53 12.57
11/20/2022 7:00:00 AM 3.89 39.002 0.25 7.51 16.68 12.59
11/20/2022 7:15:00 AM 3.86 38.948 0.25 7.51 16.81 12.62
11/20/2022 7:30:00 AM 3.84 38.912 0.25 7.51 16.92 12.65
11/20/2022 7:45:00 AM 3.81 38.858 0.25 7.52 16.93 12.69
11/20/2022 8:00:00 AM 3.79 38.822 0.25 7.52 16.73 12.73
11/20/2022 8:15:00 AM 3.76 38.768 0.25 7.52 16.8 12.77
11/20/2022 8:30:00 AM 3.75 38.75 0.25 7.53 17.09 12.82
11/20/2022 8:45:00 AM 3.74 38.732 0.25 7.54 17.04 12.89
11/20/2022 9:00:00 AM 3.73 38.714 0.25 7.55 16.77 12.95
11/20/2022 9:15:00 AM 3.77 38.786 0.25 7.56 16.82 13.03
11/20/2022 9:30:00 AM 3.8 38.84 0.249 7.57 16.72 13.09
11/20/2022 9:45:00 AM 3.83 38.894 0.249 7.58 16.67 13.13
11/20/2022 10:00:00 AM 3.89 39.002 0.249 7.6 16.89 13.19
11/20/2022 10:15:00 AM 3.92 39.056 0.249 7.61 16.76 13.23
11/20/2022 10:30:00 AM 3.96 39.128 0.249 7.62 16.75 13.27
11/20/2022 10:45:00 AM 3.99 39.182 0.249 7.63 16.66 13.29
11/20/2022 11:00:00 AM 3.99 39.182 0.249 7.64 16.91 13.3
11/20/2022 11:15:00 AM 4.01 39.218 0.249 7.65 16.73 13.3
11/20/2022 11:30:00 AM 4.03 39.254 0.249 7.66 16.94 13.32
11/20/2022 11:45:00 AM 4.06 39.308 0.249 7.67 16.66 13.33
11/20/2022 12:00:00 PM 4.06 39.308 0.249 7.68 16.68 13.34
11/20/2022 12:15:00 PM 4.11 39.398 0.249 7.68 17.27 13.34
11/20/2022 12:30:00 PM 4.2 39.56 0.249 7.69 17.28 13.35
11/20/2022 12:45:00 PM 4.23 39.614 0.249 7.7 17.03 13.32
11/20/2022 1:00:00 PM 4.25 39.65 0.249 7.7 16.74 13.26
11/20/2022 1:15:00 PM 4.3 39.74 0.249 7.7 16.86 13.24
11/20/2022 1:30:00 PM 4.31 39.758 0.249 7.7 16.68 13.21
11/20/2022 1:45:00 PM 4.28 39.704 0.249 7.7 16.69 13.17
11/20/2022 2:00:00 PM 4.26 39.668 0.249 7.7 17.24 13.15
11/20/2022 2:15:00 PM 4.3 39.74 0.249 7.7 16.98 13.15
11/20/2022 2:30:00 PM 4.27 39.686 0.249 7.7 16.53 13.14
11/20/2022 2:45:00 PM 4.28 39.704 0.249 7.7 16.9 13.12
11/20/2022 3:00:00 PM 4.27 39.686 0.249 7.7 16.81 13.12
11/20/2022 3:15:00 PM 4.29 39.722 0.249 7.7 17.06 13.13
11/20/2022 3:30:00 PM 4.3 39.74 0.25 7.7 16.6 13.11
11/20/2022 3:45:00 PM 4.27 39.686 0.25 7.7 16.64 13.09
11/20/2022 4:00:00 PM 4.25 39.65 0.25 7.69 16.59 13.03
11/20/2022 4:15:00 PM 4.2 39.56 0.25 7.68 16.73 12.97
11/20/2022 4:30:00 PM 4.15 39.47 0.25 7.67 16.65 12.93
11/20/2022 4:45:00 PM 4.1 39.38 0.25 7.65 16.94 12.85
11/20/2022 5:00:00 PM 4.07 39.326 0.25 7.64 16.98 12.8
11/20/2022 5:15:00 PM 4.02 39.236 0.25 7.63 17.05 12.77
11/20/2022 5:30:00 PM 3.98 39.164 0.25 7.62 17.12 12.74
11/20/2022 5:45:00 PM 3.96 39.128 0.25 7.61 17.25 12.73
11/20/2022 6:00:00 PM 3.94 39.092 0.25 7.6 17.2 12.71
11/20/2022 6:15:00 PM 3.9 39.02 0.25 7.59 17.26 12.71
11/20/2022 6:30:00 PM 3.87 38.966 0.251 7.58 17.54 12.72
11/20/2022 6:45:00 PM 3.84 38.912 0.251 7.58 20.3 12.72
11/20/2022 7:00:00 PM 3.81 38.858 0.251 7.57 17.22 12.72
11/20/2022 7:15:00 PM 3.79 38.822 0.251 7.57 17.34 12.72
11/20/2022 7:30:00 PM 3.77 38.786 0.251 7.56 17.38 12.72
11/20/2022 7:45:00 PM 3.76 38.768 0.251 7.56 78.71 12.74
11/20/2022 8:00:00 PM 3.75 38.75 0.251 7.55 14.86 12.75
11/20/2022 8:15:00 PM 3.73 38.714 0.251 7.55 15.99 12.75
11/20/2022 8:30:00 PM 3.71 38.678 0.251 7.55 15.93 12.76
11/20/2022 8:45:00 PM 3.69 38.642 0.251 7.55 15.92 12.76
11/20/2022 9:00:00 PM 3.68 38.624 0.251 7.54 16.06 12.77
11/20/2022 9:15:00 PM 3.66 38.588 0.251 7.54 16.06 12.78
11/20/2022 9:30:00 PM 3.65 38.57 0.251 7.54 15.95 12.79
11/20/2022 9:45:00 PM 3.63 38.534 0.252 7.54 16.13 12.8
11/20/2022 10:00:00 PM 3.62 38.516 0.251 7.53 16.2 12.8
11/20/2022 10:15:00 PM 3.6 38.48 0.251 7.53 16.1 12.81
11/20/2022 10:30:00 PM 3.59 38.462 0.251 7.53 16.07 12.81
11/20/2022 10:45:00 PM 3.57 38.426 0.252 7.53 16.26 12.81
11/20/2022 11:00:00 PM 3.56 38.408 0.251 7.53 16.13 12.82
11/20/2022 11:15:00 PM 3.56 38.408 0.252 7.53 16.21 12.83
11/20/2022 11:30:00 PM 3.57 38.426 0.252 7.53 16.25 12.83
11/20/2022 11:45:00 PM 3.57 38.426 0.252 7.52 16.3 12.83
11/21/2022 12:00:00 AM 3.57 38.426 0.252 7.52 16.34 12.83
11/21/2022 12:15:00 AM 3.57 38.426 0.252 7.52 16.32 12.84
11/21/2022 12:30:00 AM 3.57 38.426 0.252 7.52 16.33 12.84
11/21/2022 12:45:00 AM 3.57 38.426 0.252 7.52 16.39 12.83
11/21/2022 1:00:00 AM 3.58 38.444 0.252 7.52 16.34 12.84
11/21/2022 1:15:00 AM 3.58 38.444 0.252 7.52 16.29 12.84
11/21/2022 1:30:00 AM 3.59 38.462 0.252 7.52 16.48 12.84
11/21/2022 1:45:00 AM 3.58 38.444 0.252 7.52 16.35 12.83
11/21/2022 2:00:00 AM 3.55 38.39 0.251 7.52 16.58 12.83
11/21/2022 2:15:00 AM 3.53 38.354 0.252 7.52 16.35 12.83
11/21/2022 2:30:00 AM 3.52 38.336 0.251 7.52 16.44 12.84
11/21/2022 2:45:00 AM 3.5 38.3 0.251 7.52 16.4 12.83
11/21/2022 3:00:00 AM 3.47 38.246 0.251 7.52 16.26 12.85
11/21/2022 3:15:00 AM 3.45 38.21 0.251 7.52 16.27 12.86
11/21/2022 3:30:00 AM 3.43 38.174 0.251 7.52 16.34 12.86
11/21/2022 3:45:00 AM 3.4 38.12 0.251 7.51 16.41 12.87
11/21/2022 4:00:00 AM 3.37 38.066 0.251 7.51 16.9 12.88
11/21/2022 4:15:00 AM 3.35 38.03 0.251 7.51 16.79 12.88
11/21/2022 4:30:00 AM 3.32 37.976 0.251 7.51 16.58 12.9
11/21/2022 4:45:00 AM 3.29 37.922 0.251 7.51 16.57 12.91
11/21/2022 5:00:00 AM 3.26 37.868 0.251 7.51 16.29 12.92
11/21/2022 5:15:00 AM 3.23 37.814 0.251 7.51 16.3 12.94
11/21/2022 5:30:00 AM 3.2 37.76 0.251 7.51 16.28 12.95
11/21/2022 5:45:00 AM 3.16 37.688 0.251 7.51 16.27 12.96
11/21/2022 6:00:00 AM 3.13 37.634 0.251 7.51 16.24 12.98
11/21/2022 6:15:00 AM 3.09 37.562 0.251 7.51 16.29 12.99
11/21/2022 6:30:00 AM 3.05 37.49 0.251 7.51 16.3 13
11/21/2022 6:45:00 AM 3.01 37.418 0.251 7.51 16.41 13.02
11/21/2022 7:00:00 AM 2.98 37.364 0.251 7.5 16.36 13.03
11/21/2022 7:15:00 AM 2.95 37.31 0.251 7.5 16.32 13.07
11/21/2022 7:30:00 AM 2.91 37.238 0.251 7.51 16.23 13.1
11/21/2022 7:45:00 AM 2.88 37.184 0.251 7.51 16.52 13.14
11/21/2022 8:00:00 AM 2.86 37.148 0.251 7.52 16.43 13.18
11/21/2022 8:15:00 AM 2.85 37.13 0.251 7.52 16.61 13.25
11/21/2022 8:30:00 AM 2.85 37.13 0.251 7.53 16.42 13.31
11/21/2022 8:45:00 AM 2.87 37.166 0.251 7.54 16.33 13.41
11/21/2022 9:00:00 AM 2.89 37.202 0.251 7.55 16.44 13.45
11/21/2022 9:15:00 AM 2.9 37.22 0.251 7.56 16.52 13.49
11/21/2022 9:30:00 AM 2.92 37.256 0.251 7.57 16.33 13.52
11/21/2022 9:45:00 AM 2.94 37.292 0.251 7.58 16.31 13.54
11/21/2022 10:00:00 AM 2.96 37.328 0.251 7.59 16.42 13.57
11/21/2022 10:15:00 AM 2.99 37.382 0.251 7.59 16.38 13.58
11/21/2022 10:30:00 AM 3.04 37.472 0.251 7.6 16.28 13.6
11/21/2022 10:45:00 AM 3.11 37.598 0.251 7.61 16.19 13.6
11/21/2022 11:00:00 AM 3.17 37.706 0.251 7.62 16.28 13.61
11/21/2022 11:15:00 AM 3.27 37.886 0.251 7.63 16.14 13.62
11/21/2022 11:30:00 AM 3.36 38.048 0.251 7.64 16.36 13.62
11/21/2022 11:45:00 AM 3.47 38.246 0.251 7.65 16.26 13.62
11/21/2022 12:00:00 PM 3.62 38.516 0.252 7.66 16.41 13.64
11/21/2022 12:15:00 PM 3.73 38.714 0.253 7.68 17.23 13.65
11/21/2022 12:30:00 PM 3.84 38.912 0.252 7.69 16.01 13.64
11/21/2022 12:45:00 PM 3.96 39.128 0.251 7.7 16.06 13.63
11/21/2022 1:00:00 PM 4 39.2 0.251 7.71 15.99 13.6
11/21/2022 1:15:00 PM 4.05 39.29 0.254 7.72 15.88 13.58
11/21/2022 1:30:00 PM 4.14 39.452 0.252 7.73 15.88 13.56
11/21/2022 1:45:00 PM 4.21 39.578 0.251 7.74 15.91 13.53
11/21/2022 2:00:00 PM 4.29 39.722 0.251 7.75 15.85 13.51
11/21/2022 2:15:00 PM 4.36 39.848 0.251 7.75 16.29 13.47
11/21/2022 2:30:00 PM 4.43 39.974 0.256 7.76 16.2 13.45
11/21/2022 2:45:00 PM 4.48 40.064 0.252 7.76 16.17 13.39
11/21/2022 3:00:00 PM 4.54 40.172 0.251 7.77 15.94 13.34
11/21/2022 3:15:00 PM 4.58 40.244 0.251 7.77 15.97 13.27
11/21/2022 3:30:00 PM 4.61 40.298 0.25 7.76 15.83 13.21
11/21/2022 3:45:00 PM 4.64 40.352 0.251 7.75 15.89 13.14
11/21/2022 4:00:00 PM 4.66 40.388 0.251 7.75 15.84 13.07
11/21/2022 4:15:00 PM 4.64 40.352 0.251 7.73 17.68 12.99
11/21/2022 4:30:00 PM 4.63 40.334 0.251 7.72 15.64 12.9
11/21/2022 4:45:00 PM 4.6 40.28 0.251 7.7 15.62 12.82
11/21/2022 5:00:00 PM 4.58 40.244 0.251 7.68 15.67 12.73
11/21/2022 5:15:00 PM 4.57 40.226 0.252 7.67 10.37 12.67
11/21/2022 5:30:00 PM 4.54 40.172 0.252 7.65 8.81 12.62
11/21/2022 5:45:00 PM 4.52 40.136 0.251 7.64 9.26 12.59
11/21/2022 6:00:00 PM 4.51 40.118 0.252 7.63 9.19 12.55
11/21/2022 6:15:00 PM 4.49 40.082 0.252 7.62 9.35 12.54
11/21/2022 6:30:00 PM 4.48 40.064 0.252 7.61 9.21 12.52
11/21/2022 6:45:00 PM 4.45 40.01 0.253 7.6 9.68 12.52
11/21/2022 7:00:00 PM 4.42 39.956 0.252 7.6 9.61 12.51
11/21/2022 7:15:00 PM 4.39 39.902 0.252 7.59 9.97 12.52
11/21/2022 7:30:00 PM 4.36 39.848 0.252 7.59 9.8 12.52
11/21/2022 7:45:00 PM 4.33 39.794 0.252 7.58 9.53 12.52
11/21/2022 8:00:00 PM 4.29 39.722 0.252 7.58 9.67 12.53
11/21/2022 8:15:00 PM 4.26 39.668 0.252 7.57 9.95 12.54
11/21/2022 8:30:00 PM 4.21 39.578 0.253 7.57 10.13 12.55
11/21/2022 8:45:00 PM 4.16 39.488 0.253 7.56 10.07 12.56
11/21/2022 9:00:00 PM 4.12 39.416 0.253 7.56 9.99 12.58
11/21/2022 9:15:00 PM 4.09 39.362 0.253 7.56 10.15 12.59
11/21/2022 9:30:00 PM 4.06 39.308 0.253 7.55 10.01 12.62
11/21/2022 9:45:00 PM 4.03 39.254 0.253 7.55 10.08 12.62
11/21/2022 10:00:00 PM 3.99 39.182 0.253 7.55 10.09 12.62
11/21/2022 10:15:00 PM 3.96 39.128 0.253 7.54 10.06 12.66
11/21/2022 10:30:00 PM 3.93 39.074 0.253 7.54 10.16 12.65
11/21/2022 10:45:00 PM 3.9 39.02 0.254 7.54 10.05 12.65
11/21/2022 11:00:00 PM 3.87 38.966 0.254 7.54 10.04 12.68
11/21/2022 11:15:00 PM 3.84 38.912 0.254 7.54 9.94 12.69
11/21/2022 11:30:00 PM 3.82 38.876 0.254 7.53 10.11 12.7
11/21/2022 11:45:00 PM 3.79 38.822 0.254 7.53 10.09 12.7
11/22/2022 12:00:00 AM 3.75 38.75 0.254 7.53 10.1 12.73
11/22/2022 12:15:00 AM 3.71 38.678 0.254 7.53 10.69 12.73
11/22/2022 12:30:00 AM 3.68 38.624 0.254 7.52 10.53 12.75
11/22/2022 12:45:00 AM 3.64 38.552 0.254 7.52 10.33 12.76
11/22/2022 1:00:00 AM 3.6 38.48 0.254 7.52 10.31 12.77
11/22/2022 1:15:00 AM 3.57 38.426 0.254 7.52 10.06 12.79
11/22/2022 1:30:00 AM 3.53 38.354 0.253 7.52 10.13 12.8
11/22/2022 1:45:00 AM 3.49 38.282 0.253 7.51 10.1 12.82
11/22/2022 2:00:00 AM 3.46 38.228 0.253 7.51 10.1 12.82
11/22/2022 2:15:00 AM 3.43 38.174 0.253 7.51 10.13 12.84
11/22/2022 2:30:00 AM 3.39 38.102 0.253 7.51 10.25 12.84
11/22/2022 2:45:00 AM 3.36 38.048 0.253 7.51 10.14 12.86
11/22/2022 3:00:00 AM 3.33 37.994 0.253 7.5 10.2 12.88
11/22/2022 3:15:00 AM 3.3 37.94 0.252 7.5 10.2 12.89
11/22/2022 3:30:00 AM 3.26 37.868 0.252 7.5 10.17 12.91
11/22/2022 3:45:00 AM 3.23 37.814 0.252 7.5 10.23 12.92
11/22/2022 4:00:00 AM 3.19 37.742 0.252 7.5 10.18 12.93
11/22/2022 4:15:00 AM 3.16 37.688 0.252 7.5 10.28 12.95
11/22/2022 4:30:00 AM 3.13 37.634 0.252 7.5 10.29 12.96
11/22/2022 4:45:00 AM 3.09 37.562 0.252 7.49 10.42 12.97
11/22/2022 5:00:00 AM 3.06 37.508 0.252 7.49 10.36 12.99
11/22/2022 5:15:00 AM 3.03 37.454 0.252 7.49 10.3 12.99
11/22/2022 5:30:00 AM 2.99 37.382 0.252 7.49 10.19 13.01
11/22/2022 5:45:00 AM 2.96 37.328 0.252 7.49 10.22 13.02
11/22/2022 6:00:00 AM 2.93 37.274 0.252 7.49 10.34 13.03
11/22/2022 6:15:00 AM 2.89 37.202 0.252 7.49 10.44 13.06
11/22/2022 6:30:00 AM 2.86 37.148 0.252 7.49 10.19 13.06
11/22/2022 6:45:00 AM 2.83 37.094 0.252 7.49 10.22 13.08
11/22/2022 7:00:00 AM 2.8 37.04 0.252 7.49 10.26 13.1
11/22/2022 7:15:00 AM 2.77 36.986 0.252 7.49 10.32 13.13
11/22/2022 7:30:00 AM 2.75 36.95 0.252 7.49 10.1 13.15
11/22/2022 7:45:00 AM 2.73 36.914 0.252 7.49 9.99 13.2
11/22/2022 8:00:00 AM 2.71 36.878 0.252 7.5 9.9 13.27
11/22/2022 8:15:00 AM 2.7 36.86 0.252 7.5 9.88 13.3
11/22/2022 8:30:00 AM 2.71 36.878 0.252 7.51 9.87 13.37
11/22/2022 8:45:00 AM 2.72 36.896 0.252 7.52 9.9 13.42
11/22/2022 9:00:00 AM 2.74 36.932 0.252 7.53 9.89 13.47
11/22/2022 9:15:00 AM 2.77 36.986 0.252 7.54 9.92 13.53
11/22/2022 9:30:00 AM 2.82 37.076 0.252 7.55 9.86 13.56
11/22/2022 9:45:00 AM 2.89 37.202 0.252 7.56 9.9 13.61
11/22/2022 10:00:00 AM 2.96 37.328 0.252 7.57 9.98 13.63
11/22/2022 10:15:00 AM 3.04 37.472 0.252 7.58 9.84 13.64
11/22/2022 10:30:00 AM 3.13 37.634 0.252 7.59 9.89 13.67
11/22/2022 10:45:00 AM 3.23 37.814 0.252 7.6 10.02 13.67
11/22/2022 11:00:00 AM 3.35 38.03 0.251 7.62 9.96 13.68
11/22/2022 11:15:00 AM 3.48 38.264 0.251 7.63 9.91 13.69
11/22/2022 11:30:00 AM 3.62 38.516 0.252 7.65 9.98 13.7
11/22/2022 11:45:00 AM 3.75 38.75 0.251 7.66 9.98 13.69
11/22/2022 12:00:00 PM 3.87 38.966 0.252 7.67 9.88 13.65
11/22/2022 12:15:00 PM 3.99 39.182 0.253 7.69 9.82 13.62
11/22/2022 12:30:00 PM 4.11 39.398 0.253 7.7 10.11 13.59
11/22/2022 12:45:00 PM 4.22 39.596 0.253 7.7 10.03 13.56
11/22/2022 1:00:00 PM 4.32 39.776 0.253 7.71 9.92 13.51
11/22/2022 1:15:00 PM 4.41 39.938 0.253 7.72 10 13.46
11/22/2022 1:30:00 PM 4.48 40.064 0.253 7.72 9.94 13.42
11/22/2022 1:45:00 PM 4.54 40.172 0.252 7.73 9.87 13.37
11/22/2022 2:00:00 PM 4.6 40.28 0.251 7.73 9.94 13.31
11/22/2022 2:15:00 PM 4.64 40.352 0.251 7.73 9.88 13.27
11/22/2022 2:30:00 PM 4.69 40.442 0.251 7.73 9.72 13.22
11/22/2022 2:45:00 PM 4.75 40.55 0.252 7.73 9.78 13.16
11/22/2022 3:00:00 PM 4.8 40.64 0.252 7.73 9.84 13.11
11/22/2022 3:15:00 PM 4.84 40.712 0.252 7.73 9.91 13.04
11/22/2022 3:30:00 PM 4.88 40.784 0.252 7.72 9.8 12.99
11/22/2022 3:45:00 PM 4.91 40.838 0.252 7.71 9.86 12.92
11/22/2022 4:00:00 PM 4.92 40.856 0.252 7.7 9.92 12.85
11/22/2022 4:15:00 PM 4.92 40.856 0.252 7.69 9.93 12.78
11/22/2022 4:30:00 PM 4.91 40.838 0.252 7.68 9.89 12.7
11/22/2022 4:45:00 PM 4.9 40.82 0.252 7.67 10.01 12.65
11/22/2022 5:00:00 PM 4.86 40.748 0.252 7.65 9.92 12.57
11/22/2022 5:15:00 PM 4.83 40.694 0.253 7.64 9.92 12.54
11/22/2022 5:30:00 PM 4.79 40.622 0.253 7.63 9.96 12.49
11/22/2022 5:45:00 PM 4.75 40.55 0.253 7.62 10 12.47
11/22/2022 6:00:00 PM 4.71 40.478 0.253 7.61 10.05 12.46
11/22/2022 6:15:00 PM 4.66 40.388 0.253 7.6 10.01 12.46
11/22/2022 6:30:00 PM 4.61 40.298 0.253 7.59 10.13 12.46
11/22/2022 6:45:00 PM 4.56 40.208 0.253 7.58 10.12 12.46
11/22/2022 7:00:00 PM 4.51 40.118 0.253 7.57 10.16 12.46
11/22/2022 7:15:00 PM 4.46 40.028 0.253 7.57 10.19 12.47
11/22/2022 7:30:00 PM 4.4 39.92 0.253 7.56 10.18 12.48
11/22/2022 7:45:00 PM 4.35 39.83 0.254 7.56 10.2 12.5
11/22/2022 8:00:00 PM 4.28 39.704 0.253 7.55 13.37 12.51
11/22/2022 8:15:00 PM 4.23 39.614 0.253 7.55 10.2 12.52
11/22/2022 8:30:00 PM 4.17 39.506 0.253 7.55 10.16 12.55
11/22/2022 8:45:00 PM 4.11 39.398 0.253 7.54 10.18 12.56
11/22/2022 9:00:00 PM 4.05 39.29 0.253 7.54 10.17 12.58
11/22/2022 9:15:00 PM 3.99 39.182 0.254 7.54 10.14 12.59
11/22/2022 9:30:00 PM 3.94 39.092 0.254 7.53 10.16 12.62
11/22/2022 9:45:00 PM 3.88 38.984 0.254 7.53 10.28 12.63
11/22/2022 10:00:00 PM 3.83 38.894 0.254 7.53 10.23 12.65
11/22/2022 10:15:00 PM 3.79 38.822 0.254 7.52 10.35 12.68
11/22/2022 10:30:00 PM 3.74 38.732 0.254 7.52 10.32 12.69
11/22/2022 10:45:00 PM 3.7 38.66 0.254 7.52 10.35 12.7
11/22/2022 11:00:00 PM 3.65 38.57 0.254 7.52 10.29 12.72
11/22/2022 11:15:00 PM 3.6 38.48 0.254 7.52 10.3 12.74
11/22/2022 11:30:00 PM 3.55 38.39 0.254 7.52 10.32 12.76
11/22/2022 11:45:00 PM 3.5 38.3 0.254 7.51 10.46 12.77
11/23/2022 12:00:00 AM 3.45 38.21 0.254 7.51 10.33 12.79
11/23/2022 12:15:00 AM 3.41 38.138 0.254 7.51 10.45 12.8
11/23/2022 12:30:00 AM 3.36 38.048 0.254 7.51 10.47 12.81
11/23/2022 12:45:00 AM 3.32 37.976 0.254 7.5 10.42 12.83
11/23/2022 1:00:00 AM 3.28 37.904 0.254 7.5 10.53 12.85
11/23/2022 1:15:00 AM 3.24 37.832 0.254 7.5 10.63 12.85
11/23/2022 1:30:00 AM 3.22 37.796 0.254 7.5 10.46 12.86
11/23/2022 1:45:00 AM 3.18 37.724 0.254 7.5 10.42 12.89
11/23/2022 2:00:00 AM 3.16 37.688 0.254 7.49 10.4 12.89
11/23/2022 2:15:00 AM 3.14 37.652 0.254 7.49 10.57 12.91
11/23/2022 2:30:00 AM 3.11 37.598 0.254 7.49 10.49 12.91
11/23/2022 2:45:00 AM 3.08 37.544 0.254 7.49 10.37 12.92
11/23/2022 3:00:00 AM 3.05 37.49 0.254 7.49 10.34 12.93
11/23/2022 3:15:00 AM 3.03 37.454 0.254 7.49 10.36 12.93
11/23/2022 3:30:00 AM 3 37.4 0.254 7.49 10.28 12.94
11/23/2022 3:45:00 AM 2.98 37.364 0.254 7.49 10.35 12.95
11/23/2022 4:00:00 AM 2.96 37.328 0.254 7.48 10.45 12.97
11/23/2022 4:15:00 AM 2.93 37.274 0.254 7.48 10.45 12.96
11/23/2022 4:30:00 AM 2.9 37.22 0.254 7.48 10.43 12.98
11/23/2022 4:45:00 AM 2.88 37.184 0.254 7.48 10.41 12.99
11/23/2022 5:00:00 AM 2.86 37.148 0.254 7.48 10.52 13
11/23/2022 5:15:00 AM 2.83 37.094 0.253 7.48 10.43 13
11/23/2022 5:30:00 AM 2.81 37.058 0.253 7.48 10.5 13.01
11/23/2022 5:45:00 AM 2.79 37.022 0.253 7.48 10.45 13.03
11/23/2022 6:00:00 AM 2.77 36.986 0.253 7.48 10.48 13.04
11/23/2022 6:15:00 AM 2.74 36.932 0.253 7.48 10.47 13.04
11/23/2022 6:30:00 AM 2.72 36.896 0.253 7.48 10.46 13.06
11/23/2022 6:45:00 AM 2.7 36.86 0.253 7.48 10.46 13.06
11/23/2022 7:00:00 AM 2.68 36.824 0.253 7.48 10.73 13.08
11/23/2022 7:15:00 AM 2.66 36.788 0.254 7.48 10.53 13.1
11/23/2022 7:30:00 AM 2.64 36.752 0.254 7.48 10.93 13.14
11/23/2022 7:45:00 AM 2.63 36.734 0.254 7.48